<?xml version="1.0" encoding="UTF-8" standalone="no" ?>
<gpx xmlns="http://www.topografix.com/GPX/1/1" xmlns:xsi="http://www.w3.org/2001/XMLSchema-instance" xsi:schemaLocation="http://www.topografix.com/GPX/1/1 http://www.topografix.com/GPX/1/1/gpx.xsd" version="1.1" creator="VisuGPX - https://www.visugpx.com">
  <metadata>
    <name>Dent d'Arclusaz</name>
    <desc><![CDATA[Rando 23/06/12]]></desc>
  </metadata>
  <trk>
    <name><![CDATA[Dent d'Arclusaz_1]]></name>
    <trkseg>
      <trkpt lat="45.58388" lon="6.13636">
        <ele>952.299988</ele>
        <time>2012-06-23T06:26:36Z</time>
      </trkpt>
      <trkpt lat="45.58382" lon="6.13627">
        <ele>947.900024</ele>
        <time>2012-06-23T06:27:46Z</time>
      </trkpt>
      <trkpt lat="45.58382" lon="6.13627">
        <ele>948</ele>
        <time>2012-06-23T06:27:47Z</time>
      </trkpt>
      <trkpt lat="45.58376" lon="6.13633">
        <ele>954</ele>
        <time>2012-06-23T06:33:05Z</time>
      </trkpt>
      <trkpt lat="45.58376" lon="6.13632">
        <ele>954.200012</ele>
        <time>2012-06-23T06:33:06Z</time>
      </trkpt>
      <trkpt lat="45.5836" lon="6.13624">
        <ele>955.700012</ele>
        <time>2012-06-23T06:33:20Z</time>
      </trkpt>
      <trkpt lat="45.58352" lon="6.13619">
        <ele>958.5</ele>
        <time>2012-06-23T06:33:28Z</time>
      </trkpt>
      <trkpt lat="45.58344" lon="6.13614">
        <ele>961</ele>
        <time>2012-06-23T06:33:35Z</time>
      </trkpt>
      <trkpt lat="45.58336" lon="6.1361">
        <ele>960.5</ele>
        <time>2012-06-23T06:33:42Z</time>
      </trkpt>
      <trkpt lat="45.58328" lon="6.13606">
        <ele>961.400024</ele>
        <time>2012-06-23T06:33:50Z</time>
      </trkpt>
      <trkpt lat="45.5832" lon="6.13602">
        <ele>964.900024</ele>
        <time>2012-06-23T06:33:58Z</time>
      </trkpt>
      <trkpt lat="45.58312" lon="6.13597">
        <ele>968.900024</ele>
        <time>2012-06-23T06:34:04Z</time>
      </trkpt>
      <trkpt lat="45.58305" lon="6.13593">
        <ele>970.200012</ele>
        <time>2012-06-23T06:34:10Z</time>
      </trkpt>
      <trkpt lat="45.58304" lon="6.13592">
        <ele>970.200012</ele>
        <time>2012-06-23T06:34:11Z</time>
      </trkpt>
      <trkpt lat="45.58289" lon="6.13585">
        <ele>966</ele>
        <time>2012-06-23T06:34:24Z</time>
      </trkpt>
      <trkpt lat="45.5828" lon="6.13583">
        <ele>963.700012</ele>
        <time>2012-06-23T06:34:31Z</time>
      </trkpt>
      <trkpt lat="45.58272" lon="6.13581">
        <ele>962.900024</ele>
        <time>2012-06-23T06:34:38Z</time>
      </trkpt>
      <trkpt lat="45.58264" lon="6.13579">
        <ele>962.200012</ele>
        <time>2012-06-23T06:34:45Z</time>
      </trkpt>
      <trkpt lat="45.58256" lon="6.13577">
        <ele>964.400024</ele>
        <time>2012-06-23T06:34:52Z</time>
      </trkpt>
      <trkpt lat="45.58248" lon="6.13574">
        <ele>970.900024</ele>
        <time>2012-06-23T06:35:01Z</time>
      </trkpt>
      <trkpt lat="45.58239" lon="6.1357">
        <ele>977.200012</ele>
        <time>2012-06-23T06:35:27Z</time>
      </trkpt>
      <trkpt lat="45.58238" lon="6.13571">
        <ele>977</ele>
        <time>2012-06-23T06:35:28Z</time>
      </trkpt>
      <trkpt lat="45.58234" lon="6.13589">
        <ele>977.200012</ele>
        <time>2012-06-23T06:35:51Z</time>
      </trkpt>
      <trkpt lat="45.5824" lon="6.13596">
        <ele>971.700012</ele>
        <time>2012-06-23T06:36:01Z</time>
      </trkpt>
      <trkpt lat="45.58245" lon="6.13606">
        <ele>967.200012</ele>
        <time>2012-06-23T06:36:11Z</time>
      </trkpt>
      <trkpt lat="45.58251" lon="6.13615">
        <ele>969.5</ele>
        <time>2012-06-23T06:36:22Z</time>
      </trkpt>
      <trkpt lat="45.58257" lon="6.13624">
        <ele>968.700012</ele>
        <time>2012-06-23T06:36:30Z</time>
      </trkpt>
      <trkpt lat="45.58258" lon="6.13626">
        <ele>968.5</ele>
        <time>2012-06-23T06:36:31Z</time>
      </trkpt>
      <trkpt lat="45.58269" lon="6.13641">
        <ele>965.5</ele>
        <time>2012-06-23T06:36:44Z</time>
      </trkpt>
      <trkpt lat="45.58275" lon="6.13648">
        <ele>964.700012</ele>
        <time>2012-06-23T06:36:50Z</time>
      </trkpt>
      <trkpt lat="45.58282" lon="6.13654">
        <ele>965</ele>
        <time>2012-06-23T06:36:56Z</time>
      </trkpt>
      <trkpt lat="45.58289" lon="6.1366">
        <ele>966</ele>
        <time>2012-06-23T06:37:02Z</time>
      </trkpt>
      <trkpt lat="45.58296" lon="6.13665">
        <ele>966.400024</ele>
        <time>2012-06-23T06:37:09Z</time>
      </trkpt>
      <trkpt lat="45.58303" lon="6.13673">
        <ele>967.700012</ele>
        <time>2012-06-23T06:37:17Z</time>
      </trkpt>
      <trkpt lat="45.58309" lon="6.13681">
        <ele>969.200012</ele>
        <time>2012-06-23T06:37:26Z</time>
      </trkpt>
      <trkpt lat="45.58316" lon="6.13689">
        <ele>970.5</ele>
        <time>2012-06-23T06:37:34Z</time>
      </trkpt>
      <trkpt lat="45.58317" lon="6.1369">
        <ele>970.900024</ele>
        <time>2012-06-23T06:37:35Z</time>
      </trkpt>
      <trkpt lat="45.58331" lon="6.13702">
        <ele>974.200012</ele>
        <time>2012-06-23T06:37:49Z</time>
      </trkpt>
      <trkpt lat="45.58337" lon="6.13709">
        <ele>977.5</ele>
        <time>2012-06-23T06:37:58Z</time>
      </trkpt>
      <trkpt lat="45.58344" lon="6.13717">
        <ele>987.5</ele>
        <time>2012-06-23T06:38:11Z</time>
      </trkpt>
      <trkpt lat="45.58351" lon="6.13726">
        <ele>992.200012</ele>
        <time>2012-06-23T06:38:23Z</time>
      </trkpt>
      <trkpt lat="45.58357" lon="6.13735">
        <ele>993.400024</ele>
        <time>2012-06-23T06:38:34Z</time>
      </trkpt>
      <trkpt lat="45.58365" lon="6.13742">
        <ele>992.200012</ele>
        <time>2012-06-23T06:38:45Z</time>
      </trkpt>
      <trkpt lat="45.58365" lon="6.13742">
        <ele>992.5</ele>
        <time>2012-06-23T06:38:46Z</time>
      </trkpt>
      <trkpt lat="45.58373" lon="6.13763">
        <ele>996.200012</ele>
        <time>2012-06-23T06:39:07Z</time>
      </trkpt>
      <trkpt lat="45.58378" lon="6.13773">
        <ele>998.700012</ele>
        <time>2012-06-23T06:39:18Z</time>
      </trkpt>
      <trkpt lat="45.58383" lon="6.13784">
        <ele>1000.200012</ele>
        <time>2012-06-23T06:39:27Z</time>
      </trkpt>
      <trkpt lat="45.58387" lon="6.13794">
        <ele>1005.5</ele>
        <time>2012-06-23T06:39:37Z</time>
      </trkpt>
      <trkpt lat="45.58392" lon="6.13803">
        <ele>1010.700012</ele>
        <time>2012-06-23T06:39:46Z</time>
      </trkpt>
      <trkpt lat="45.58393" lon="6.13804">
        <ele>1011</ele>
        <time>2012-06-23T06:39:47Z</time>
      </trkpt>
      <trkpt lat="45.58402" lon="6.13822">
        <ele>1014</ele>
        <time>2012-06-23T06:40:00Z</time>
      </trkpt>
      <trkpt lat="45.58406" lon="6.13833">
        <ele>1014</ele>
        <time>2012-06-23T06:40:06Z</time>
      </trkpt>
      <trkpt lat="45.5841" lon="6.13842">
        <ele>1013.200012</ele>
        <time>2012-06-23T06:40:12Z</time>
      </trkpt>
      <trkpt lat="45.58415" lon="6.13851">
        <ele>1012</ele>
        <time>2012-06-23T06:40:18Z</time>
      </trkpt>
      <trkpt lat="45.5842" lon="6.1386">
        <ele>1013.700012</ele>
        <time>2012-06-23T06:40:26Z</time>
      </trkpt>
      <trkpt lat="45.58426" lon="6.1387">
        <ele>1018</ele>
        <time>2012-06-23T06:40:35Z</time>
      </trkpt>
      <trkpt lat="45.58433" lon="6.13876">
        <ele>1019.5</ele>
        <time>2012-06-23T06:40:42Z</time>
      </trkpt>
      <trkpt lat="45.58439" lon="6.13884">
        <ele>1019.700012</ele>
        <time>2012-06-23T06:40:49Z</time>
      </trkpt>
      <trkpt lat="45.5844" lon="6.13885">
        <ele>1019.5</ele>
        <time>2012-06-23T06:40:50Z</time>
      </trkpt>
      <trkpt lat="45.58452" lon="6.13899">
        <ele>1018.5</ele>
        <time>2012-06-23T06:41:02Z</time>
      </trkpt>
      <trkpt lat="45.58459" lon="6.13906">
        <ele>1018</ele>
        <time>2012-06-23T06:41:08Z</time>
      </trkpt>
      <trkpt lat="45.58465" lon="6.13915">
        <ele>1017.200012</ele>
        <time>2012-06-23T06:41:15Z</time>
      </trkpt>
      <trkpt lat="45.58471" lon="6.13922">
        <ele>1015.900024</ele>
        <time>2012-06-23T06:41:21Z</time>
      </trkpt>
      <trkpt lat="45.58478" lon="6.1393">
        <ele>1016.700012</ele>
        <time>2012-06-23T06:41:28Z</time>
      </trkpt>
      <trkpt lat="45.58485" lon="6.13938">
        <ele>1018.700012</ele>
        <time>2012-06-23T06:41:35Z</time>
      </trkpt>
      <trkpt lat="45.58491" lon="6.13945">
        <ele>1021</ele>
        <time>2012-06-23T06:41:43Z</time>
      </trkpt>
      <trkpt lat="45.58498" lon="6.13953">
        <ele>1020.700012</ele>
        <time>2012-06-23T06:41:51Z</time>
      </trkpt>
      <trkpt lat="45.58499" lon="6.13955">
        <ele>1020.700012</ele>
        <time>2012-06-23T06:41:52Z</time>
      </trkpt>
      <trkpt lat="45.58511" lon="6.13969">
        <ele>1022</ele>
        <time>2012-06-23T06:42:05Z</time>
      </trkpt>
      <trkpt lat="45.58516" lon="6.13977">
        <ele>1024.400024</ele>
        <time>2012-06-23T06:42:12Z</time>
      </trkpt>
      <trkpt lat="45.58522" lon="6.13984">
        <ele>1025.800049</ele>
        <time>2012-06-23T06:42:18Z</time>
      </trkpt>
      <trkpt lat="45.58529" lon="6.13991">
        <ele>1026.099976</ele>
        <time>2012-06-23T06:42:24Z</time>
      </trkpt>
      <trkpt lat="45.58536" lon="6.13999">
        <ele>1026.599976</ele>
        <time>2012-06-23T06:42:31Z</time>
      </trkpt>
      <trkpt lat="45.58542" lon="6.14008">
        <ele>1028.5</ele>
        <time>2012-06-23T06:42:37Z</time>
      </trkpt>
      <trkpt lat="45.58548" lon="6.14018">
        <ele>1028.800049</ele>
        <time>2012-06-23T06:42:44Z</time>
      </trkpt>
      <trkpt lat="45.58553" lon="6.14028">
        <ele>1029.599976</ele>
        <time>2012-06-23T06:42:51Z</time>
      </trkpt>
      <trkpt lat="45.58558" lon="6.14038">
        <ele>1028.599976</ele>
        <time>2012-06-23T06:42:58Z</time>
      </trkpt>
      <trkpt lat="45.58559" lon="6.14039">
        <ele>1028.599976</ele>
        <time>2012-06-23T06:42:59Z</time>
      </trkpt>
      <trkpt lat="45.58568" lon="6.14056">
        <ele>1030</ele>
        <time>2012-06-23T06:43:09Z</time>
      </trkpt>
      <trkpt lat="45.58573" lon="6.14065">
        <ele>1029.099976</ele>
        <time>2012-06-23T06:43:14Z</time>
      </trkpt>
      <trkpt lat="45.58579" lon="6.14074">
        <ele>1029.400024</ele>
        <time>2012-06-23T06:43:19Z</time>
      </trkpt>
      <trkpt lat="45.58585" lon="6.1408">
        <ele>1030.300049</ele>
        <time>2012-06-23T06:43:24Z</time>
      </trkpt>
      <trkpt lat="45.58592" lon="6.14089">
        <ele>1031.800049</ele>
        <time>2012-06-23T06:43:30Z</time>
      </trkpt>
      <trkpt lat="45.58598" lon="6.14097">
        <ele>1032.099976</ele>
        <time>2012-06-23T06:43:36Z</time>
      </trkpt>
      <trkpt lat="45.58603" lon="6.14105">
        <ele>1031.599976</ele>
        <time>2012-06-23T06:43:42Z</time>
      </trkpt>
      <trkpt lat="45.58611" lon="6.14112">
        <ele>1032</ele>
        <time>2012-06-23T06:43:48Z</time>
      </trkpt>
      <trkpt lat="45.58617" lon="6.1412">
        <ele>1034.099976</ele>
        <time>2012-06-23T06:43:54Z</time>
      </trkpt>
      <trkpt lat="45.58621" lon="6.1413">
        <ele>1037.099976</ele>
        <time>2012-06-23T06:44:01Z</time>
      </trkpt>
      <trkpt lat="45.58621" lon="6.14131">
        <ele>1037.800049</ele>
        <time>2012-06-23T06:44:02Z</time>
      </trkpt>
      <trkpt lat="45.58634" lon="6.14145">
        <ele>1037.5</ele>
        <time>2012-06-23T06:44:17Z</time>
      </trkpt>
      <trkpt lat="45.58641" lon="6.14151">
        <ele>1035.400024</ele>
        <time>2012-06-23T06:44:24Z</time>
      </trkpt>
      <trkpt lat="45.58647" lon="6.14158">
        <ele>1034.099976</ele>
        <time>2012-06-23T06:44:32Z</time>
      </trkpt>
      <trkpt lat="45.58651" lon="6.1417">
        <ele>1035.5</ele>
        <time>2012-06-23T06:44:40Z</time>
      </trkpt>
      <trkpt lat="45.58655" lon="6.14181">
        <ele>1036.400024</ele>
        <time>2012-06-23T06:44:47Z</time>
      </trkpt>
      <trkpt lat="45.58659" lon="6.14192">
        <ele>1036</ele>
        <time>2012-06-23T06:44:53Z</time>
      </trkpt>
      <trkpt lat="45.58666" lon="6.142">
        <ele>1035</ele>
        <time>2012-06-23T06:44:59Z</time>
      </trkpt>
      <trkpt lat="45.58672" lon="6.14209">
        <ele>1033.099976</ele>
        <time>2012-06-23T06:45:05Z</time>
      </trkpt>
      <trkpt lat="45.58673" lon="6.14211">
        <ele>1032.599976</ele>
        <time>2012-06-23T06:45:06Z</time>
      </trkpt>
      <trkpt lat="45.58687" lon="6.14223">
        <ele>1028.599976</ele>
        <time>2012-06-23T06:45:17Z</time>
      </trkpt>
      <trkpt lat="45.58694" lon="6.1423">
        <ele>1035.5</ele>
        <time>2012-06-23T06:45:52Z</time>
      </trkpt>
      <trkpt lat="45.587" lon="6.14238">
        <ele>1029</ele>
        <time>2012-06-23T06:47:08Z</time>
      </trkpt>
      <trkpt lat="45.58701" lon="6.14238">
        <ele>1028.900024</ele>
        <time>2012-06-23T06:47:09Z</time>
      </trkpt>
      <trkpt lat="45.58716" lon="6.14247">
        <ele>1025.599976</ele>
        <time>2012-06-23T06:47:22Z</time>
      </trkpt>
      <trkpt lat="45.58724" lon="6.1425">
        <ele>1024.900024</ele>
        <time>2012-06-23T06:47:28Z</time>
      </trkpt>
      <trkpt lat="45.58732" lon="6.14254">
        <ele>1024.5</ele>
        <time>2012-06-23T06:47:33Z</time>
      </trkpt>
      <trkpt lat="45.58739" lon="6.14258">
        <ele>1024.400024</ele>
        <time>2012-06-23T06:47:38Z</time>
      </trkpt>
      <trkpt lat="45.58746" lon="6.14263">
        <ele>1024.099976</ele>
        <time>2012-06-23T06:47:43Z</time>
      </trkpt>
      <trkpt lat="45.58753" lon="6.1427">
        <ele>1024.400024</ele>
        <time>2012-06-23T06:47:49Z</time>
      </trkpt>
      <trkpt lat="45.58758" lon="6.14279">
        <ele>1025</ele>
        <time>2012-06-23T06:47:55Z</time>
      </trkpt>
      <trkpt lat="45.58761" lon="6.14291">
        <ele>1030.300049</ele>
        <time>2012-06-23T06:48:05Z</time>
      </trkpt>
      <trkpt lat="45.58763" lon="6.14303">
        <ele>1039.5</ele>
        <time>2012-06-23T06:48:20Z</time>
      </trkpt>
      <trkpt lat="45.58763" lon="6.14304">
        <ele>1039.800049</ele>
        <time>2012-06-23T06:48:21Z</time>
      </trkpt>
      <trkpt lat="45.58769" lon="6.14325">
        <ele>1045</ele>
        <time>2012-06-23T06:48:39Z</time>
      </trkpt>
      <trkpt lat="45.58774" lon="6.14335">
        <ele>1043.599976</ele>
        <time>2012-06-23T06:48:46Z</time>
      </trkpt>
      <trkpt lat="45.58779" lon="6.14345">
        <ele>1041.300049</ele>
        <time>2012-06-23T06:48:52Z</time>
      </trkpt>
      <trkpt lat="45.58784" lon="6.14354">
        <ele>1037.099976</ele>
        <time>2012-06-23T06:48:57Z</time>
      </trkpt>
      <trkpt lat="45.58791" lon="6.14361">
        <ele>1031.599976</ele>
        <time>2012-06-23T06:49:04Z</time>
      </trkpt>
      <trkpt lat="45.58799" lon="6.14368">
        <ele>1029.5</ele>
        <time>2012-06-23T06:49:12Z</time>
      </trkpt>
      <trkpt lat="45.58807" lon="6.14372">
        <ele>1031.5</ele>
        <time>2012-06-23T06:49:20Z</time>
      </trkpt>
      <trkpt lat="45.58814" lon="6.14379">
        <ele>1033.800049</ele>
        <time>2012-06-23T06:49:29Z</time>
      </trkpt>
      <trkpt lat="45.58815" lon="6.1438">
        <ele>1034.300049</ele>
        <time>2012-06-23T06:49:30Z</time>
      </trkpt>
      <trkpt lat="45.58827" lon="6.14392">
        <ele>1038.800049</ele>
        <time>2012-06-23T06:49:42Z</time>
      </trkpt>
      <trkpt lat="45.58834" lon="6.144">
        <ele>1040</ele>
        <time>2012-06-23T06:49:48Z</time>
      </trkpt>
      <trkpt lat="45.58841" lon="6.14407">
        <ele>1040.400024</ele>
        <time>2012-06-23T06:49:55Z</time>
      </trkpt>
      <trkpt lat="45.58846" lon="6.14417">
        <ele>1040.599976</ele>
        <time>2012-06-23T06:50:02Z</time>
      </trkpt>
      <trkpt lat="45.58852" lon="6.14425">
        <ele>1043.300049</ele>
        <time>2012-06-23T06:50:09Z</time>
      </trkpt>
      <trkpt lat="45.58855" lon="6.14436">
        <ele>1044.300049</ele>
        <time>2012-06-23T06:50:16Z</time>
      </trkpt>
      <trkpt lat="45.5886" lon="6.14445">
        <ele>1045.900024</ele>
        <time>2012-06-23T06:50:21Z</time>
      </trkpt>
      <trkpt lat="45.58866" lon="6.14454">
        <ele>1046.5</ele>
        <time>2012-06-23T06:50:26Z</time>
      </trkpt>
      <trkpt lat="45.58871" lon="6.14464">
        <ele>1045.300049</ele>
        <time>2012-06-23T06:50:31Z</time>
      </trkpt>
      <trkpt lat="45.58871" lon="6.14465">
        <ele>1045</ele>
        <time>2012-06-23T06:50:32Z</time>
      </trkpt>
      <trkpt lat="45.5888" lon="6.14483">
        <ele>1044.599976</ele>
        <time>2012-06-23T06:50:41Z</time>
      </trkpt>
      <trkpt lat="45.58886" lon="6.14493">
        <ele>1043.099976</ele>
        <time>2012-06-23T06:50:45Z</time>
      </trkpt>
      <trkpt lat="45.58891" lon="6.14502">
        <ele>1040.599976</ele>
        <time>2012-06-23T06:50:50Z</time>
      </trkpt>
      <trkpt lat="45.58895" lon="6.14511">
        <ele>1037.400024</ele>
        <time>2012-06-23T06:50:56Z</time>
      </trkpt>
      <trkpt lat="45.58898" lon="6.14524">
        <ele>1037.599976</ele>
        <time>2012-06-23T06:51:03Z</time>
      </trkpt>
      <trkpt lat="45.58896" lon="6.14536">
        <ele>1039.800049</ele>
        <time>2012-06-23T06:51:10Z</time>
      </trkpt>
      <trkpt lat="45.58893" lon="6.14547">
        <ele>1043.800049</ele>
        <time>2012-06-23T06:51:17Z</time>
      </trkpt>
      <trkpt lat="45.5889" lon="6.14559">
        <ele>1051.800049</ele>
        <time>2012-06-23T06:51:27Z</time>
      </trkpt>
      <trkpt lat="45.58888" lon="6.14569">
        <ele>1054.5</ele>
        <time>2012-06-23T06:51:33Z</time>
      </trkpt>
      <trkpt lat="45.58888" lon="6.14571">
        <ele>1054.5</ele>
        <time>2012-06-23T06:51:34Z</time>
      </trkpt>
      <trkpt lat="45.58897" lon="6.1459">
        <ele>1044.800049</ele>
        <time>2012-06-23T06:51:47Z</time>
      </trkpt>
      <trkpt lat="45.58903" lon="6.14596">
        <ele>1039.5</ele>
        <time>2012-06-23T06:51:55Z</time>
      </trkpt>
      <trkpt lat="45.5891" lon="6.14604">
        <ele>1037.099976</ele>
        <time>2012-06-23T06:52:03Z</time>
      </trkpt>
      <trkpt lat="45.58916" lon="6.14612">
        <ele>1038.599976</ele>
        <time>2012-06-23T06:52:12Z</time>
      </trkpt>
      <trkpt lat="45.58922" lon="6.1462">
        <ele>1037</ele>
        <time>2012-06-23T06:52:19Z</time>
      </trkpt>
      <trkpt lat="45.58929" lon="6.14628">
        <ele>1035.5</ele>
        <time>2012-06-23T06:52:27Z</time>
      </trkpt>
      <trkpt lat="45.58934" lon="6.14638">
        <ele>1037</ele>
        <time>2012-06-23T06:52:37Z</time>
      </trkpt>
      <trkpt lat="45.58935" lon="6.14639">
        <ele>1037.099976</ele>
        <time>2012-06-23T06:52:38Z</time>
      </trkpt>
      <trkpt lat="45.58946" lon="6.14654">
        <ele>1040</ele>
        <time>2012-06-23T06:52:51Z</time>
      </trkpt>
      <trkpt lat="45.58951" lon="6.14663">
        <ele>1040.800049</ele>
        <time>2012-06-23T06:52:58Z</time>
      </trkpt>
      <trkpt lat="45.58955" lon="6.14674">
        <ele>1044</ele>
        <time>2012-06-23T06:53:07Z</time>
      </trkpt>
      <trkpt lat="45.5896" lon="6.14684">
        <ele>1045.5</ele>
        <time>2012-06-23T06:53:15Z</time>
      </trkpt>
      <trkpt lat="45.58964" lon="6.14695">
        <ele>1047.400024</ele>
        <time>2012-06-23T06:53:22Z</time>
      </trkpt>
      <trkpt lat="45.58969" lon="6.14705">
        <ele>1048.900024</ele>
        <time>2012-06-23T06:53:29Z</time>
      </trkpt>
      <trkpt lat="45.5897" lon="6.14716">
        <ele>1050.400024</ele>
        <time>2012-06-23T06:53:35Z</time>
      </trkpt>
      <trkpt lat="45.58976" lon="6.14725">
        <ele>1053.5</ele>
        <time>2012-06-23T06:53:43Z</time>
      </trkpt>
      <trkpt lat="45.58976" lon="6.14727">
        <ele>1053.900024</ele>
        <time>2012-06-23T06:53:44Z</time>
      </trkpt>
      <trkpt lat="45.58977" lon="6.14749">
        <ele>1061.400024</ele>
        <time>2012-06-23T06:54:01Z</time>
      </trkpt>
      <trkpt lat="45.58977" lon="6.14761">
        <ele>1064.800049</ele>
        <time>2012-06-23T06:54:09Z</time>
      </trkpt>
      <trkpt lat="45.58981" lon="6.14771">
        <ele>1069.5</ele>
        <time>2012-06-23T06:54:20Z</time>
      </trkpt>
      <trkpt lat="45.58987" lon="6.1478">
        <ele>1071.099976</ele>
        <time>2012-06-23T06:54:33Z</time>
      </trkpt>
      <trkpt lat="45.58995" lon="6.14785">
        <ele>1069.900024</ele>
        <time>2012-06-23T06:54:45Z</time>
      </trkpt>
      <trkpt lat="45.58996" lon="6.14786">
        <ele>1069.900024</ele>
        <time>2012-06-23T06:54:46Z</time>
      </trkpt>
      <trkpt lat="45.59012" lon="6.1479">
        <ele>1072.5</ele>
        <time>2012-06-23T06:55:10Z</time>
      </trkpt>
      <trkpt lat="45.5902" lon="6.14792">
        <ele>1073.300049</ele>
        <time>2012-06-23T06:55:21Z</time>
      </trkpt>
      <trkpt lat="45.59029" lon="6.14794">
        <ele>1072.5</ele>
        <time>2012-06-23T06:55:31Z</time>
      </trkpt>
      <trkpt lat="45.59038" lon="6.14794">
        <ele>1075.5</ele>
        <time>2012-06-23T06:55:43Z</time>
      </trkpt>
      <trkpt lat="45.59046" lon="6.14797">
        <ele>1079.599976</ele>
        <time>2012-06-23T06:55:54Z</time>
      </trkpt>
      <trkpt lat="45.59047" lon="6.14798">
        <ele>1080</ele>
        <time>2012-06-23T06:55:55Z</time>
      </trkpt>
      <trkpt lat="45.59064" lon="6.14797">
        <ele>1084.900024</ele>
        <time>2012-06-23T06:56:17Z</time>
      </trkpt>
      <trkpt lat="45.59072" lon="6.14798">
        <ele>1088</ele>
        <time>2012-06-23T06:56:30Z</time>
      </trkpt>
      <trkpt lat="45.59081" lon="6.148">
        <ele>1090.300049</ele>
        <time>2012-06-23T06:56:42Z</time>
      </trkpt>
      <trkpt lat="45.59089" lon="6.14803">
        <ele>1093</ele>
        <time>2012-06-23T06:56:53Z</time>
      </trkpt>
      <trkpt lat="45.59097" lon="6.14805">
        <ele>1093.400024</ele>
        <time>2012-06-23T06:57:03Z</time>
      </trkpt>
      <trkpt lat="45.59098" lon="6.14805">
        <ele>1093.400024</ele>
        <time>2012-06-23T06:57:04Z</time>
      </trkpt>
      <trkpt lat="45.59115" lon="6.14809">
        <ele>1097.800049</ele>
        <time>2012-06-23T06:57:24Z</time>
      </trkpt>
      <trkpt lat="45.59123" lon="6.1481">
        <ele>1100.400024</ele>
        <time>2012-06-23T06:57:33Z</time>
      </trkpt>
      <trkpt lat="45.59132" lon="6.14811">
        <ele>1101.099976</ele>
        <time>2012-06-23T06:57:43Z</time>
      </trkpt>
      <trkpt lat="45.59141" lon="6.1481">
        <ele>1103.900024</ele>
        <time>2012-06-23T06:57:53Z</time>
      </trkpt>
      <trkpt lat="45.59149" lon="6.14815">
        <ele>1118.400024</ele>
        <time>2012-06-23T06:58:14Z</time>
      </trkpt>
      <trkpt lat="45.59149" lon="6.14815">
        <ele>1119</ele>
        <time>2012-06-23T06:58:15Z</time>
      </trkpt>
      <trkpt lat="45.59165" lon="6.14822">
        <ele>1130</ele>
        <time>2012-06-23T06:58:43Z</time>
      </trkpt>
      <trkpt lat="45.59174" lon="6.1482">
        <ele>1131.900024</ele>
        <time>2012-06-23T06:58:56Z</time>
      </trkpt>
      <trkpt lat="45.59182" lon="6.14819">
        <ele>1133.099976</ele>
        <time>2012-06-23T06:59:07Z</time>
      </trkpt>
      <trkpt lat="45.5919" lon="6.1482">
        <ele>1133.5</ele>
        <time>2012-06-23T06:59:16Z</time>
      </trkpt>
      <trkpt lat="45.59191" lon="6.1482">
        <ele>1133.5</ele>
        <time>2012-06-23T06:59:17Z</time>
      </trkpt>
      <trkpt lat="45.59208" lon="6.14825">
        <ele>1136.400024</ele>
        <time>2012-06-23T06:59:38Z</time>
      </trkpt>
      <trkpt lat="45.59215" lon="6.14831">
        <ele>1140.099976</ele>
        <time>2012-06-23T06:59:51Z</time>
      </trkpt>
      <trkpt lat="45.59223" lon="6.14837">
        <ele>1143</ele>
        <time>2012-06-23T07:00:02Z</time>
      </trkpt>
      <trkpt lat="45.59228" lon="6.14848">
        <ele>1147.5</ele>
        <time>2012-06-23T07:00:18Z</time>
      </trkpt>
      <trkpt lat="45.59228" lon="6.14848">
        <ele>1147.599976</ele>
        <time>2012-06-23T07:00:19Z</time>
      </trkpt>
      <trkpt lat="45.59241" lon="6.14864">
        <ele>1149.900024</ele>
        <time>2012-06-23T07:00:39Z</time>
      </trkpt>
      <trkpt lat="45.59248" lon="6.14871">
        <ele>1151.800049</ele>
        <time>2012-06-23T07:00:48Z</time>
      </trkpt>
      <trkpt lat="45.59255" lon="6.14876">
        <ele>1152.900024</ele>
        <time>2012-06-23T07:00:56Z</time>
      </trkpt>
      <trkpt lat="45.59264" lon="6.14878">
        <ele>1157</ele>
        <time>2012-06-23T07:01:09Z</time>
      </trkpt>
      <trkpt lat="45.59272" lon="6.14877">
        <ele>1161.400024</ele>
        <time>2012-06-23T07:01:20Z</time>
      </trkpt>
      <trkpt lat="45.59273" lon="6.14878">
        <ele>1161.800049</ele>
        <time>2012-06-23T07:01:21Z</time>
      </trkpt>
      <trkpt lat="45.59289" lon="6.14884">
        <ele>1166</ele>
        <time>2012-06-23T07:01:43Z</time>
      </trkpt>
      <trkpt lat="45.59297" lon="6.14887">
        <ele>1166.400024</ele>
        <time>2012-06-23T07:01:51Z</time>
      </trkpt>
      <trkpt lat="45.59305" lon="6.1489">
        <ele>1166.599976</ele>
        <time>2012-06-23T07:02:00Z</time>
      </trkpt>
      <trkpt lat="45.59314" lon="6.14894">
        <ele>1166.900024</ele>
        <time>2012-06-23T07:02:09Z</time>
      </trkpt>
      <trkpt lat="45.59322" lon="6.14898">
        <ele>1169.099976</ele>
        <time>2012-06-23T07:02:19Z</time>
      </trkpt>
      <trkpt lat="45.5933" lon="6.14901">
        <ele>1170</ele>
        <time>2012-06-23T07:02:28Z</time>
      </trkpt>
      <trkpt lat="45.59331" lon="6.14902">
        <ele>1170.099976</ele>
        <time>2012-06-23T07:02:29Z</time>
      </trkpt>
      <trkpt lat="45.59347" lon="6.14905">
        <ele>1177.099976</ele>
        <time>2012-06-23T07:02:50Z</time>
      </trkpt>
      <trkpt lat="45.59356" lon="6.14904">
        <ele>1181</ele>
        <time>2012-06-23T07:02:59Z</time>
      </trkpt>
      <trkpt lat="45.59364" lon="6.14907">
        <ele>1184.5</ele>
        <time>2012-06-23T07:03:11Z</time>
      </trkpt>
      <trkpt lat="45.59373" lon="6.14909">
        <ele>1186.300049</ele>
        <time>2012-06-23T07:03:23Z</time>
      </trkpt>
      <trkpt lat="45.59381" lon="6.14908">
        <ele>1189.300049</ele>
        <time>2012-06-23T07:03:35Z</time>
      </trkpt>
      <trkpt lat="45.59382" lon="6.14908">
        <ele>1189.599976</ele>
        <time>2012-06-23T07:03:36Z</time>
      </trkpt>
      <trkpt lat="45.59399" lon="6.14908">
        <ele>1193.599976</ele>
        <time>2012-06-23T07:03:57Z</time>
      </trkpt>
      <trkpt lat="45.59407" lon="6.14907">
        <ele>1196</ele>
        <time>2012-06-23T07:04:08Z</time>
      </trkpt>
      <trkpt lat="45.59416" lon="6.14907">
        <ele>1200.400024</ele>
        <time>2012-06-23T07:04:20Z</time>
      </trkpt>
      <trkpt lat="45.59424" lon="6.1491">
        <ele>1207.5</ele>
        <time>2012-06-23T07:04:35Z</time>
      </trkpt>
      <trkpt lat="45.59432" lon="6.14912">
        <ele>1210.099976</ele>
        <time>2012-06-23T07:04:46Z</time>
      </trkpt>
      <trkpt lat="45.59433" lon="6.14913">
        <ele>1210.5</ele>
        <time>2012-06-23T07:04:47Z</time>
      </trkpt>
      <trkpt lat="45.59449" lon="6.14918">
        <ele>1216.599976</ele>
        <time>2012-06-23T07:05:09Z</time>
      </trkpt>
      <trkpt lat="45.59458" lon="6.14917">
        <ele>1220.400024</ele>
        <time>2012-06-23T07:05:21Z</time>
      </trkpt>
      <trkpt lat="45.59465" lon="6.14911">
        <ele>1225.099976</ele>
        <time>2012-06-23T07:05:35Z</time>
      </trkpt>
      <trkpt lat="45.59474" lon="6.14908">
        <ele>1230.5</ele>
        <time>2012-06-23T07:05:49Z</time>
      </trkpt>
      <trkpt lat="45.59475" lon="6.14908">
        <ele>1230.900024</ele>
        <time>2012-06-23T07:05:50Z</time>
      </trkpt>
      <trkpt lat="45.5949" lon="6.14901">
        <ele>1233.5</ele>
        <time>2012-06-23T07:06:11Z</time>
      </trkpt>
      <trkpt lat="45.59498" lon="6.14898">
        <ele>1235</ele>
        <time>2012-06-23T07:06:22Z</time>
      </trkpt>
      <trkpt lat="45.59506" lon="6.14896">
        <ele>1236.900024</ele>
        <time>2012-06-23T07:06:32Z</time>
      </trkpt>
      <trkpt lat="45.59515" lon="6.14894">
        <ele>1238</ele>
        <time>2012-06-23T07:06:41Z</time>
      </trkpt>
      <trkpt lat="45.59524" lon="6.14894">
        <ele>1239.900024</ele>
        <time>2012-06-23T07:06:52Z</time>
      </trkpt>
      <trkpt lat="45.59525" lon="6.14895">
        <ele>1240.099976</ele>
        <time>2012-06-23T07:06:53Z</time>
      </trkpt>
      <trkpt lat="45.59541" lon="6.14899">
        <ele>1244.800049</ele>
        <time>2012-06-23T07:07:17Z</time>
      </trkpt>
      <trkpt lat="45.59549" lon="6.14902">
        <ele>1247.300049</ele>
        <time>2012-06-23T07:07:29Z</time>
      </trkpt>
      <trkpt lat="45.59557" lon="6.14907">
        <ele>1248.099976</ele>
        <time>2012-06-23T07:07:39Z</time>
      </trkpt>
      <trkpt lat="45.59564" lon="6.14913">
        <ele>1249.400024</ele>
        <time>2012-06-23T07:07:49Z</time>
      </trkpt>
      <trkpt lat="45.59572" lon="6.14917">
        <ele>1249.5</ele>
        <time>2012-06-23T07:07:57Z</time>
      </trkpt>
      <trkpt lat="45.59573" lon="6.14917">
        <ele>1249.5</ele>
        <time>2012-06-23T07:07:58Z</time>
      </trkpt>
      <trkpt lat="45.59589" lon="6.1492">
        <ele>1250.400024</ele>
        <time>2012-06-23T07:08:16Z</time>
      </trkpt>
      <trkpt lat="45.59597" lon="6.14921">
        <ele>1251.099976</ele>
        <time>2012-06-23T07:08:23Z</time>
      </trkpt>
      <trkpt lat="45.59606" lon="6.14922">
        <ele>1252.099976</ele>
        <time>2012-06-23T07:08:32Z</time>
      </trkpt>
      <trkpt lat="45.59615" lon="6.14921">
        <ele>1253.400024</ele>
        <time>2012-06-23T07:08:40Z</time>
      </trkpt>
      <trkpt lat="45.59623" lon="6.14921">
        <ele>1253.300049</ele>
        <time>2012-06-23T07:08:48Z</time>
      </trkpt>
      <trkpt lat="45.59632" lon="6.1492">
        <ele>1252.900024</ele>
        <time>2012-06-23T07:08:54Z</time>
      </trkpt>
      <trkpt lat="45.5964" lon="6.1492">
        <ele>1253.5</ele>
        <time>2012-06-23T07:08:59Z</time>
      </trkpt>
      <trkpt lat="45.59642" lon="6.1492">
        <ele>1253.5</ele>
        <time>2012-06-23T07:09:00Z</time>
      </trkpt>
      <trkpt lat="45.59656" lon="6.14922">
        <ele>1253.5</ele>
        <time>2012-06-23T07:09:13Z</time>
      </trkpt>
      <trkpt lat="45.59665" lon="6.14924">
        <ele>1257.400024</ele>
        <time>2012-06-23T07:09:22Z</time>
      </trkpt>
      <trkpt lat="45.59673" lon="6.14926">
        <ele>1263.599976</ele>
        <time>2012-06-23T07:09:32Z</time>
      </trkpt>
      <trkpt lat="45.5968" lon="6.14933">
        <ele>1266.5</ele>
        <time>2012-06-23T07:09:41Z</time>
      </trkpt>
      <trkpt lat="45.59687" lon="6.14937">
        <ele>1265.300049</ele>
        <time>2012-06-23T07:09:48Z</time>
      </trkpt>
      <trkpt lat="45.59695" lon="6.1494">
        <ele>1264.099976</ele>
        <time>2012-06-23T07:09:54Z</time>
      </trkpt>
      <trkpt lat="45.59703" lon="6.14944">
        <ele>1263.400024</ele>
        <time>2012-06-23T07:09:59Z</time>
      </trkpt>
      <trkpt lat="45.59711" lon="6.14948">
        <ele>1262.900024</ele>
        <time>2012-06-23T07:10:04Z</time>
      </trkpt>
      <trkpt lat="45.59712" lon="6.14949">
        <ele>1262.800049</ele>
        <time>2012-06-23T07:10:05Z</time>
      </trkpt>
      <trkpt lat="45.59725" lon="6.14957">
        <ele>1262.800049</ele>
        <time>2012-06-23T07:10:14Z</time>
      </trkpt>
      <trkpt lat="45.59731" lon="6.14965">
        <ele>1262.900024</ele>
        <time>2012-06-23T07:10:19Z</time>
      </trkpt>
      <trkpt lat="45.59738" lon="6.14974">
        <ele>1262.900024</ele>
        <time>2012-06-23T07:10:25Z</time>
      </trkpt>
      <trkpt lat="45.59742" lon="6.14984">
        <ele>1266.5</ele>
        <time>2012-06-23T07:10:33Z</time>
      </trkpt>
      <trkpt lat="45.59747" lon="6.14994">
        <ele>1270</ele>
        <time>2012-06-23T07:10:40Z</time>
      </trkpt>
      <trkpt lat="45.59754" lon="6.15001">
        <ele>1272.599976</ele>
        <time>2012-06-23T07:10:48Z</time>
      </trkpt>
      <trkpt lat="45.59761" lon="6.15007">
        <ele>1272.900024</ele>
        <time>2012-06-23T07:10:57Z</time>
      </trkpt>
      <trkpt lat="45.59768" lon="6.15014">
        <ele>1271.300049</ele>
        <time>2012-06-23T07:11:05Z</time>
      </trkpt>
      <trkpt lat="45.59769" lon="6.15015">
        <ele>1271.099976</ele>
        <time>2012-06-23T07:11:06Z</time>
      </trkpt>
      <trkpt lat="45.59782" lon="6.15026">
        <ele>1267.800049</ele>
        <time>2012-06-23T07:11:19Z</time>
      </trkpt>
      <trkpt lat="45.5979" lon="6.15032">
        <ele>1268.800049</ele>
        <time>2012-06-23T07:11:25Z</time>
      </trkpt>
      <trkpt lat="45.59797" lon="6.15039">
        <ele>1270.400024</ele>
        <time>2012-06-23T07:11:32Z</time>
      </trkpt>
      <trkpt lat="45.59804" lon="6.15043">
        <ele>1271.400024</ele>
        <time>2012-06-23T07:11:38Z</time>
      </trkpt>
      <trkpt lat="45.59812" lon="6.15047">
        <ele>1271.099976</ele>
        <time>2012-06-23T07:11:45Z</time>
      </trkpt>
      <trkpt lat="45.59819" lon="6.15052">
        <ele>1271.300049</ele>
        <time>2012-06-23T07:11:52Z</time>
      </trkpt>
      <trkpt lat="45.59827" lon="6.15056">
        <ele>1270</ele>
        <time>2012-06-23T07:11:58Z</time>
      </trkpt>
      <trkpt lat="45.59834" lon="6.15062">
        <ele>1270.099976</ele>
        <time>2012-06-23T07:12:05Z</time>
      </trkpt>
      <trkpt lat="45.59842" lon="6.15067">
        <ele>1270.800049</ele>
        <time>2012-06-23T07:12:13Z</time>
      </trkpt>
      <trkpt lat="45.59843" lon="6.15068">
        <ele>1270.900024</ele>
        <time>2012-06-23T07:12:14Z</time>
      </trkpt>
      <trkpt lat="45.59857" lon="6.15078">
        <ele>1272.900024</ele>
        <time>2012-06-23T07:12:27Z</time>
      </trkpt>
      <trkpt lat="45.59865" lon="6.15083">
        <ele>1274.5</ele>
        <time>2012-06-23T07:12:34Z</time>
      </trkpt>
      <trkpt lat="45.59872" lon="6.15086">
        <ele>1275</ele>
        <time>2012-06-23T07:12:40Z</time>
      </trkpt>
      <trkpt lat="45.5988" lon="6.15092">
        <ele>1275.900024</ele>
        <time>2012-06-23T07:12:47Z</time>
      </trkpt>
      <trkpt lat="45.59887" lon="6.15098">
        <ele>1278.099976</ele>
        <time>2012-06-23T07:12:53Z</time>
      </trkpt>
      <trkpt lat="45.59892" lon="6.15108">
        <ele>1282.900024</ele>
        <time>2012-06-23T07:13:03Z</time>
      </trkpt>
      <trkpt lat="45.59895" lon="6.1512">
        <ele>1287.800049</ele>
        <time>2012-06-23T07:13:14Z</time>
      </trkpt>
      <trkpt lat="45.59895" lon="6.15121">
        <ele>1287.900024</ele>
        <time>2012-06-23T07:13:15Z</time>
      </trkpt>
      <trkpt lat="45.59905" lon="6.15137">
        <ele>1286.099976</ele>
        <time>2012-06-23T07:13:29Z</time>
      </trkpt>
      <trkpt lat="45.59912" lon="6.15144">
        <ele>1283.800049</ele>
        <time>2012-06-23T07:13:36Z</time>
      </trkpt>
      <trkpt lat="45.59918" lon="6.15151">
        <ele>1282.400024</ele>
        <time>2012-06-23T07:13:43Z</time>
      </trkpt>
      <trkpt lat="45.59925" lon="6.15157">
        <ele>1282</ele>
        <time>2012-06-23T07:13:50Z</time>
      </trkpt>
      <trkpt lat="45.59932" lon="6.15165">
        <ele>1285.099976</ele>
        <time>2012-06-23T07:13:59Z</time>
      </trkpt>
      <trkpt lat="45.5994" lon="6.15169">
        <ele>1285.800049</ele>
        <time>2012-06-23T07:14:08Z</time>
      </trkpt>
      <trkpt lat="45.59949" lon="6.15173">
        <ele>1288.800049</ele>
        <time>2012-06-23T07:14:18Z</time>
      </trkpt>
      <trkpt lat="45.59949" lon="6.15173">
        <ele>1289</ele>
        <time>2012-06-23T07:14:19Z</time>
      </trkpt>
      <trkpt lat="45.59964" lon="6.1518">
        <ele>1292.800049</ele>
        <time>2012-06-23T07:14:40Z</time>
      </trkpt>
      <trkpt lat="45.59972" lon="6.15184">
        <ele>1293.800049</ele>
        <time>2012-06-23T07:14:50Z</time>
      </trkpt>
      <trkpt lat="45.5998" lon="6.15187">
        <ele>1294</ele>
        <time>2012-06-23T07:14:59Z</time>
      </trkpt>
      <trkpt lat="45.59988" lon="6.15193">
        <ele>1296.099976</ele>
        <time>2012-06-23T07:15:09Z</time>
      </trkpt>
      <trkpt lat="45.59996" lon="6.15197">
        <ele>1296.400024</ele>
        <time>2012-06-23T07:15:17Z</time>
      </trkpt>
      <trkpt lat="45.60004" lon="6.15202">
        <ele>1298</ele>
        <time>2012-06-23T07:15:26Z</time>
      </trkpt>
      <trkpt lat="45.60005" lon="6.15203">
        <ele>1297.900024</ele>
        <time>2012-06-23T07:15:27Z</time>
      </trkpt>
      <trkpt lat="45.60018" lon="6.15215">
        <ele>1302</ele>
        <time>2012-06-23T07:15:42Z</time>
      </trkpt>
      <trkpt lat="45.60026" lon="6.15222">
        <ele>1303.900024</ele>
        <time>2012-06-23T07:15:50Z</time>
      </trkpt>
      <trkpt lat="45.60034" lon="6.15227">
        <ele>1303.900024</ele>
        <time>2012-06-23T07:15:57Z</time>
      </trkpt>
      <trkpt lat="45.60042" lon="6.15232">
        <ele>1303.300049</ele>
        <time>2012-06-23T07:16:04Z</time>
      </trkpt>
      <trkpt lat="45.60049" lon="6.15238">
        <ele>1304</ele>
        <time>2012-06-23T07:16:11Z</time>
      </trkpt>
      <trkpt lat="45.60056" lon="6.15244">
        <ele>1304.300049</ele>
        <time>2012-06-23T07:16:18Z</time>
      </trkpt>
      <trkpt lat="45.60063" lon="6.15249">
        <ele>1305.099976</ele>
        <time>2012-06-23T07:16:25Z</time>
      </trkpt>
      <trkpt lat="45.6007" lon="6.15256">
        <ele>1307.900024</ele>
        <time>2012-06-23T07:16:33Z</time>
      </trkpt>
      <trkpt lat="45.60071" lon="6.15257">
        <ele>1307.900024</ele>
        <time>2012-06-23T07:16:34Z</time>
      </trkpt>
      <trkpt lat="45.60079" lon="6.15276">
        <ele>1313.5</ele>
        <time>2012-06-23T07:16:48Z</time>
      </trkpt>
      <trkpt lat="45.60086" lon="6.15283">
        <ele>1314.599976</ele>
        <time>2012-06-23T07:16:54Z</time>
      </trkpt>
      <trkpt lat="45.60093" lon="6.15291">
        <ele>1315.900024</ele>
        <time>2012-06-23T07:17:00Z</time>
      </trkpt>
      <trkpt lat="45.60098" lon="6.153">
        <ele>1317.099976</ele>
        <time>2012-06-23T07:17:07Z</time>
      </trkpt>
      <trkpt lat="45.60104" lon="6.15307">
        <ele>1318</ele>
        <time>2012-06-23T07:17:13Z</time>
      </trkpt>
      <trkpt lat="45.60111" lon="6.15314">
        <ele>1319.099976</ele>
        <time>2012-06-23T07:17:20Z</time>
      </trkpt>
      <trkpt lat="45.60119" lon="6.1532">
        <ele>1321.099976</ele>
        <time>2012-06-23T07:17:28Z</time>
      </trkpt>
      <trkpt lat="45.60126" lon="6.15327">
        <ele>1323.599976</ele>
        <time>2012-06-23T07:17:37Z</time>
      </trkpt>
      <trkpt lat="45.60127" lon="6.15328">
        <ele>1324</ele>
        <time>2012-06-23T07:17:38Z</time>
      </trkpt>
      <trkpt lat="45.60138" lon="6.15345">
        <ele>1331</ele>
        <time>2012-06-23T07:17:57Z</time>
      </trkpt>
      <trkpt lat="45.60144" lon="6.15354">
        <ele>1333.400024</ele>
        <time>2012-06-23T07:18:06Z</time>
      </trkpt>
      <trkpt lat="45.6015" lon="6.15362">
        <ele>1336</ele>
        <time>2012-06-23T07:18:15Z</time>
      </trkpt>
      <trkpt lat="45.60156" lon="6.15369">
        <ele>1338.5</ele>
        <time>2012-06-23T07:18:24Z</time>
      </trkpt>
      <trkpt lat="45.60159" lon="6.15381">
        <ele>1342.5</ele>
        <time>2012-06-23T07:18:34Z</time>
      </trkpt>
      <trkpt lat="45.60157" lon="6.15393">
        <ele>1346.599976</ele>
        <time>2012-06-23T07:18:46Z</time>
      </trkpt>
      <trkpt lat="45.60157" lon="6.15394">
        <ele>1347</ele>
        <time>2012-06-23T07:18:47Z</time>
      </trkpt>
      <trkpt lat="45.60169" lon="6.15408">
        <ele>1347.800049</ele>
        <time>2012-06-23T07:19:01Z</time>
      </trkpt>
      <trkpt lat="45.60176" lon="6.15413">
        <ele>1347.900024</ele>
        <time>2012-06-23T07:19:09Z</time>
      </trkpt>
      <trkpt lat="45.60185" lon="6.15417">
        <ele>1349</ele>
        <time>2012-06-23T07:19:18Z</time>
      </trkpt>
      <trkpt lat="45.60193" lon="6.15421">
        <ele>1349.599976</ele>
        <time>2012-06-23T07:19:26Z</time>
      </trkpt>
      <trkpt lat="45.602" lon="6.15427">
        <ele>1350.800049</ele>
        <time>2012-06-23T07:19:33Z</time>
      </trkpt>
      <trkpt lat="45.60207" lon="6.15434">
        <ele>1351.599976</ele>
        <time>2012-06-23T07:19:40Z</time>
      </trkpt>
      <trkpt lat="45.60214" lon="6.1544">
        <ele>1352.900024</ele>
        <time>2012-06-23T07:19:47Z</time>
      </trkpt>
      <trkpt lat="45.60215" lon="6.15441">
        <ele>1353</ele>
        <time>2012-06-23T07:19:48Z</time>
      </trkpt>
      <trkpt lat="45.60229" lon="6.15451">
        <ele>1355.099976</ele>
        <time>2012-06-23T07:20:01Z</time>
      </trkpt>
      <trkpt lat="45.60237" lon="6.15457">
        <ele>1357</ele>
        <time>2012-06-23T07:20:09Z</time>
      </trkpt>
      <trkpt lat="45.60245" lon="6.15462">
        <ele>1359</ele>
        <time>2012-06-23T07:20:17Z</time>
      </trkpt>
      <trkpt lat="45.60253" lon="6.15468">
        <ele>1360.5</ele>
        <time>2012-06-23T07:20:25Z</time>
      </trkpt>
      <trkpt lat="45.6026" lon="6.15474">
        <ele>1362.099976</ele>
        <time>2012-06-23T07:20:32Z</time>
      </trkpt>
      <trkpt lat="45.60266" lon="6.1548">
        <ele>1363.5</ele>
        <time>2012-06-23T07:20:39Z</time>
      </trkpt>
      <trkpt lat="45.60273" lon="6.15487">
        <ele>1364.400024</ele>
        <time>2012-06-23T07:20:46Z</time>
      </trkpt>
      <trkpt lat="45.60279" lon="6.15494">
        <ele>1365.5</ele>
        <time>2012-06-23T07:20:53Z</time>
      </trkpt>
      <trkpt lat="45.6028" lon="6.15495">
        <ele>1365.599976</ele>
        <time>2012-06-23T07:20:54Z</time>
      </trkpt>
      <trkpt lat="45.60292" lon="6.1551">
        <ele>1367.099976</ele>
        <time>2012-06-23T07:21:07Z</time>
      </trkpt>
      <trkpt lat="45.60298" lon="6.15518">
        <ele>1368.800049</ele>
        <time>2012-06-23T07:21:14Z</time>
      </trkpt>
      <trkpt lat="45.60304" lon="6.15526">
        <ele>1370.099976</ele>
        <time>2012-06-23T07:21:21Z</time>
      </trkpt>
      <trkpt lat="45.6031" lon="6.15534">
        <ele>1371</ele>
        <time>2012-06-23T07:21:27Z</time>
      </trkpt>
      <trkpt lat="45.60316" lon="6.15542">
        <ele>1372.5</ele>
        <time>2012-06-23T07:21:34Z</time>
      </trkpt>
      <trkpt lat="45.60321" lon="6.15552">
        <ele>1376.400024</ele>
        <time>2012-06-23T07:21:43Z</time>
      </trkpt>
      <trkpt lat="45.60325" lon="6.15562">
        <ele>1380</ele>
        <time>2012-06-23T07:21:52Z</time>
      </trkpt>
      <trkpt lat="45.60328" lon="6.15573">
        <ele>1382.400024</ele>
        <time>2012-06-23T07:22:00Z</time>
      </trkpt>
      <trkpt lat="45.60328" lon="6.15574">
        <ele>1382.5</ele>
        <time>2012-06-23T07:22:01Z</time>
      </trkpt>
      <trkpt lat="45.60337" lon="6.15594">
        <ele>1386.300049</ele>
        <time>2012-06-23T07:22:18Z</time>
      </trkpt>
      <trkpt lat="45.60342" lon="6.15603">
        <ele>1387.099976</ele>
        <time>2012-06-23T07:22:27Z</time>
      </trkpt>
      <trkpt lat="45.60348" lon="6.15611">
        <ele>1388.800049</ele>
        <time>2012-06-23T07:22:35Z</time>
      </trkpt>
      <trkpt lat="45.60355" lon="6.15619">
        <ele>1390.099976</ele>
        <time>2012-06-23T07:22:43Z</time>
      </trkpt>
      <trkpt lat="45.60362" lon="6.15625">
        <ele>1391.099976</ele>
        <time>2012-06-23T07:22:51Z</time>
      </trkpt>
      <trkpt lat="45.60368" lon="6.15632">
        <ele>1391.599976</ele>
        <time>2012-06-23T07:22:58Z</time>
      </trkpt>
      <trkpt lat="45.60375" lon="6.15638">
        <ele>1392.800049</ele>
        <time>2012-06-23T07:23:05Z</time>
      </trkpt>
      <trkpt lat="45.60376" lon="6.15639">
        <ele>1393</ele>
        <time>2012-06-23T07:23:06Z</time>
      </trkpt>
      <trkpt lat="45.60379" lon="6.15657">
        <ele>1398.099976</ele>
        <time>2012-06-23T07:23:21Z</time>
      </trkpt>
      <trkpt lat="45.60372" lon="6.15665">
        <ele>1398.599976</ele>
        <time>2012-06-23T07:23:28Z</time>
      </trkpt>
      <trkpt lat="45.60369" lon="6.15676">
        <ele>1396.5</ele>
        <time>2012-06-23T07:23:38Z</time>
      </trkpt>
      <trkpt lat="45.60372" lon="6.15687">
        <ele>1396.300049</ele>
        <time>2012-06-23T07:23:48Z</time>
      </trkpt>
      <trkpt lat="45.60374" lon="6.15699">
        <ele>1397.900024</ele>
        <time>2012-06-23T07:23:58Z</time>
      </trkpt>
      <trkpt lat="45.60377" lon="6.1571">
        <ele>1400.5</ele>
        <time>2012-06-23T07:24:07Z</time>
      </trkpt>
      <trkpt lat="45.60377" lon="6.15711">
        <ele>1400.599976</ele>
        <time>2012-06-23T07:24:08Z</time>
      </trkpt>
      <trkpt lat="45.60384" lon="6.15733">
        <ele>1405</ele>
        <time>2012-06-23T07:24:22Z</time>
      </trkpt>
      <trkpt lat="45.60387" lon="6.15743">
        <ele>1405.5</ele>
        <time>2012-06-23T07:24:29Z</time>
      </trkpt>
      <trkpt lat="45.60392" lon="6.15752">
        <ele>1404.900024</ele>
        <time>2012-06-23T07:24:35Z</time>
      </trkpt>
      <trkpt lat="45.60396" lon="6.15763">
        <ele>1403.5</ele>
        <time>2012-06-23T07:24:42Z</time>
      </trkpt>
      <trkpt lat="45.604" lon="6.15774">
        <ele>1402.400024</ele>
        <time>2012-06-23T07:24:48Z</time>
      </trkpt>
      <trkpt lat="45.60404" lon="6.15784">
        <ele>1400.5</ele>
        <time>2012-06-23T07:24:54Z</time>
      </trkpt>
      <trkpt lat="45.60409" lon="6.15794">
        <ele>1398</ele>
        <time>2012-06-23T07:24:59Z</time>
      </trkpt>
      <trkpt lat="45.60414" lon="6.15804">
        <ele>1397.5</ele>
        <time>2012-06-23T07:25:05Z</time>
      </trkpt>
      <trkpt lat="45.60418" lon="6.15813">
        <ele>1397.5</ele>
        <time>2012-06-23T07:25:10Z</time>
      </trkpt>
      <trkpt lat="45.60418" lon="6.15815">
        <ele>1397.5</ele>
        <time>2012-06-23T07:25:11Z</time>
      </trkpt>
      <trkpt lat="45.60428" lon="6.15831">
        <ele>1392.800049</ele>
        <time>2012-06-23T07:25:20Z</time>
      </trkpt>
      <trkpt lat="45.60433" lon="6.15841">
        <ele>1390.5</ele>
        <time>2012-06-23T07:25:25Z</time>
      </trkpt>
      <trkpt lat="45.60438" lon="6.15851">
        <ele>1388</ele>
        <time>2012-06-23T07:25:29Z</time>
      </trkpt>
      <trkpt lat="45.60443" lon="6.15859">
        <ele>1385.5</ele>
        <time>2012-06-23T07:25:33Z</time>
      </trkpt>
      <trkpt lat="45.60448" lon="6.15869">
        <ele>1384.5</ele>
        <time>2012-06-23T07:25:38Z</time>
      </trkpt>
      <trkpt lat="45.60453" lon="6.15877">
        <ele>1384.099976</ele>
        <time>2012-06-23T07:25:42Z</time>
      </trkpt>
      <trkpt lat="45.60459" lon="6.15885">
        <ele>1383.300049</ele>
        <time>2012-06-23T07:25:47Z</time>
      </trkpt>
      <trkpt lat="45.60463" lon="6.15894">
        <ele>1382.900024</ele>
        <time>2012-06-23T07:25:51Z</time>
      </trkpt>
      <trkpt lat="45.60468" lon="6.15905">
        <ele>1382.400024</ele>
        <time>2012-06-23T07:25:56Z</time>
      </trkpt>
      <trkpt lat="45.60471" lon="6.15915">
        <ele>1381.900024</ele>
        <time>2012-06-23T07:26:00Z</time>
      </trkpt>
      <trkpt lat="45.60474" lon="6.15924">
        <ele>1381.300049</ele>
        <time>2012-06-23T07:26:04Z</time>
      </trkpt>
      <trkpt lat="45.60478" lon="6.15935">
        <ele>1380.400024</ele>
        <time>2012-06-23T07:26:08Z</time>
      </trkpt>
      <trkpt lat="45.60482" lon="6.15946">
        <ele>1379</ele>
        <time>2012-06-23T07:26:13Z</time>
      </trkpt>
      <trkpt lat="45.60482" lon="6.15948">
        <ele>1378.800049</ele>
        <time>2012-06-23T07:26:14Z</time>
      </trkpt>
      <trkpt lat="45.60489" lon="6.15967">
        <ele>1375.599976</ele>
        <time>2012-06-23T07:26:23Z</time>
      </trkpt>
      <trkpt lat="45.60491" lon="6.15978">
        <ele>1373.400024</ele>
        <time>2012-06-23T07:26:28Z</time>
      </trkpt>
      <trkpt lat="45.60491" lon="6.1599">
        <ele>1370.900024</ele>
        <time>2012-06-23T07:26:34Z</time>
      </trkpt>
      <trkpt lat="45.6049" lon="6.16001">
        <ele>1369</ele>
        <time>2012-06-23T07:26:40Z</time>
      </trkpt>
      <trkpt lat="45.60489" lon="6.16013">
        <ele>1367.300049</ele>
        <time>2012-06-23T07:26:46Z</time>
      </trkpt>
      <trkpt lat="45.60484" lon="6.16023">
        <ele>1364.599976</ele>
        <time>2012-06-23T07:26:53Z</time>
      </trkpt>
      <trkpt lat="45.6049" lon="6.16033">
        <ele>1356.300049</ele>
        <time>2012-06-23T07:28:30Z</time>
      </trkpt>
      <trkpt lat="45.6049" lon="6.16034">
        <ele>1356.400024</ele>
        <time>2012-06-23T07:28:31Z</time>
      </trkpt>
      <trkpt lat="45.60493" lon="6.16056">
        <ele>1360.599976</ele>
        <time>2012-06-23T07:28:49Z</time>
      </trkpt>
      <trkpt lat="45.60499" lon="6.16065">
        <ele>1362</ele>
        <time>2012-06-23T07:28:57Z</time>
      </trkpt>
      <trkpt lat="45.60503" lon="6.16074">
        <ele>1363.599976</ele>
        <time>2012-06-23T07:29:06Z</time>
      </trkpt>
      <trkpt lat="45.60508" lon="6.16085">
        <ele>1366.300049</ele>
        <time>2012-06-23T07:29:17Z</time>
      </trkpt>
      <trkpt lat="45.60511" lon="6.16097">
        <ele>1369.400024</ele>
        <time>2012-06-23T07:29:28Z</time>
      </trkpt>
      <trkpt lat="45.60503" lon="6.16095">
        <ele>1374.599976</ele>
        <time>2012-06-23T07:29:44Z</time>
      </trkpt>
      <trkpt lat="45.60502" lon="6.16095">
        <ele>1375</ele>
        <time>2012-06-23T07:29:45Z</time>
      </trkpt>
      <trkpt lat="45.60486" lon="6.16095">
        <ele>1380.5</ele>
        <time>2012-06-23T07:30:00Z</time>
      </trkpt>
      <trkpt lat="45.60478" lon="6.16098">
        <ele>1384.5</ele>
        <time>2012-06-23T07:30:09Z</time>
      </trkpt>
      <trkpt lat="45.60469" lon="6.16102">
        <ele>1388</ele>
        <time>2012-06-23T07:30:27Z</time>
      </trkpt>
      <trkpt lat="45.60462" lon="6.16108">
        <ele>1390.5</ele>
        <time>2012-06-23T07:30:36Z</time>
      </trkpt>
      <trkpt lat="45.60456" lon="6.16116">
        <ele>1393</ele>
        <time>2012-06-23T07:30:45Z</time>
      </trkpt>
      <trkpt lat="45.60455" lon="6.16117">
        <ele>1393.400024</ele>
        <time>2012-06-23T07:30:46Z</time>
      </trkpt>
      <trkpt lat="45.60442" lon="6.16128">
        <ele>1398.300049</ele>
        <time>2012-06-23T07:31:03Z</time>
      </trkpt>
      <trkpt lat="45.60436" lon="6.16137">
        <ele>1399.300049</ele>
        <time>2012-06-23T07:31:13Z</time>
      </trkpt>
      <trkpt lat="45.60431" lon="6.16147">
        <ele>1397.300049</ele>
        <time>2012-06-23T07:31:23Z</time>
      </trkpt>
      <trkpt lat="45.60425" lon="6.16154">
        <ele>1399.400024</ele>
        <time>2012-06-23T07:31:31Z</time>
      </trkpt>
      <trkpt lat="45.60418" lon="6.16161">
        <ele>1404.400024</ele>
        <time>2012-06-23T07:31:39Z</time>
      </trkpt>
      <trkpt lat="45.60411" lon="6.16168">
        <ele>1407.5</ele>
        <time>2012-06-23T07:31:47Z</time>
      </trkpt>
      <trkpt lat="45.6041" lon="6.16169">
        <ele>1408.099976</ele>
        <time>2012-06-23T07:31:48Z</time>
      </trkpt>
      <trkpt lat="45.60397" lon="6.16181">
        <ele>1416.5</ele>
        <time>2012-06-23T07:32:01Z</time>
      </trkpt>
      <trkpt lat="45.6039" lon="6.16188">
        <ele>1420.5</ele>
        <time>2012-06-23T07:32:10Z</time>
      </trkpt>
      <trkpt lat="45.60384" lon="6.16197">
        <ele>1420.400024</ele>
        <time>2012-06-23T07:32:20Z</time>
      </trkpt>
      <trkpt lat="45.60377" lon="6.16204">
        <ele>1421.099976</ele>
        <time>2012-06-23T07:32:29Z</time>
      </trkpt>
      <trkpt lat="45.60371" lon="6.16213">
        <ele>1419.5</ele>
        <time>2012-06-23T07:32:38Z</time>
      </trkpt>
      <trkpt lat="45.60365" lon="6.1622">
        <ele>1420</ele>
        <time>2012-06-23T07:32:45Z</time>
      </trkpt>
      <trkpt lat="45.60358" lon="6.16226">
        <ele>1421.300049</ele>
        <time>2012-06-23T07:32:53Z</time>
      </trkpt>
      <trkpt lat="45.60357" lon="6.16226">
        <ele>1421.5</ele>
        <time>2012-06-23T07:32:54Z</time>
      </trkpt>
      <trkpt lat="45.60342" lon="6.16233">
        <ele>1421.400024</ele>
        <time>2012-06-23T07:33:09Z</time>
      </trkpt>
      <trkpt lat="45.60334" lon="6.16236">
        <ele>1424</ele>
        <time>2012-06-23T07:33:19Z</time>
      </trkpt>
      <trkpt lat="45.60326" lon="6.16235">
        <ele>1427</ele>
        <time>2012-06-23T07:33:30Z</time>
      </trkpt>
      <trkpt lat="45.60318" lon="6.16233">
        <ele>1431.800049</ele>
        <time>2012-06-23T07:33:39Z</time>
      </trkpt>
      <trkpt lat="45.6031" lon="6.16229">
        <ele>1436.300049</ele>
        <time>2012-06-23T07:33:46Z</time>
      </trkpt>
      <trkpt lat="45.60301" lon="6.16227">
        <ele>1439.400024</ele>
        <time>2012-06-23T07:33:54Z</time>
      </trkpt>
      <trkpt lat="45.60299" lon="6.16227">
        <ele>1439.5</ele>
        <time>2012-06-23T07:33:55Z</time>
      </trkpt>
      <trkpt lat="45.60284" lon="6.16229">
        <ele>1444</ele>
        <time>2012-06-23T07:34:06Z</time>
      </trkpt>
      <trkpt lat="45.60276" lon="6.1623">
        <ele>1446.099976</ele>
        <time>2012-06-23T07:34:13Z</time>
      </trkpt>
      <trkpt lat="45.60268" lon="6.16231">
        <ele>1445.400024</ele>
        <time>2012-06-23T07:34:21Z</time>
      </trkpt>
      <trkpt lat="45.60259" lon="6.16233">
        <ele>1445.900024</ele>
        <time>2012-06-23T07:34:28Z</time>
      </trkpt>
      <trkpt lat="45.6025" lon="6.16234">
        <ele>1445</ele>
        <time>2012-06-23T07:34:36Z</time>
      </trkpt>
      <trkpt lat="45.60243" lon="6.16235">
        <ele>1445.599976</ele>
        <time>2012-06-23T07:34:41Z</time>
      </trkpt>
      <trkpt lat="45.60235" lon="6.16236">
        <ele>1447.5</ele>
        <time>2012-06-23T07:34:45Z</time>
      </trkpt>
      <trkpt lat="45.60228" lon="6.16238">
        <ele>1448.5</ele>
        <time>2012-06-23T07:34:49Z</time>
      </trkpt>
      <trkpt lat="45.60219" lon="6.16242">
        <ele>1450.5</ele>
        <time>2012-06-23T07:34:54Z</time>
      </trkpt>
      <trkpt lat="45.60211" lon="6.16246">
        <ele>1452.5</ele>
        <time>2012-06-23T07:34:59Z</time>
      </trkpt>
      <trkpt lat="45.6021" lon="6.16247">
        <ele>1453</ele>
        <time>2012-06-23T07:35:00Z</time>
      </trkpt>
      <trkpt lat="45.60197" lon="6.16246">
        <ele>1457.800049</ele>
        <time>2012-06-23T07:35:07Z</time>
      </trkpt>
      <trkpt lat="45.6019" lon="6.16244">
        <ele>1462.300049</ele>
        <time>2012-06-23T07:35:12Z</time>
      </trkpt>
      <trkpt lat="45.60182" lon="6.16239">
        <ele>1463.900024</ele>
        <time>2012-06-23T07:35:21Z</time>
      </trkpt>
      <trkpt lat="45.60174" lon="6.16244">
        <ele>1461.300049</ele>
        <time>2012-06-23T07:35:33Z</time>
      </trkpt>
      <trkpt lat="45.60166" lon="6.16247">
        <ele>1460.300049</ele>
        <time>2012-06-23T07:35:41Z</time>
      </trkpt>
      <trkpt lat="45.60158" lon="6.16251">
        <ele>1456.099976</ele>
        <time>2012-06-23T07:35:49Z</time>
      </trkpt>
      <trkpt lat="45.6015" lon="6.16257">
        <ele>1450.599976</ele>
        <time>2012-06-23T07:35:58Z</time>
      </trkpt>
      <trkpt lat="45.60143" lon="6.16259">
        <ele>1449</ele>
        <time>2012-06-23T07:36:04Z</time>
      </trkpt>
      <trkpt lat="45.60141" lon="6.1626">
        <ele>1449.099976</ele>
        <time>2012-06-23T07:36:05Z</time>
      </trkpt>
      <trkpt lat="45.60127" lon="6.16263">
        <ele>1451.599976</ele>
        <time>2012-06-23T07:36:13Z</time>
      </trkpt>
      <trkpt lat="45.6012" lon="6.16265">
        <ele>1455.099976</ele>
        <time>2012-06-23T07:36:19Z</time>
      </trkpt>
      <trkpt lat="45.60112" lon="6.16266">
        <ele>1457.599976</ele>
        <time>2012-06-23T07:36:24Z</time>
      </trkpt>
      <trkpt lat="45.60104" lon="6.1627">
        <ele>1459.5</ele>
        <time>2012-06-23T07:36:29Z</time>
      </trkpt>
      <trkpt lat="45.60097" lon="6.16276">
        <ele>1460</ele>
        <time>2012-06-23T07:36:36Z</time>
      </trkpt>
      <trkpt lat="45.60089" lon="6.16282">
        <ele>1460</ele>
        <time>2012-06-23T07:36:44Z</time>
      </trkpt>
      <trkpt lat="45.60082" lon="6.16289">
        <ele>1458.5</ele>
        <time>2012-06-23T07:36:52Z</time>
      </trkpt>
      <trkpt lat="45.60074" lon="6.16294">
        <ele>1457.800049</ele>
        <time>2012-06-23T07:37:01Z</time>
      </trkpt>
      <trkpt lat="45.60066" lon="6.16296">
        <ele>1458.099976</ele>
        <time>2012-06-23T07:37:08Z</time>
      </trkpt>
      <trkpt lat="45.60064" lon="6.16297">
        <ele>1458.300049</ele>
        <time>2012-06-23T07:37:09Z</time>
      </trkpt>
      <trkpt lat="45.6005" lon="6.16302">
        <ele>1463</ele>
        <time>2012-06-23T07:37:19Z</time>
      </trkpt>
      <trkpt lat="45.60041" lon="6.16305">
        <ele>1464.599976</ele>
        <time>2012-06-23T07:37:26Z</time>
      </trkpt>
      <trkpt lat="45.60047" lon="6.16314">
        <ele>1470.5</ele>
        <time>2012-06-23T07:38:02Z</time>
      </trkpt>
      <trkpt lat="45.60055" lon="6.16315">
        <ele>1468.5</ele>
        <time>2012-06-23T07:38:11Z</time>
      </trkpt>
      <trkpt lat="45.60056" lon="6.16315">
        <ele>1468.099976</ele>
        <time>2012-06-23T07:38:12Z</time>
      </trkpt>
      <trkpt lat="45.60071" lon="6.16318">
        <ele>1466.099976</ele>
        <time>2012-06-23T07:38:24Z</time>
      </trkpt>
      <trkpt lat="45.60079" lon="6.16319">
        <ele>1464</ele>
        <time>2012-06-23T07:38:29Z</time>
      </trkpt>
      <trkpt lat="45.60087" lon="6.16319">
        <ele>1461.5</ele>
        <time>2012-06-23T07:38:34Z</time>
      </trkpt>
      <trkpt lat="45.60096" lon="6.16321">
        <ele>1462.5</ele>
        <time>2012-06-23T07:38:41Z</time>
      </trkpt>
      <trkpt lat="45.60104" lon="6.16321">
        <ele>1466</ele>
        <time>2012-06-23T07:38:51Z</time>
      </trkpt>
      <trkpt lat="45.60113" lon="6.16319">
        <ele>1468.400024</ele>
        <time>2012-06-23T07:39:02Z</time>
      </trkpt>
      <trkpt lat="45.60121" lon="6.16317">
        <ele>1468.800049</ele>
        <time>2012-06-23T07:39:12Z</time>
      </trkpt>
      <trkpt lat="45.60122" lon="6.16318">
        <ele>1468.5</ele>
        <time>2012-06-23T07:39:13Z</time>
      </trkpt>
      <trkpt lat="45.60137" lon="6.16317">
        <ele>1469.5</ele>
        <time>2012-06-23T07:39:28Z</time>
      </trkpt>
      <trkpt lat="45.60146" lon="6.16318">
        <ele>1471.800049</ele>
        <time>2012-06-23T07:39:36Z</time>
      </trkpt>
      <trkpt lat="45.60154" lon="6.1632">
        <ele>1473</ele>
        <time>2012-06-23T07:39:43Z</time>
      </trkpt>
      <trkpt lat="45.60162" lon="6.16323">
        <ele>1474.5</ele>
        <time>2012-06-23T07:39:51Z</time>
      </trkpt>
      <trkpt lat="45.6017" lon="6.16324">
        <ele>1477.300049</ele>
        <time>2012-06-23T07:39:58Z</time>
      </trkpt>
      <trkpt lat="45.60178" lon="6.16325">
        <ele>1477.900024</ele>
        <time>2012-06-23T07:40:05Z</time>
      </trkpt>
      <trkpt lat="45.60187" lon="6.16323">
        <ele>1479</ele>
        <time>2012-06-23T07:40:13Z</time>
      </trkpt>
      <trkpt lat="45.60188" lon="6.16323">
        <ele>1479.400024</ele>
        <time>2012-06-23T07:40:14Z</time>
      </trkpt>
      <trkpt lat="45.60203" lon="6.16328">
        <ele>1480.900024</ele>
        <time>2012-06-23T07:40:28Z</time>
      </trkpt>
      <trkpt lat="45.6021" lon="6.16333">
        <ele>1479.400024</ele>
        <time>2012-06-23T07:40:34Z</time>
      </trkpt>
      <trkpt lat="45.60218" lon="6.16336">
        <ele>1478.300049</ele>
        <time>2012-06-23T07:40:41Z</time>
      </trkpt>
      <trkpt lat="45.60226" lon="6.16339">
        <ele>1478.900024</ele>
        <time>2012-06-23T07:40:49Z</time>
      </trkpt>
      <trkpt lat="45.60235" lon="6.16344">
        <ele>1480.5</ele>
        <time>2012-06-23T07:40:58Z</time>
      </trkpt>
      <trkpt lat="45.60243" lon="6.16346">
        <ele>1482.5</ele>
        <time>2012-06-23T07:41:06Z</time>
      </trkpt>
      <trkpt lat="45.60251" lon="6.16346">
        <ele>1485.5</ele>
        <time>2012-06-23T07:41:15Z</time>
      </trkpt>
      <trkpt lat="45.60252" lon="6.16346">
        <ele>1485.800049</ele>
        <time>2012-06-23T07:41:16Z</time>
      </trkpt>
      <trkpt lat="45.60268" lon="6.16347">
        <ele>1488.400024</ele>
        <time>2012-06-23T07:41:30Z</time>
      </trkpt>
      <trkpt lat="45.60276" lon="6.1635">
        <ele>1490.099976</ele>
        <time>2012-06-23T07:41:36Z</time>
      </trkpt>
      <trkpt lat="45.60285" lon="6.16351">
        <ele>1494.5</ele>
        <time>2012-06-23T07:41:45Z</time>
      </trkpt>
      <trkpt lat="45.60293" lon="6.16353">
        <ele>1495</ele>
        <time>2012-06-23T07:41:53Z</time>
      </trkpt>
      <trkpt lat="45.60301" lon="6.16356">
        <ele>1496.400024</ele>
        <time>2012-06-23T07:42:00Z</time>
      </trkpt>
      <trkpt lat="45.60309" lon="6.16361">
        <ele>1499.599976</ele>
        <time>2012-06-23T07:42:09Z</time>
      </trkpt>
      <trkpt lat="45.60315" lon="6.16368">
        <ele>1501</ele>
        <time>2012-06-23T07:42:16Z</time>
      </trkpt>
      <trkpt lat="45.60316" lon="6.16369">
        <ele>1500.900024</ele>
        <time>2012-06-23T07:42:17Z</time>
      </trkpt>
      <trkpt lat="45.6033" lon="6.16379">
        <ele>1500.5</ele>
        <time>2012-06-23T07:42:31Z</time>
      </trkpt>
      <trkpt lat="45.60338" lon="6.16385">
        <ele>1506.5</ele>
        <time>2012-06-23T07:42:44Z</time>
      </trkpt>
      <trkpt lat="45.60332" lon="6.16395">
        <ele>1517.599976</ele>
        <time>2012-06-23T07:43:28Z</time>
      </trkpt>
      <trkpt lat="45.60332" lon="6.16395">
        <ele>1518.400024</ele>
        <time>2012-06-23T07:43:29Z</time>
      </trkpt>
      <trkpt lat="45.60316" lon="6.16397">
        <ele>1530</ele>
        <time>2012-06-23T07:43:53Z</time>
      </trkpt>
      <trkpt lat="45.60307" lon="6.16397">
        <ele>1534</ele>
        <time>2012-06-23T07:44:05Z</time>
      </trkpt>
      <trkpt lat="45.60299" lon="6.16399">
        <ele>1536.099976</ele>
        <time>2012-06-23T07:44:13Z</time>
      </trkpt>
      <trkpt lat="45.6029" lon="6.164">
        <ele>1539.599976</ele>
        <time>2012-06-23T07:44:21Z</time>
      </trkpt>
      <trkpt lat="45.60282" lon="6.16402">
        <ele>1540</ele>
        <time>2012-06-23T07:44:31Z</time>
      </trkpt>
      <trkpt lat="45.60281" lon="6.16402">
        <ele>1540</ele>
        <time>2012-06-23T07:44:32Z</time>
      </trkpt>
      <trkpt lat="45.60265" lon="6.16405">
        <ele>1544</ele>
        <time>2012-06-23T07:44:46Z</time>
      </trkpt>
      <trkpt lat="45.60256" lon="6.16406">
        <ele>1544.599976</ele>
        <time>2012-06-23T07:44:54Z</time>
      </trkpt>
      <trkpt lat="45.60249" lon="6.16411">
        <ele>1545</ele>
        <time>2012-06-23T07:45:02Z</time>
      </trkpt>
      <trkpt lat="45.6024" lon="6.16414">
        <ele>1544.800049</ele>
        <time>2012-06-23T07:45:12Z</time>
      </trkpt>
      <trkpt lat="45.60232" lon="6.16415">
        <ele>1546</ele>
        <time>2012-06-23T07:45:21Z</time>
      </trkpt>
      <trkpt lat="45.60223" lon="6.16416">
        <ele>1545.900024</ele>
        <time>2012-06-23T07:45:28Z</time>
      </trkpt>
      <trkpt lat="45.60215" lon="6.1642">
        <ele>1546.099976</ele>
        <time>2012-06-23T07:45:36Z</time>
      </trkpt>
      <trkpt lat="45.60214" lon="6.1642">
        <ele>1546</ele>
        <time>2012-06-23T07:45:37Z</time>
      </trkpt>
      <trkpt lat="45.60198" lon="6.16424">
        <ele>1547.400024</ele>
        <time>2012-06-23T07:45:54Z</time>
      </trkpt>
      <trkpt lat="45.6019" lon="6.16428">
        <ele>1548.400024</ele>
        <time>2012-06-23T07:46:04Z</time>
      </trkpt>
      <trkpt lat="45.60183" lon="6.16434">
        <ele>1545.800049</ele>
        <time>2012-06-23T07:46:14Z</time>
      </trkpt>
      <trkpt lat="45.60174" lon="6.16439">
        <ele>1544.099976</ele>
        <time>2012-06-23T07:46:23Z</time>
      </trkpt>
      <trkpt lat="45.60168" lon="6.16445">
        <ele>1542.800049</ele>
        <time>2012-06-23T07:46:30Z</time>
      </trkpt>
      <trkpt lat="45.6016" lon="6.1645">
        <ele>1543.300049</ele>
        <time>2012-06-23T07:46:36Z</time>
      </trkpt>
      <trkpt lat="45.60153" lon="6.16455">
        <ele>1544</ele>
        <time>2012-06-23T07:46:42Z</time>
      </trkpt>
      <trkpt lat="45.60152" lon="6.16456">
        <ele>1544.300049</ele>
        <time>2012-06-23T07:46:43Z</time>
      </trkpt>
      <trkpt lat="45.60138" lon="6.16466">
        <ele>1545.099976</ele>
        <time>2012-06-23T07:46:56Z</time>
      </trkpt>
      <trkpt lat="45.60133" lon="6.16475">
        <ele>1543.800049</ele>
        <time>2012-06-23T07:47:10Z</time>
      </trkpt>
      <trkpt lat="45.60125" lon="6.16481">
        <ele>1546.599976</ele>
        <time>2012-06-23T07:47:19Z</time>
      </trkpt>
      <trkpt lat="45.60117" lon="6.16484">
        <ele>1550</ele>
        <time>2012-06-23T07:47:33Z</time>
      </trkpt>
      <trkpt lat="45.60108" lon="6.16484">
        <ele>1554.099976</ele>
        <time>2012-06-23T07:47:41Z</time>
      </trkpt>
      <trkpt lat="45.601" lon="6.16488">
        <ele>1557.5</ele>
        <time>2012-06-23T07:47:51Z</time>
      </trkpt>
      <trkpt lat="45.601" lon="6.16489">
        <ele>1557.599976</ele>
        <time>2012-06-23T07:47:52Z</time>
      </trkpt>
      <trkpt lat="45.60117" lon="6.16498">
        <ele>1567.300049</ele>
        <time>2012-06-23T07:48:28Z</time>
      </trkpt>
      <trkpt lat="45.60125" lon="6.16498">
        <ele>1570</ele>
        <time>2012-06-23T07:48:37Z</time>
      </trkpt>
      <trkpt lat="45.60133" lon="6.16498">
        <ele>1573</ele>
        <time>2012-06-23T07:48:47Z</time>
      </trkpt>
      <trkpt lat="45.60141" lon="6.16499">
        <ele>1576.5</ele>
        <time>2012-06-23T07:48:57Z</time>
      </trkpt>
      <trkpt lat="45.60142" lon="6.16499">
        <ele>1576.800049</ele>
        <time>2012-06-23T07:48:58Z</time>
      </trkpt>
      <trkpt lat="45.60158" lon="6.165">
        <ele>1580.800049</ele>
        <time>2012-06-23T07:49:15Z</time>
      </trkpt>
      <trkpt lat="45.60167" lon="6.16501">
        <ele>1581.099976</ele>
        <time>2012-06-23T07:49:23Z</time>
      </trkpt>
      <trkpt lat="45.60175" lon="6.16502">
        <ele>1582.300049</ele>
        <time>2012-06-23T07:49:30Z</time>
      </trkpt>
      <trkpt lat="45.60184" lon="6.16504">
        <ele>1584</ele>
        <time>2012-06-23T07:49:38Z</time>
      </trkpt>
      <trkpt lat="45.60193" lon="6.16502">
        <ele>1588.5</ele>
        <time>2012-06-23T07:49:47Z</time>
      </trkpt>
      <trkpt lat="45.60201" lon="6.16503">
        <ele>1588.5</ele>
        <time>2012-06-23T07:49:57Z</time>
      </trkpt>
      <trkpt lat="45.6021" lon="6.16506">
        <ele>1586</ele>
        <time>2012-06-23T07:50:05Z</time>
      </trkpt>
      <trkpt lat="45.60211" lon="6.16507">
        <ele>1585.599976</ele>
        <time>2012-06-23T07:50:06Z</time>
      </trkpt>
      <trkpt lat="45.60227" lon="6.16513">
        <ele>1583.400024</ele>
        <time>2012-06-23T07:50:18Z</time>
      </trkpt>
      <trkpt lat="45.60235" lon="6.16518">
        <ele>1587.599976</ele>
        <time>2012-06-23T07:50:37Z</time>
      </trkpt>
      <trkpt lat="45.60227" lon="6.16522">
        <ele>1593.900024</ele>
        <time>2012-06-23T07:50:56Z</time>
      </trkpt>
      <trkpt lat="45.60219" lon="6.16526">
        <ele>1596.599976</ele>
        <time>2012-06-23T07:51:07Z</time>
      </trkpt>
      <trkpt lat="45.60218" lon="6.16526">
        <ele>1597</ele>
        <time>2012-06-23T07:51:08Z</time>
      </trkpt>
      <trkpt lat="45.60202" lon="6.16532">
        <ele>1600</ele>
        <time>2012-06-23T07:51:23Z</time>
      </trkpt>
      <trkpt lat="45.60195" lon="6.16536">
        <ele>1600.400024</ele>
        <time>2012-06-23T07:51:30Z</time>
      </trkpt>
      <trkpt lat="45.60187" lon="6.16538">
        <ele>1600</ele>
        <time>2012-06-23T07:51:39Z</time>
      </trkpt>
      <trkpt lat="45.60178" lon="6.16543">
        <ele>1602.400024</ele>
        <time>2012-06-23T07:51:47Z</time>
      </trkpt>
      <trkpt lat="45.6017" lon="6.16547">
        <ele>1603.599976</ele>
        <time>2012-06-23T07:51:55Z</time>
      </trkpt>
      <trkpt lat="45.60163" lon="6.16549">
        <ele>1604.900024</ele>
        <time>2012-06-23T07:52:01Z</time>
      </trkpt>
      <trkpt lat="45.60155" lon="6.16553">
        <ele>1605.099976</ele>
        <time>2012-06-23T07:52:08Z</time>
      </trkpt>
      <trkpt lat="45.60154" lon="6.16554">
        <ele>1605.099976</ele>
        <time>2012-06-23T07:52:09Z</time>
      </trkpt>
      <trkpt lat="45.6014" lon="6.16562">
        <ele>1607.900024</ele>
        <time>2012-06-23T07:52:21Z</time>
      </trkpt>
      <trkpt lat="45.60143" lon="6.16574">
        <ele>1614.300049</ele>
        <time>2012-06-23T07:52:48Z</time>
      </trkpt>
      <trkpt lat="45.60151" lon="6.16579">
        <ele>1615</ele>
        <time>2012-06-23T07:52:58Z</time>
      </trkpt>
      <trkpt lat="45.60159" lon="6.16581">
        <ele>1618.5</ele>
        <time>2012-06-23T07:53:08Z</time>
      </trkpt>
      <trkpt lat="45.60167" lon="6.16584">
        <ele>1620</ele>
        <time>2012-06-23T07:53:17Z</time>
      </trkpt>
      <trkpt lat="45.60168" lon="6.16585">
        <ele>1620</ele>
        <time>2012-06-23T07:53:18Z</time>
      </trkpt>
      <trkpt lat="45.60181" lon="6.16598">
        <ele>1624</ele>
        <time>2012-06-23T07:53:39Z</time>
      </trkpt>
      <trkpt lat="45.60187" lon="6.16606">
        <ele>1624</ele>
        <time>2012-06-23T07:53:46Z</time>
      </trkpt>
      <trkpt lat="45.60192" lon="6.16614">
        <ele>1624.5</ele>
        <time>2012-06-23T07:53:53Z</time>
      </trkpt>
      <trkpt lat="45.60198" lon="6.16624">
        <ele>1626</ele>
        <time>2012-06-23T07:54:01Z</time>
      </trkpt>
      <trkpt lat="45.6019" lon="6.16628">
        <ele>1634.800049</ele>
        <time>2012-06-23T07:54:26Z</time>
      </trkpt>
      <trkpt lat="45.6019" lon="6.16628">
        <ele>1635</ele>
        <time>2012-06-23T07:54:27Z</time>
      </trkpt>
      <trkpt lat="45.60173" lon="6.16626">
        <ele>1643.099976</ele>
        <time>2012-06-23T07:54:52Z</time>
      </trkpt>
      <trkpt lat="45.60164" lon="6.16629">
        <ele>1644.300049</ele>
        <time>2012-06-23T07:55:01Z</time>
      </trkpt>
      <trkpt lat="45.60156" lon="6.16632">
        <ele>1646</ele>
        <time>2012-06-23T07:55:08Z</time>
      </trkpt>
      <trkpt lat="45.60148" lon="6.16636">
        <ele>1647.400024</ele>
        <time>2012-06-23T07:55:15Z</time>
      </trkpt>
      <trkpt lat="45.60141" lon="6.16641">
        <ele>1648.400024</ele>
        <time>2012-06-23T07:55:23Z</time>
      </trkpt>
      <trkpt lat="45.60146" lon="6.16651">
        <ele>1649.5</ele>
        <time>2012-06-23T07:55:47Z</time>
      </trkpt>
      <trkpt lat="45.60147" lon="6.16651">
        <ele>1649.5</ele>
        <time>2012-06-23T07:55:48Z</time>
      </trkpt>
      <trkpt lat="45.60157" lon="6.16668">
        <ele>1655.5</ele>
        <time>2012-06-23T07:56:09Z</time>
      </trkpt>
      <trkpt lat="45.6016" lon="6.16679">
        <ele>1656.900024</ele>
        <time>2012-06-23T07:56:19Z</time>
      </trkpt>
      <trkpt lat="45.60164" lon="6.16689">
        <ele>1657.900024</ele>
        <time>2012-06-23T07:56:26Z</time>
      </trkpt>
      <trkpt lat="45.6017" lon="6.16699">
        <ele>1660</ele>
        <time>2012-06-23T07:56:35Z</time>
      </trkpt>
      <trkpt lat="45.60176" lon="6.16708">
        <ele>1661.900024</ele>
        <time>2012-06-23T07:56:44Z</time>
      </trkpt>
      <trkpt lat="45.60169" lon="6.16715">
        <ele>1665.800049</ele>
        <time>2012-06-23T07:57:04Z</time>
      </trkpt>
      <trkpt lat="45.60168" lon="6.16714">
        <ele>1665.900024</ele>
        <time>2012-06-23T07:57:05Z</time>
      </trkpt>
      <trkpt lat="45.60152" lon="6.16712">
        <ele>1669.599976</ele>
        <time>2012-06-23T07:57:22Z</time>
      </trkpt>
      <trkpt lat="45.60144" lon="6.16709">
        <ele>1671.800049</ele>
        <time>2012-06-23T07:57:32Z</time>
      </trkpt>
      <trkpt lat="45.60136" lon="6.16709">
        <ele>1673</ele>
        <time>2012-06-23T07:57:40Z</time>
      </trkpt>
      <trkpt lat="45.60128" lon="6.16714">
        <ele>1675.5</ele>
        <time>2012-06-23T07:57:49Z</time>
      </trkpt>
      <trkpt lat="45.60135" lon="6.16722">
        <ele>1680</ele>
        <time>2012-06-23T07:58:08Z</time>
      </trkpt>
      <trkpt lat="45.60135" lon="6.16723">
        <ele>1680.099976</ele>
        <time>2012-06-23T07:58:09Z</time>
      </trkpt>
      <trkpt lat="45.60147" lon="6.1674">
        <ele>1683.5</ele>
        <time>2012-06-23T07:58:26Z</time>
      </trkpt>
      <trkpt lat="45.60152" lon="6.1675">
        <ele>1685.599976</ele>
        <time>2012-06-23T07:58:35Z</time>
      </trkpt>
      <trkpt lat="45.60157" lon="6.16759">
        <ele>1688</ele>
        <time>2012-06-23T07:58:43Z</time>
      </trkpt>
      <trkpt lat="45.6016" lon="6.1677">
        <ele>1690</ele>
        <time>2012-06-23T07:58:51Z</time>
      </trkpt>
      <trkpt lat="45.60165" lon="6.1678">
        <ele>1692.099976</ele>
        <time>2012-06-23T07:59:00Z</time>
      </trkpt>
      <trkpt lat="45.60156" lon="6.1678">
        <ele>1694.400024</ele>
        <time>2012-06-23T07:59:12Z</time>
      </trkpt>
      <trkpt lat="45.60156" lon="6.1678">
        <ele>1694.5</ele>
        <time>2012-06-23T07:59:13Z</time>
      </trkpt>
      <trkpt lat="45.6014" lon="6.16773">
        <ele>1697.599976</ele>
        <time>2012-06-23T07:59:29Z</time>
      </trkpt>
      <trkpt lat="45.60132" lon="6.16773">
        <ele>1699.5</ele>
        <time>2012-06-23T07:59:37Z</time>
      </trkpt>
      <trkpt lat="45.60123" lon="6.16775">
        <ele>1701.800049</ele>
        <time>2012-06-23T07:59:46Z</time>
      </trkpt>
      <trkpt lat="45.60115" lon="6.16777">
        <ele>1704.5</ele>
        <time>2012-06-23T07:59:55Z</time>
      </trkpt>
      <trkpt lat="45.60107" lon="6.16781">
        <ele>1706.5</ele>
        <time>2012-06-23T08:00:04Z</time>
      </trkpt>
      <trkpt lat="45.60099" lon="6.16785">
        <ele>1708.599976</ele>
        <time>2012-06-23T08:00:13Z</time>
      </trkpt>
      <trkpt lat="45.60098" lon="6.16785">
        <ele>1709</ele>
        <time>2012-06-23T08:00:14Z</time>
      </trkpt>
      <trkpt lat="45.60085" lon="6.16797">
        <ele>1713</ele>
        <time>2012-06-23T08:00:31Z</time>
      </trkpt>
      <trkpt lat="45.60078" lon="6.16804">
        <ele>1715</ele>
        <time>2012-06-23T08:00:40Z</time>
      </trkpt>
      <trkpt lat="45.60085" lon="6.16812">
        <ele>1719.300049</ele>
        <time>2012-06-23T08:01:02Z</time>
      </trkpt>
      <trkpt lat="45.60093" lon="6.16813">
        <ele>1720.099976</ele>
        <time>2012-06-23T08:01:11Z</time>
      </trkpt>
      <trkpt lat="45.60102" lon="6.16814">
        <ele>1720.800049</ele>
        <time>2012-06-23T08:01:20Z</time>
      </trkpt>
      <trkpt lat="45.60103" lon="6.16814">
        <ele>1720.900024</ele>
        <time>2012-06-23T08:01:21Z</time>
      </trkpt>
      <trkpt lat="45.60117" lon="6.16825">
        <ele>1723</ele>
        <time>2012-06-23T08:01:38Z</time>
      </trkpt>
      <trkpt lat="45.60122" lon="6.16835">
        <ele>1723.900024</ele>
        <time>2012-06-23T08:01:47Z</time>
      </trkpt>
      <trkpt lat="45.60128" lon="6.16845">
        <ele>1725.599976</ele>
        <time>2012-06-23T08:01:56Z</time>
      </trkpt>
      <trkpt lat="45.60121" lon="6.16852">
        <ele>1730</ele>
        <time>2012-06-23T08:02:13Z</time>
      </trkpt>
      <trkpt lat="45.60113" lon="6.16852">
        <ele>1732</ele>
        <time>2012-06-23T08:02:21Z</time>
      </trkpt>
      <trkpt lat="45.60112" lon="6.16852">
        <ele>1732.099976</ele>
        <time>2012-06-23T08:02:22Z</time>
      </trkpt>
      <trkpt lat="45.60097" lon="6.16854">
        <ele>1735.5</ele>
        <time>2012-06-23T08:02:39Z</time>
      </trkpt>
      <trkpt lat="45.60088" lon="6.16859">
        <ele>1738</ele>
        <time>2012-06-23T08:02:48Z</time>
      </trkpt>
      <trkpt lat="45.60081" lon="6.16864">
        <ele>1740.599976</ele>
        <time>2012-06-23T08:02:59Z</time>
      </trkpt>
      <trkpt lat="45.60073" lon="6.16871">
        <ele>1744.099976</ele>
        <time>2012-06-23T08:03:10Z</time>
      </trkpt>
      <trkpt lat="45.60066" lon="6.16878">
        <ele>1746.099976</ele>
        <time>2012-06-23T08:03:19Z</time>
      </trkpt>
      <trkpt lat="45.6006" lon="6.16885">
        <ele>1748</ele>
        <time>2012-06-23T08:03:28Z</time>
      </trkpt>
      <trkpt lat="45.60059" lon="6.16886">
        <ele>1748.300049</ele>
        <time>2012-06-23T08:03:29Z</time>
      </trkpt>
      <trkpt lat="45.60047" lon="6.16902">
        <ele>1751.599976</ele>
        <time>2012-06-23T08:03:46Z</time>
      </trkpt>
      <trkpt lat="45.60055" lon="6.16907">
        <ele>1756.400024</ele>
        <time>2012-06-23T08:04:10Z</time>
      </trkpt>
      <trkpt lat="45.60064" lon="6.16905">
        <ele>1758.400024</ele>
        <time>2012-06-23T08:04:19Z</time>
      </trkpt>
      <trkpt lat="45.60072" lon="6.16906">
        <ele>1760.800049</ele>
        <time>2012-06-23T08:04:28Z</time>
      </trkpt>
      <trkpt lat="45.60081" lon="6.16906">
        <ele>1762.400024</ele>
        <time>2012-06-23T08:04:37Z</time>
      </trkpt>
      <trkpt lat="45.60082" lon="6.16907">
        <ele>1762.5</ele>
        <time>2012-06-23T08:04:38Z</time>
      </trkpt>
      <trkpt lat="45.60098" lon="6.1691">
        <ele>1764.800049</ele>
        <time>2012-06-23T08:04:55Z</time>
      </trkpt>
      <trkpt lat="45.60105" lon="6.16917">
        <ele>1765.300049</ele>
        <time>2012-06-23T08:05:05Z</time>
      </trkpt>
      <trkpt lat="45.60098" lon="6.16926">
        <ele>1767.599976</ele>
        <time>2012-06-23T08:05:24Z</time>
      </trkpt>
      <trkpt lat="45.6009" lon="6.16928">
        <ele>1769</ele>
        <time>2012-06-23T08:05:33Z</time>
      </trkpt>
      <trkpt lat="45.60082" lon="6.16933">
        <ele>1771</ele>
        <time>2012-06-23T08:05:42Z</time>
      </trkpt>
      <trkpt lat="45.60081" lon="6.16934">
        <ele>1771.400024</ele>
        <time>2012-06-23T08:05:43Z</time>
      </trkpt>
      <trkpt lat="45.60068" lon="6.16947">
        <ele>1776.400024</ele>
        <time>2012-06-23T08:06:01Z</time>
      </trkpt>
      <trkpt lat="45.60068" lon="6.16959">
        <ele>1778.099976</ele>
        <time>2012-06-23T08:06:10Z</time>
      </trkpt>
      <trkpt lat="45.60068" lon="6.16972">
        <ele>1779</ele>
        <time>2012-06-23T08:06:19Z</time>
      </trkpt>
      <trkpt lat="45.60067" lon="6.16984">
        <ele>1780.400024</ele>
        <time>2012-06-23T08:06:28Z</time>
      </trkpt>
      <trkpt lat="45.60067" lon="6.16996">
        <ele>1781.900024</ele>
        <time>2012-06-23T08:06:37Z</time>
      </trkpt>
      <trkpt lat="45.60064" lon="6.17008">
        <ele>1784</ele>
        <time>2012-06-23T08:06:46Z</time>
      </trkpt>
      <trkpt lat="45.60064" lon="6.1701">
        <ele>1784</ele>
        <time>2012-06-23T08:06:47Z</time>
      </trkpt>
      <trkpt lat="45.60059" lon="6.17031">
        <ele>1787.800049</ele>
        <time>2012-06-23T08:07:05Z</time>
      </trkpt>
      <trkpt lat="45.60056" lon="6.17042">
        <ele>1790</ele>
        <time>2012-06-23T08:07:15Z</time>
      </trkpt>
      <trkpt lat="45.60054" lon="6.17054">
        <ele>1791.599976</ele>
        <time>2012-06-23T08:07:24Z</time>
      </trkpt>
      <trkpt lat="45.60052" lon="6.17066">
        <ele>1793.5</ele>
        <time>2012-06-23T08:07:33Z</time>
      </trkpt>
      <trkpt lat="45.6005" lon="6.17078">
        <ele>1795.599976</ele>
        <time>2012-06-23T08:07:42Z</time>
      </trkpt>
      <trkpt lat="45.60048" lon="6.17089">
        <ele>1796.900024</ele>
        <time>2012-06-23T08:07:50Z</time>
      </trkpt>
      <trkpt lat="45.60048" lon="6.1709">
        <ele>1797</ele>
        <time>2012-06-23T08:07:51Z</time>
      </trkpt>
      <trkpt lat="45.60054" lon="6.17106">
        <ele>1809.599976</ele>
        <time>2012-06-23T08:08:30Z</time>
      </trkpt>
      <trkpt lat="45.6006" lon="6.17098">
        <ele>1812.599976</ele>
        <time>2012-06-23T08:08:38Z</time>
      </trkpt>
      <trkpt lat="45.60066" lon="6.1709">
        <ele>1815</ele>
        <time>2012-06-23T08:08:47Z</time>
      </trkpt>
      <trkpt lat="45.60071" lon="6.1708">
        <ele>1818.599976</ele>
        <time>2012-06-23T08:08:55Z</time>
      </trkpt>
      <trkpt lat="45.60071" lon="6.17079">
        <ele>1819</ele>
        <time>2012-06-23T08:08:56Z</time>
      </trkpt>
      <trkpt lat="45.60081" lon="6.17062">
        <ele>1825.5</ele>
        <time>2012-06-23T08:09:13Z</time>
      </trkpt>
      <trkpt lat="45.6009" lon="6.17059">
        <ele>1826.5</ele>
        <time>2012-06-23T08:09:22Z</time>
      </trkpt>
      <trkpt lat="45.60097" lon="6.17064">
        <ele>1826.5</ele>
        <time>2012-06-23T08:09:31Z</time>
      </trkpt>
      <trkpt lat="45.60105" lon="6.17071">
        <ele>1826.5</ele>
        <time>2012-06-23T08:09:40Z</time>
      </trkpt>
      <trkpt lat="45.60111" lon="6.1708">
        <ele>1827.5</ele>
        <time>2012-06-23T08:09:50Z</time>
      </trkpt>
      <trkpt lat="45.60116" lon="6.17089">
        <ele>1829.5</ele>
        <time>2012-06-23T08:10:00Z</time>
      </trkpt>
      <trkpt lat="45.60117" lon="6.1709">
        <ele>1829.599976</ele>
        <time>2012-06-23T08:10:01Z</time>
      </trkpt>
      <trkpt lat="45.60125" lon="6.1711">
        <ele>1834</ele>
        <time>2012-06-23T08:10:24Z</time>
      </trkpt>
      <trkpt lat="45.60129" lon="6.1712">
        <ele>1836.900024</ele>
        <time>2012-06-23T08:10:34Z</time>
      </trkpt>
      <trkpt lat="45.60135" lon="6.1713">
        <ele>1839</ele>
        <time>2012-06-23T08:10:43Z</time>
      </trkpt>
      <trkpt lat="45.6014" lon="6.17139">
        <ele>1841</ele>
        <time>2012-06-23T08:10:52Z</time>
      </trkpt>
      <trkpt lat="45.60145" lon="6.17149">
        <ele>1844</ele>
        <time>2012-06-23T08:11:02Z</time>
      </trkpt>
      <trkpt lat="45.60146" lon="6.1715">
        <ele>1844.099976</ele>
        <time>2012-06-23T08:11:03Z</time>
      </trkpt>
      <trkpt lat="45.60158" lon="6.17165">
        <ele>1846.800049</ele>
        <time>2012-06-23T08:11:19Z</time>
      </trkpt>
      <trkpt lat="45.60163" lon="6.17174">
        <ele>1847</ele>
        <time>2012-06-23T08:11:27Z</time>
      </trkpt>
      <trkpt lat="45.60171" lon="6.1718">
        <ele>1845.800049</ele>
        <time>2012-06-23T08:11:35Z</time>
      </trkpt>
      <trkpt lat="45.60177" lon="6.17188">
        <ele>1848.300049</ele>
        <time>2012-06-23T08:11:44Z</time>
      </trkpt>
      <trkpt lat="45.60183" lon="6.17195">
        <ele>1851.300049</ele>
        <time>2012-06-23T08:11:53Z</time>
      </trkpt>
      <trkpt lat="45.60189" lon="6.17205">
        <ele>1852.900024</ele>
        <time>2012-06-23T08:12:02Z</time>
      </trkpt>
      <trkpt lat="45.60195" lon="6.17214">
        <ele>1855.5</ele>
        <time>2012-06-23T08:12:12Z</time>
      </trkpt>
      <trkpt lat="45.60195" lon="6.17215">
        <ele>1855.599976</ele>
        <time>2012-06-23T08:12:13Z</time>
      </trkpt>
      <trkpt lat="45.60204" lon="6.17235">
        <ele>1862</ele>
        <time>2012-06-23T08:12:35Z</time>
      </trkpt>
      <trkpt lat="45.60209" lon="6.17244">
        <ele>1866.900024</ele>
        <time>2012-06-23T08:12:48Z</time>
      </trkpt>
      <trkpt lat="45.60217" lon="6.17249">
        <ele>1873.599976</ele>
        <time>2012-06-23T08:13:02Z</time>
      </trkpt>
      <trkpt lat="45.60224" lon="6.17257">
        <ele>1879.400024</ele>
        <time>2012-06-23T08:13:15Z</time>
      </trkpt>
      <trkpt lat="45.60224" lon="6.17257">
        <ele>1879.900024</ele>
        <time>2012-06-23T08:13:16Z</time>
      </trkpt>
      <trkpt lat="45.60231" lon="6.17279">
        <ele>1892.400024</ele>
        <time>2012-06-23T08:13:56Z</time>
      </trkpt>
      <trkpt lat="45.60229" lon="6.17291">
        <ele>1892.599976</ele>
        <time>2012-06-23T08:14:11Z</time>
      </trkpt>
      <trkpt lat="45.60225" lon="6.17302">
        <ele>1893.800049</ele>
        <time>2012-06-23T08:14:25Z</time>
      </trkpt>
      <trkpt lat="45.60225" lon="6.17302">
        <ele>1894.099976</ele>
        <time>2012-06-23T08:14:26Z</time>
      </trkpt>
      <trkpt lat="45.6023" lon="6.17313">
        <ele>1895</ele>
        <time>2012-06-23T08:16:05Z</time>
      </trkpt>
      <trkpt lat="45.60231" lon="6.17313">
        <ele>1895.300049</ele>
        <time>2012-06-23T08:16:06Z</time>
      </trkpt>
      <trkpt lat="45.60231" lon="6.17338">
        <ele>1906.400024</ele>
        <time>2012-06-23T08:17:26Z</time>
      </trkpt>
      <trkpt lat="45.60231" lon="6.17338">
        <ele>1906.5</ele>
        <time>2012-06-23T08:17:27Z</time>
      </trkpt>
      <trkpt lat="45.60238" lon="6.17356">
        <ele>1927.800049</ele>
        <time>2012-06-23T08:18:17Z</time>
      </trkpt>
      <trkpt lat="45.6024" lon="6.17368">
        <ele>1932.300049</ele>
        <time>2012-06-23T08:18:40Z</time>
      </trkpt>
      <trkpt lat="45.6024" lon="6.17369">
        <ele>1932.099976</ele>
        <time>2012-06-23T08:18:41Z</time>
      </trkpt>
      <trkpt lat="45.60239" lon="6.17393">
        <ele>1937.800049</ele>
        <time>2012-06-23T08:19:22Z</time>
      </trkpt>
      <trkpt lat="45.6024" lon="6.17405">
        <ele>1938</ele>
        <time>2012-06-23T08:19:42Z</time>
      </trkpt>
      <trkpt lat="45.6024" lon="6.17406">
        <ele>1938.099976</ele>
        <time>2012-06-23T08:19:43Z</time>
      </trkpt>
      <trkpt lat="45.60245" lon="6.17429">
        <ele>1954</ele>
        <time>2012-06-23T08:20:40Z</time>
      </trkpt>
      <trkpt lat="45.60237" lon="6.17427">
        <ele>1963.099976</ele>
        <time>2012-06-23T08:21:31Z</time>
      </trkpt>
      <trkpt lat="45.60237" lon="6.17427">
        <ele>1963.5</ele>
        <time>2012-06-23T08:21:32Z</time>
      </trkpt>
      <trkpt lat="45.60236" lon="6.17446">
        <ele>1979.800049</ele>
        <time>2012-06-23T08:22:43Z</time>
      </trkpt>
      <trkpt lat="45.60236" lon="6.17446">
        <ele>1980</ele>
        <time>2012-06-23T08:22:44Z</time>
      </trkpt>
      <trkpt lat="45.60225" lon="6.17458">
        <ele>1986.5</ele>
        <time>2012-06-23T08:24:18Z</time>
      </trkpt>
      <trkpt lat="45.60224" lon="6.17458">
        <ele>1986.5</ele>
        <time>2012-06-23T08:24:19Z</time>
      </trkpt>
      <trkpt lat="45.60209" lon="6.17455">
        <ele>1988.300049</ele>
        <time>2012-06-23T08:24:34Z</time>
      </trkpt>
      <trkpt lat="45.60201" lon="6.1745">
        <ele>1995.599976</ele>
        <time>2012-06-23T08:25:01Z</time>
      </trkpt>
      <trkpt lat="45.60194" lon="6.17443">
        <ele>1995.400024</ele>
        <time>2012-06-23T08:25:29Z</time>
      </trkpt>
      <trkpt lat="45.60193" lon="6.17442">
        <ele>1995.400024</ele>
        <time>2012-06-23T08:25:30Z</time>
      </trkpt>
      <trkpt lat="45.60178" lon="6.17433">
        <ele>2003.099976</ele>
        <time>2012-06-23T08:26:03Z</time>
      </trkpt>
      <trkpt lat="45.60169" lon="6.1743">
        <ele>2005.5</ele>
        <time>2012-06-23T08:26:13Z</time>
      </trkpt>
      <trkpt lat="45.60162" lon="6.17425">
        <ele>2012.099976</ele>
        <time>2012-06-23T08:26:31Z</time>
      </trkpt>
      <trkpt lat="45.60161" lon="6.17424">
        <ele>2012.400024</ele>
        <time>2012-06-23T08:26:32Z</time>
      </trkpt>
      <trkpt lat="45.60151" lon="6.17406">
        <ele>2018.300049</ele>
        <time>2012-06-23T08:27:19Z</time>
      </trkpt>
      <trkpt lat="45.60143" lon="6.17404">
        <ele>2022.5</ele>
        <time>2012-06-23T08:27:29Z</time>
      </trkpt>
      <trkpt lat="45.60134" lon="6.17404">
        <ele>2028.5</ele>
        <time>2012-06-23T08:27:43Z</time>
      </trkpt>
      <trkpt lat="45.60134" lon="6.17404">
        <ele>2028.900024</ele>
        <time>2012-06-23T08:27:44Z</time>
      </trkpt>
      <trkpt lat="45.60118" lon="6.17399">
        <ele>2032.5</ele>
        <time>2012-06-23T08:28:12Z</time>
      </trkpt>
      <trkpt lat="45.60109" lon="6.17398">
        <ele>2034.400024</ele>
        <time>2012-06-23T08:28:24Z</time>
      </trkpt>
      <trkpt lat="45.601" lon="6.17398">
        <ele>2034.599976</ele>
        <time>2012-06-23T08:28:38Z</time>
      </trkpt>
      <trkpt lat="45.60092" lon="6.17397">
        <ele>2035.099976</ele>
        <time>2012-06-23T08:28:48Z</time>
      </trkpt>
      <trkpt lat="45.60091" lon="6.17397">
        <ele>2035.400024</ele>
        <time>2012-06-23T08:28:49Z</time>
      </trkpt>
      <trkpt lat="45.60057" lon="6.17367">
        <ele>2045</ele>
        <time>2012-06-23T08:30:09Z</time>
      </trkpt>
      <trkpt lat="45.60049" lon="6.17375">
        <ele>2037.5</ele>
        <time>2012-06-23T08:39:33Z</time>
      </trkpt>
      <trkpt lat="45.6005" lon="6.17375">
        <ele>2037.599976</ele>
        <time>2012-06-23T08:39:34Z</time>
      </trkpt>
      <trkpt lat="45.6005" lon="6.17362">
        <ele>2044</ele>
        <time>2012-06-23T08:42:58Z</time>
      </trkpt>
      <trkpt lat="45.6005" lon="6.17363">
        <ele>2048.800049</ele>
        <time>2012-06-23T08:48:02Z</time>
      </trkpt>
      <trkpt lat="45.60049" lon="6.17361">
        <ele>2048.100098</ele>
        <time>2012-06-23T09:10:52Z</time>
      </trkpt>
      <trkpt lat="45.60062" lon="6.17377">
        <ele>2038.099976</ele>
        <time>2012-06-23T09:19:30Z</time>
      </trkpt>
      <trkpt lat="45.60063" lon="6.17377">
        <ele>2037.599976</ele>
        <time>2012-06-23T09:19:31Z</time>
      </trkpt>
      <trkpt lat="45.60048" lon="6.17376">
        <ele>2036</ele>
        <time>2012-06-23T09:26:26Z</time>
      </trkpt>
      <trkpt lat="45.60048" lon="6.17376">
        <ele>2036</ele>
        <time>2012-06-23T09:26:27Z</time>
      </trkpt>
      <trkpt lat="45.60058" lon="6.17375">
        <ele>2034.599976</ele>
        <time>2012-06-23T09:38:33Z</time>
      </trkpt>
      <trkpt lat="45.60065" lon="6.17382">
        <ele>2038.800049</ele>
        <time>2012-06-23T09:46:33Z</time>
      </trkpt>
      <trkpt lat="45.60057" lon="6.17375">
        <ele>2037.800049</ele>
        <time>2012-06-23T10:04:05Z</time>
      </trkpt>
      <trkpt lat="45.60066" lon="6.17376">
        <ele>2025</ele>
        <time>2012-06-23T10:13:23Z</time>
      </trkpt>
      <trkpt lat="45.60074" lon="6.17371">
        <ele>2008.5</ele>
        <time>2012-06-23T10:18:09Z</time>
      </trkpt>
      <trkpt lat="45.60069" lon="6.17382">
        <ele>2039.400024</ele>
        <time>2012-06-23T10:20:19Z</time>
      </trkpt>
      <trkpt lat="45.6006" lon="6.17378">
        <ele>2036.900024</ele>
        <time>2012-06-23T10:27:43Z</time>
      </trkpt>
      <trkpt lat="45.60057" lon="6.17373">
        <ele>2034.900024</ele>
        <time>2012-06-23T10:29:53Z</time>
      </trkpt>
      <trkpt lat="45.6005" lon="6.17366">
        <ele>2025.400024</ele>
        <time>2012-06-23T10:29:58Z</time>
      </trkpt>
      <trkpt lat="45.60042" lon="6.1736">
        <ele>2016.800049</ele>
        <time>2012-06-23T10:30:04Z</time>
      </trkpt>
      <trkpt lat="45.60048" lon="6.17368">
        <ele>2032</ele>
        <time>2012-06-23T10:30:34Z</time>
      </trkpt>
      <trkpt lat="45.60051" lon="6.1737">
        <ele>2035.300049</ele>
        <time>2012-06-23T10:30:36Z</time>
      </trkpt>
      <trkpt lat="45.60054" lon="6.17373">
        <ele>2039.900024</ele>
        <time>2012-06-23T10:30:57Z</time>
      </trkpt>
      <trkpt lat="45.60047" lon="6.17366">
        <ele>2029</ele>
        <time>2012-06-23T10:31:04Z</time>
      </trkpt>
      <trkpt lat="45.60054" lon="6.17373">
        <ele>2043.099976</ele>
        <time>2012-06-23T10:31:53Z</time>
      </trkpt>
      <trkpt lat="45.60054" lon="6.17374">
        <ele>2044</ele>
        <time>2012-06-23T10:31:54Z</time>
      </trkpt>
      <trkpt lat="45.60057" lon="6.17369">
        <ele>2036.5</ele>
        <time>2012-06-23T10:35:16Z</time>
      </trkpt>
      <trkpt lat="45.60056" lon="6.17368">
        <ele>2036</ele>
        <time>2012-06-23T10:35:17Z</time>
      </trkpt>
      <trkpt lat="45.60045" lon="6.1735">
        <ele>2011.5</ele>
        <time>2012-06-23T10:37:32Z</time>
      </trkpt>
      <trkpt lat="45.60045" lon="6.1735">
        <ele>2011.400024</ele>
        <time>2012-06-23T10:37:33Z</time>
      </trkpt>
      <trkpt lat="45.60041" lon="6.17361">
        <ele>2023.800049</ele>
        <time>2012-06-23T10:40:19Z</time>
      </trkpt>
      <trkpt lat="45.60041" lon="6.17374">
        <ele>2025.800049</ele>
        <time>2012-06-23T10:42:10Z</time>
      </trkpt>
      <trkpt lat="45.60056" lon="6.17378">
        <ele>2031.800049</ele>
        <time>2012-06-23T10:44:48Z</time>
      </trkpt>
      <trkpt lat="45.60057" lon="6.17378">
        <ele>2031.5</ele>
        <time>2012-06-23T10:44:49Z</time>
      </trkpt>
      <trkpt lat="45.60071" lon="6.17368">
        <ele>2036.800049</ele>
        <time>2012-06-23T10:47:00Z</time>
      </trkpt>
      <trkpt lat="45.60071" lon="6.17368">
        <ele>2036.599976</ele>
        <time>2012-06-23T10:47:01Z</time>
      </trkpt>
      <trkpt lat="45.60079" lon="6.17375">
        <ele>2033.400024</ele>
        <time>2012-06-23T10:48:22Z</time>
      </trkpt>
      <trkpt lat="45.60091" lon="6.17391">
        <ele>2022.900024</ele>
        <time>2012-06-23T10:49:21Z</time>
      </trkpt>
      <trkpt lat="45.60098" lon="6.17399">
        <ele>2029.599976</ele>
        <time>2012-06-23T10:50:37Z</time>
      </trkpt>
      <trkpt lat="45.60099" lon="6.17399">
        <ele>2029.800049</ele>
        <time>2012-06-23T10:50:38Z</time>
      </trkpt>
      <trkpt lat="45.60107" lon="6.17402">
        <ele>2029.5</ele>
        <time>2012-06-23T10:51:39Z</time>
      </trkpt>
      <trkpt lat="45.60124" lon="6.17406">
        <ele>2021.599976</ele>
        <time>2012-06-23T10:52:50Z</time>
      </trkpt>
      <trkpt lat="45.60124" lon="6.17406">
        <ele>2021.5</ele>
        <time>2012-06-23T10:52:51Z</time>
      </trkpt>
      <trkpt lat="45.60141" lon="6.17406">
        <ele>2016.800049</ele>
        <time>2012-06-23T10:53:34Z</time>
      </trkpt>
      <trkpt lat="45.6015" lon="6.17407">
        <ele>2013.099976</ele>
        <time>2012-06-23T10:53:59Z</time>
      </trkpt>
      <trkpt lat="45.6015" lon="6.17407">
        <ele>2013</ele>
        <time>2012-06-23T10:54:00Z</time>
      </trkpt>
      <trkpt lat="45.60163" lon="6.17424">
        <ele>2002.900024</ele>
        <time>2012-06-23T10:55:36Z</time>
      </trkpt>
      <trkpt lat="45.60163" lon="6.17424">
        <ele>2002.5</ele>
        <time>2012-06-23T10:55:37Z</time>
      </trkpt>
      <trkpt lat="45.60179" lon="6.17433">
        <ele>1991.599976</ele>
        <time>2012-06-23T10:56:40Z</time>
      </trkpt>
      <trkpt lat="45.60179" lon="6.17434">
        <ele>1991.5</ele>
        <time>2012-06-23T10:56:41Z</time>
      </trkpt>
      <trkpt lat="45.60195" lon="6.17442">
        <ele>1988</ele>
        <time>2012-06-23T10:57:12Z</time>
      </trkpt>
      <trkpt lat="45.60202" lon="6.17448">
        <ele>1980.5</ele>
        <time>2012-06-23T10:58:01Z</time>
      </trkpt>
      <trkpt lat="45.60203" lon="6.17448">
        <ele>1980</ele>
        <time>2012-06-23T10:58:02Z</time>
      </trkpt>
      <trkpt lat="45.60219" lon="6.17454">
        <ele>1977</ele>
        <time>2012-06-23T10:59:06Z</time>
      </trkpt>
      <trkpt lat="45.6022" lon="6.17453">
        <ele>1976.900024</ele>
        <time>2012-06-23T10:59:07Z</time>
      </trkpt>
      <trkpt lat="45.60235" lon="6.17448">
        <ele>1975.5</ele>
        <time>2012-06-23T11:01:10Z</time>
      </trkpt>
      <trkpt lat="45.60235" lon="6.17448">
        <ele>1975.599976</ele>
        <time>2012-06-23T11:01:11Z</time>
      </trkpt>
      <trkpt lat="45.60234" lon="6.17435">
        <ele>1979.400024</ele>
        <time>2012-06-23T11:02:13Z</time>
      </trkpt>
      <trkpt lat="45.60242" lon="6.17427">
        <ele>1955.800049</ele>
        <time>2012-06-23T11:03:59Z</time>
      </trkpt>
      <trkpt lat="45.60246" lon="6.17415">
        <ele>1950</ele>
        <time>2012-06-23T11:05:08Z</time>
      </trkpt>
      <trkpt lat="45.60239" lon="6.17395">
        <ele>1930.5</ele>
        <time>2012-06-23T11:06:28Z</time>
      </trkpt>
      <trkpt lat="45.60239" lon="6.17394">
        <ele>1930.099976</ele>
        <time>2012-06-23T11:06:29Z</time>
      </trkpt>
      <trkpt lat="45.60236" lon="6.1737">
        <ele>1921.099976</ele>
        <time>2012-06-23T11:07:32Z</time>
      </trkpt>
      <trkpt lat="45.60236" lon="6.1737">
        <ele>1921.099976</ele>
        <time>2012-06-23T11:07:33Z</time>
      </trkpt>
      <trkpt lat="45.60229" lon="6.17348">
        <ele>1910.900024</ele>
        <time>2012-06-23T11:08:18Z</time>
      </trkpt>
      <trkpt lat="45.60226" lon="6.17336">
        <ele>1903.900024</ele>
        <time>2012-06-23T11:08:57Z</time>
      </trkpt>
      <trkpt lat="45.60226" lon="6.17335">
        <ele>1903.599976</ele>
        <time>2012-06-23T11:08:58Z</time>
      </trkpt>
      <trkpt lat="45.60221" lon="6.17313">
        <ele>1893.099976</ele>
        <time>2012-06-23T11:09:43Z</time>
      </trkpt>
      <trkpt lat="45.60223" lon="6.173">
        <ele>1886.599976</ele>
        <time>2012-06-23T11:10:12Z</time>
      </trkpt>
      <trkpt lat="45.60223" lon="6.173">
        <ele>1886.5</ele>
        <time>2012-06-23T11:10:13Z</time>
      </trkpt>
      <trkpt lat="45.60229" lon="6.17277">
        <ele>1878.800049</ele>
        <time>2012-06-23T11:10:56Z</time>
      </trkpt>
      <trkpt lat="45.60223" lon="6.17268">
        <ele>1869.599976</ele>
        <time>2012-06-23T11:14:06Z</time>
      </trkpt>
      <trkpt lat="45.60222" lon="6.17267">
        <ele>1869.400024</ele>
        <time>2012-06-23T11:14:07Z</time>
      </trkpt>
      <trkpt lat="45.60213" lon="6.17248">
        <ele>1863</ele>
        <time>2012-06-23T11:14:28Z</time>
      </trkpt>
      <trkpt lat="45.60209" lon="6.17237">
        <ele>1859</ele>
        <time>2012-06-23T11:14:38Z</time>
      </trkpt>
      <trkpt lat="45.60203" lon="6.17227">
        <ele>1855.599976</ele>
        <time>2012-06-23T11:14:49Z</time>
      </trkpt>
      <trkpt lat="45.60198" lon="6.17217">
        <ele>1854.300049</ele>
        <time>2012-06-23T11:14:59Z</time>
      </trkpt>
      <trkpt lat="45.60194" lon="6.17208">
        <ele>1852.300049</ele>
        <time>2012-06-23T11:15:08Z</time>
      </trkpt>
      <trkpt lat="45.60193" lon="6.17207">
        <ele>1852</ele>
        <time>2012-06-23T11:15:09Z</time>
      </trkpt>
      <trkpt lat="45.60184" lon="6.17188">
        <ele>1847.099976</ele>
        <time>2012-06-23T11:15:25Z</time>
      </trkpt>
      <trkpt lat="45.60179" lon="6.17178">
        <ele>1844.099976</ele>
        <time>2012-06-23T11:15:34Z</time>
      </trkpt>
      <trkpt lat="45.60171" lon="6.17172">
        <ele>1842.400024</ele>
        <time>2012-06-23T11:15:41Z</time>
      </trkpt>
      <trkpt lat="45.60165" lon="6.17163">
        <ele>1842</ele>
        <time>2012-06-23T11:15:52Z</time>
      </trkpt>
      <trkpt lat="45.60159" lon="6.17154">
        <ele>1840.5</ele>
        <time>2012-06-23T11:16:04Z</time>
      </trkpt>
      <trkpt lat="45.60153" lon="6.17146">
        <ele>1839</ele>
        <time>2012-06-23T11:16:11Z</time>
      </trkpt>
      <trkpt lat="45.60152" lon="6.17145">
        <ele>1838.599976</ele>
        <time>2012-06-23T11:16:12Z</time>
      </trkpt>
      <trkpt lat="45.60142" lon="6.17128">
        <ele>1833.599976</ele>
        <time>2012-06-23T11:16:27Z</time>
      </trkpt>
      <trkpt lat="45.60137" lon="6.17119">
        <ele>1831.300049</ele>
        <time>2012-06-23T11:16:35Z</time>
      </trkpt>
      <trkpt lat="45.60131" lon="6.1711">
        <ele>1829.300049</ele>
        <time>2012-06-23T11:16:49Z</time>
      </trkpt>
      <trkpt lat="45.60128" lon="6.171">
        <ele>1828</ele>
        <time>2012-06-23T11:16:57Z</time>
      </trkpt>
      <trkpt lat="45.60123" lon="6.1709">
        <ele>1825.400024</ele>
        <time>2012-06-23T11:17:06Z</time>
      </trkpt>
      <trkpt lat="45.60117" lon="6.17081">
        <ele>1822.900024</ele>
        <time>2012-06-23T11:17:14Z</time>
      </trkpt>
      <trkpt lat="45.60116" lon="6.1708">
        <ele>1822.400024</ele>
        <time>2012-06-23T11:17:15Z</time>
      </trkpt>
      <trkpt lat="45.60104" lon="6.17065">
        <ele>1817.5</ele>
        <time>2012-06-23T11:17:30Z</time>
      </trkpt>
      <trkpt lat="45.60097" lon="6.17059">
        <ele>1815.300049</ele>
        <time>2012-06-23T11:17:38Z</time>
      </trkpt>
      <trkpt lat="45.60089" lon="6.17054">
        <ele>1812.5</ele>
        <time>2012-06-23T11:17:47Z</time>
      </trkpt>
      <trkpt lat="45.6008" lon="6.17056">
        <ele>1809.599976</ele>
        <time>2012-06-23T11:17:57Z</time>
      </trkpt>
      <trkpt lat="45.60074" lon="6.17063">
        <ele>1808.400024</ele>
        <time>2012-06-23T11:18:05Z</time>
      </trkpt>
      <trkpt lat="45.60069" lon="6.17073">
        <ele>1806.800049</ele>
        <time>2012-06-23T11:18:13Z</time>
      </trkpt>
      <trkpt lat="45.60063" lon="6.17083">
        <ele>1805.300049</ele>
        <time>2012-06-23T11:18:20Z</time>
      </trkpt>
      <trkpt lat="45.60062" lon="6.17084">
        <ele>1805.099976</ele>
        <time>2012-06-23T11:18:21Z</time>
      </trkpt>
      <trkpt lat="45.6005" lon="6.17098">
        <ele>1805.400024</ele>
        <time>2012-06-23T11:18:34Z</time>
      </trkpt>
      <trkpt lat="45.60045" lon="6.17105">
        <ele>1804.5</ele>
        <time>2012-06-23T11:18:42Z</time>
      </trkpt>
      <trkpt lat="45.60038" lon="6.17113">
        <ele>1803.900024</ele>
        <time>2012-06-23T11:18:50Z</time>
      </trkpt>
      <trkpt lat="45.60039" lon="6.17101">
        <ele>1802.800049</ele>
        <time>2012-06-23T11:19:02Z</time>
      </trkpt>
      <trkpt lat="45.60041" lon="6.17089">
        <ele>1803.300049</ele>
        <time>2012-06-23T11:19:10Z</time>
      </trkpt>
      <trkpt lat="45.60043" lon="6.17078">
        <ele>1803.900024</ele>
        <time>2012-06-23T11:19:17Z</time>
      </trkpt>
      <trkpt lat="45.60045" lon="6.17066">
        <ele>1803.599976</ele>
        <time>2012-06-23T11:19:24Z</time>
      </trkpt>
      <trkpt lat="45.60045" lon="6.17065">
        <ele>1803.400024</ele>
        <time>2012-06-23T11:19:25Z</time>
      </trkpt>
      <trkpt lat="45.60049" lon="6.17042">
        <ele>1800</ele>
        <time>2012-06-23T11:19:41Z</time>
      </trkpt>
      <trkpt lat="45.60053" lon="6.17032">
        <ele>1797</ele>
        <time>2012-06-23T11:19:49Z</time>
      </trkpt>
      <trkpt lat="45.60057" lon="6.17021">
        <ele>1793.5</ele>
        <time>2012-06-23T11:19:56Z</time>
      </trkpt>
      <trkpt lat="45.60059" lon="6.17011">
        <ele>1790.300049</ele>
        <time>2012-06-23T11:20:03Z</time>
      </trkpt>
      <trkpt lat="45.60062" lon="6.16999">
        <ele>1788.400024</ele>
        <time>2012-06-23T11:20:10Z</time>
      </trkpt>
      <trkpt lat="45.60064" lon="6.16988">
        <ele>1787.300049</ele>
        <time>2012-06-23T11:20:17Z</time>
      </trkpt>
      <trkpt lat="45.60065" lon="6.16975">
        <ele>1784.5</ele>
        <time>2012-06-23T11:20:25Z</time>
      </trkpt>
      <trkpt lat="45.60066" lon="6.16974">
        <ele>1784.099976</ele>
        <time>2012-06-23T11:20:26Z</time>
      </trkpt>
      <trkpt lat="45.60067" lon="6.16951">
        <ele>1778.599976</ele>
        <time>2012-06-23T11:20:41Z</time>
      </trkpt>
      <trkpt lat="45.60072" lon="6.16941">
        <ele>1775.5</ele>
        <time>2012-06-23T11:20:49Z</time>
      </trkpt>
      <trkpt lat="45.6008" lon="6.16934">
        <ele>1772.599976</ele>
        <time>2012-06-23T11:20:57Z</time>
      </trkpt>
      <trkpt lat="45.60088" lon="6.16929">
        <ele>1770.400024</ele>
        <time>2012-06-23T11:21:04Z</time>
      </trkpt>
      <trkpt lat="45.60096" lon="6.16926">
        <ele>1768.5</ele>
        <time>2012-06-23T11:21:11Z</time>
      </trkpt>
      <trkpt lat="45.60105" lon="6.16928">
        <ele>1766.400024</ele>
        <time>2012-06-23T11:21:18Z</time>
      </trkpt>
      <trkpt lat="45.60104" lon="6.16916">
        <ele>1762.5</ele>
        <time>2012-06-23T11:21:32Z</time>
      </trkpt>
      <trkpt lat="45.60103" lon="6.16915">
        <ele>1762.099976</ele>
        <time>2012-06-23T11:21:33Z</time>
      </trkpt>
      <trkpt lat="45.60088" lon="6.16909">
        <ele>1758.599976</ele>
        <time>2012-06-23T11:21:48Z</time>
      </trkpt>
      <trkpt lat="45.6008" lon="6.16907">
        <ele>1756.5</ele>
        <time>2012-06-23T11:21:55Z</time>
      </trkpt>
      <trkpt lat="45.60072" lon="6.16905">
        <ele>1754.900024</ele>
        <time>2012-06-23T11:22:01Z</time>
      </trkpt>
      <trkpt lat="45.60064" lon="6.16904">
        <ele>1752</ele>
        <time>2012-06-23T11:22:08Z</time>
      </trkpt>
      <trkpt lat="45.60055" lon="6.16905">
        <ele>1749.099976</ele>
        <time>2012-06-23T11:22:15Z</time>
      </trkpt>
      <trkpt lat="45.60047" lon="6.1691">
        <ele>1747</ele>
        <time>2012-06-23T11:22:22Z</time>
      </trkpt>
      <trkpt lat="45.60049" lon="6.16898">
        <ele>1743.599976</ele>
        <time>2012-06-23T11:22:37Z</time>
      </trkpt>
      <trkpt lat="45.6005" lon="6.16897">
        <ele>1743.5</ele>
        <time>2012-06-23T11:22:38Z</time>
      </trkpt>
      <trkpt lat="45.60061" lon="6.16882">
        <ele>1742</ele>
        <time>2012-06-23T11:22:51Z</time>
      </trkpt>
      <trkpt lat="45.60068" lon="6.16876">
        <ele>1741</ele>
        <time>2012-06-23T11:22:58Z</time>
      </trkpt>
      <trkpt lat="45.60076" lon="6.16869">
        <ele>1739.400024</ele>
        <time>2012-06-23T11:23:05Z</time>
      </trkpt>
      <trkpt lat="45.60083" lon="6.16864">
        <ele>1737.5</ele>
        <time>2012-06-23T11:23:12Z</time>
      </trkpt>
      <trkpt lat="45.60091" lon="6.16858">
        <ele>1736.400024</ele>
        <time>2012-06-23T11:23:19Z</time>
      </trkpt>
      <trkpt lat="45.60099" lon="6.16853">
        <ele>1735</ele>
        <time>2012-06-23T11:23:26Z</time>
      </trkpt>
      <trkpt lat="45.60107" lon="6.16852">
        <ele>1734</ele>
        <time>2012-06-23T11:23:32Z</time>
      </trkpt>
      <trkpt lat="45.60115" lon="6.16851">
        <ele>1732.5</ele>
        <time>2012-06-23T11:23:39Z</time>
      </trkpt>
      <trkpt lat="45.60117" lon="6.16851">
        <ele>1732.400024</ele>
        <time>2012-06-23T11:23:40Z</time>
      </trkpt>
      <trkpt lat="45.60132" lon="6.16852">
        <ele>1727.800049</ele>
        <time>2012-06-23T11:23:54Z</time>
      </trkpt>
      <trkpt lat="45.60127" lon="6.16841">
        <ele>1725</ele>
        <time>2012-06-23T11:24:03Z</time>
      </trkpt>
      <trkpt lat="45.60121" lon="6.16832">
        <ele>1722</ele>
        <time>2012-06-23T11:24:11Z</time>
      </trkpt>
      <trkpt lat="45.60115" lon="6.16823">
        <ele>1718.900024</ele>
        <time>2012-06-23T11:24:19Z</time>
      </trkpt>
      <trkpt lat="45.60108" lon="6.16817">
        <ele>1717</ele>
        <time>2012-06-23T11:24:25Z</time>
      </trkpt>
      <trkpt lat="45.601" lon="6.16813">
        <ele>1715.099976</ele>
        <time>2012-06-23T11:24:32Z</time>
      </trkpt>
      <trkpt lat="45.60091" lon="6.16811">
        <ele>1712.800049</ele>
        <time>2012-06-23T11:24:39Z</time>
      </trkpt>
      <trkpt lat="45.60082" lon="6.1681">
        <ele>1710</ele>
        <time>2012-06-23T11:24:46Z</time>
      </trkpt>
      <trkpt lat="45.60081" lon="6.1681">
        <ele>1709.5</ele>
        <time>2012-06-23T11:24:47Z</time>
      </trkpt>
      <trkpt lat="45.60079" lon="6.16799">
        <ele>1704.5</ele>
        <time>2012-06-23T11:25:08Z</time>
      </trkpt>
      <trkpt lat="45.60086" lon="6.16792">
        <ele>1703</ele>
        <time>2012-06-23T11:25:16Z</time>
      </trkpt>
      <trkpt lat="45.60093" lon="6.16786">
        <ele>1702.300049</ele>
        <time>2012-06-23T11:25:24Z</time>
      </trkpt>
      <trkpt lat="45.60101" lon="6.16782">
        <ele>1701.300049</ele>
        <time>2012-06-23T11:25:32Z</time>
      </trkpt>
      <trkpt lat="45.6011" lon="6.16778">
        <ele>1700.599976</ele>
        <time>2012-06-23T11:25:39Z</time>
      </trkpt>
      <trkpt lat="45.60119" lon="6.16776">
        <ele>1699.800049</ele>
        <time>2012-06-23T11:25:46Z</time>
      </trkpt>
      <trkpt lat="45.60127" lon="6.16773">
        <ele>1698.099976</ele>
        <time>2012-06-23T11:25:54Z</time>
      </trkpt>
      <trkpt lat="45.60128" lon="6.16773">
        <ele>1697.900024</ele>
        <time>2012-06-23T11:25:55Z</time>
      </trkpt>
      <trkpt lat="45.60143" lon="6.16772">
        <ele>1694.099976</ele>
        <time>2012-06-23T11:26:09Z</time>
      </trkpt>
      <trkpt lat="45.60151" lon="6.16775">
        <ele>1691.800049</ele>
        <time>2012-06-23T11:26:16Z</time>
      </trkpt>
      <trkpt lat="45.60158" lon="6.16779">
        <ele>1689.599976</ele>
        <time>2012-06-23T11:26:23Z</time>
      </trkpt>
      <trkpt lat="45.60167" lon="6.16781">
        <ele>1687.599976</ele>
        <time>2012-06-23T11:26:30Z</time>
      </trkpt>
      <trkpt lat="45.60165" lon="6.16769">
        <ele>1683.5</ele>
        <time>2012-06-23T11:26:44Z</time>
      </trkpt>
      <trkpt lat="45.60161" lon="6.16758">
        <ele>1681.400024</ele>
        <time>2012-06-23T11:26:51Z</time>
      </trkpt>
      <trkpt lat="45.60155" lon="6.16748">
        <ele>1679</ele>
        <time>2012-06-23T11:26:58Z</time>
      </trkpt>
      <trkpt lat="45.60155" lon="6.16747">
        <ele>1678.599976</ele>
        <time>2012-06-23T11:26:59Z</time>
      </trkpt>
      <trkpt lat="45.60144" lon="6.16731">
        <ele>1674.099976</ele>
        <time>2012-06-23T11:27:12Z</time>
      </trkpt>
      <trkpt lat="45.60138" lon="6.16723">
        <ele>1672.5</ele>
        <time>2012-06-23T11:27:18Z</time>
      </trkpt>
      <trkpt lat="45.60131" lon="6.16717">
        <ele>1670.599976</ele>
        <time>2012-06-23T11:27:25Z</time>
      </trkpt>
      <trkpt lat="45.60137" lon="6.16708">
        <ele>1668.5</ele>
        <time>2012-06-23T11:27:43Z</time>
      </trkpt>
      <trkpt lat="45.60145" lon="6.16709">
        <ele>1666.900024</ele>
        <time>2012-06-23T11:27:50Z</time>
      </trkpt>
      <trkpt lat="45.60153" lon="6.16712">
        <ele>1664.5</ele>
        <time>2012-06-23T11:27:57Z</time>
      </trkpt>
      <trkpt lat="45.60162" lon="6.16714">
        <ele>1662.099976</ele>
        <time>2012-06-23T11:28:04Z</time>
      </trkpt>
      <trkpt lat="45.60163" lon="6.16715">
        <ele>1661.900024</ele>
        <time>2012-06-23T11:28:05Z</time>
      </trkpt>
      <trkpt lat="45.60179" lon="6.16719">
        <ele>1658.800049</ele>
        <time>2012-06-23T11:28:18Z</time>
      </trkpt>
      <trkpt lat="45.60177" lon="6.16708">
        <ele>1654.800049</ele>
        <time>2012-06-23T11:28:32Z</time>
      </trkpt>
      <trkpt lat="45.60172" lon="6.16698">
        <ele>1652.400024</ele>
        <time>2012-06-23T11:28:39Z</time>
      </trkpt>
      <trkpt lat="45.60168" lon="6.16689">
        <ele>1650.5</ele>
        <time>2012-06-23T11:28:45Z</time>
      </trkpt>
      <trkpt lat="45.60163" lon="6.16679">
        <ele>1649</ele>
        <time>2012-06-23T11:28:52Z</time>
      </trkpt>
      <trkpt lat="45.6016" lon="6.16668">
        <ele>1647.5</ele>
        <time>2012-06-23T11:29:00Z</time>
      </trkpt>
      <trkpt lat="45.60154" lon="6.1666">
        <ele>1644.900024</ele>
        <time>2012-06-23T11:29:08Z</time>
      </trkpt>
      <trkpt lat="45.60153" lon="6.16659">
        <ele>1644.400024</ele>
        <time>2012-06-23T11:29:09Z</time>
      </trkpt>
      <trkpt lat="45.60138" lon="6.16654">
        <ele>1639.599976</ele>
        <time>2012-06-23T11:29:22Z</time>
      </trkpt>
      <trkpt lat="45.60143" lon="6.16645">
        <ele>1638.5</ele>
        <time>2012-06-23T11:29:32Z</time>
      </trkpt>
      <trkpt lat="45.60151" lon="6.1664">
        <ele>1637.599976</ele>
        <time>2012-06-23T11:29:40Z</time>
      </trkpt>
      <trkpt lat="45.60159" lon="6.16636">
        <ele>1635.5</ele>
        <time>2012-06-23T11:29:49Z</time>
      </trkpt>
      <trkpt lat="45.60168" lon="6.16635">
        <ele>1634</ele>
        <time>2012-06-23T11:30:02Z</time>
      </trkpt>
      <trkpt lat="45.60177" lon="6.16635">
        <ele>1632.400024</ele>
        <time>2012-06-23T11:30:10Z</time>
      </trkpt>
      <trkpt lat="45.60178" lon="6.16635">
        <ele>1632</ele>
        <time>2012-06-23T11:30:11Z</time>
      </trkpt>
      <trkpt lat="45.60194" lon="6.16637">
        <ele>1627.5</ele>
        <time>2012-06-23T11:30:26Z</time>
      </trkpt>
      <trkpt lat="45.60203" lon="6.16639">
        <ele>1625.5</ele>
        <time>2012-06-23T11:30:33Z</time>
      </trkpt>
      <trkpt lat="45.602" lon="6.16627">
        <ele>1622.599976</ele>
        <time>2012-06-23T11:30:43Z</time>
      </trkpt>
      <trkpt lat="45.60198" lon="6.16614">
        <ele>1623.099976</ele>
        <time>2012-06-23T11:30:56Z</time>
      </trkpt>
      <trkpt lat="45.60195" lon="6.16603">
        <ele>1624.599976</ele>
        <time>2012-06-23T11:31:05Z</time>
      </trkpt>
      <trkpt lat="45.60188" lon="6.16597">
        <ele>1623.099976</ele>
        <time>2012-06-23T11:31:11Z</time>
      </trkpt>
      <trkpt lat="45.60187" lon="6.16596">
        <ele>1622.599976</ele>
        <time>2012-06-23T11:31:12Z</time>
      </trkpt>
      <trkpt lat="45.60174" lon="6.16582">
        <ele>1620</ele>
        <time>2012-06-23T11:31:26Z</time>
      </trkpt>
      <trkpt lat="45.60167" lon="6.16579">
        <ele>1619.300049</ele>
        <time>2012-06-23T11:31:32Z</time>
      </trkpt>
      <trkpt lat="45.60158" lon="6.16575">
        <ele>1618.5</ele>
        <time>2012-06-23T11:31:38Z</time>
      </trkpt>
      <trkpt lat="45.60151" lon="6.16573">
        <ele>1615.900024</ele>
        <time>2012-06-23T11:31:44Z</time>
      </trkpt>
      <trkpt lat="45.60143" lon="6.16571">
        <ele>1613.599976</ele>
        <time>2012-06-23T11:31:50Z</time>
      </trkpt>
      <trkpt lat="45.60151" lon="6.16566">
        <ele>1607.300049</ele>
        <time>2012-06-23T11:32:17Z</time>
      </trkpt>
      <trkpt lat="45.60151" lon="6.16565">
        <ele>1607.300049</ele>
        <time>2012-06-23T11:32:18Z</time>
      </trkpt>
      <trkpt lat="45.60167" lon="6.16555">
        <ele>1606.5</ele>
        <time>2012-06-23T11:32:39Z</time>
      </trkpt>
      <trkpt lat="45.60173" lon="6.1655">
        <ele>1607.5</ele>
        <time>2012-06-23T11:32:47Z</time>
      </trkpt>
      <trkpt lat="45.60181" lon="6.16546">
        <ele>1606.400024</ele>
        <time>2012-06-23T11:32:54Z</time>
      </trkpt>
      <trkpt lat="45.60188" lon="6.16543">
        <ele>1603.5</ele>
        <time>2012-06-23T11:33:00Z</time>
      </trkpt>
      <trkpt lat="45.60197" lon="6.1654">
        <ele>1600.300049</ele>
        <time>2012-06-23T11:33:06Z</time>
      </trkpt>
      <trkpt lat="45.60205" lon="6.16538">
        <ele>1598.5</ele>
        <time>2012-06-23T11:33:12Z</time>
      </trkpt>
      <trkpt lat="45.60213" lon="6.16535">
        <ele>1597.099976</ele>
        <time>2012-06-23T11:33:19Z</time>
      </trkpt>
      <trkpt lat="45.60214" lon="6.16535">
        <ele>1597</ele>
        <time>2012-06-23T11:33:20Z</time>
      </trkpt>
      <trkpt lat="45.6023" lon="6.16532">
        <ele>1595</ele>
        <time>2012-06-23T11:33:33Z</time>
      </trkpt>
      <trkpt lat="45.60232" lon="6.1652">
        <ele>1591.800049</ele>
        <time>2012-06-23T11:33:47Z</time>
      </trkpt>
      <trkpt lat="45.60227" lon="6.16511">
        <ele>1587</ele>
        <time>2012-06-23T11:34:00Z</time>
      </trkpt>
      <trkpt lat="45.6022" lon="6.16504">
        <ele>1582.900024</ele>
        <time>2012-06-23T11:34:09Z</time>
      </trkpt>
      <trkpt lat="45.60211" lon="6.16502">
        <ele>1580.5</ele>
        <time>2012-06-23T11:34:16Z</time>
      </trkpt>
      <trkpt lat="45.60203" lon="6.16499">
        <ele>1578.599976</ele>
        <time>2012-06-23T11:34:23Z</time>
      </trkpt>
      <trkpt lat="45.60201" lon="6.16499">
        <ele>1578.300049</ele>
        <time>2012-06-23T11:34:24Z</time>
      </trkpt>
      <trkpt lat="45.60187" lon="6.1649">
        <ele>1575.900024</ele>
        <time>2012-06-23T11:34:36Z</time>
      </trkpt>
      <trkpt lat="45.60179" lon="6.16485">
        <ele>1576.5</ele>
        <time>2012-06-23T11:34:42Z</time>
      </trkpt>
      <trkpt lat="45.6017" lon="6.16485">
        <ele>1576</ele>
        <time>2012-06-23T11:34:48Z</time>
      </trkpt>
      <trkpt lat="45.60162" lon="6.16485">
        <ele>1573.5</ele>
        <time>2012-06-23T11:34:54Z</time>
      </trkpt>
      <trkpt lat="45.60154" lon="6.16485">
        <ele>1571.5</ele>
        <time>2012-06-23T11:35:00Z</time>
      </trkpt>
      <trkpt lat="45.60145" lon="6.16484">
        <ele>1570</ele>
        <time>2012-06-23T11:35:05Z</time>
      </trkpt>
      <trkpt lat="45.60137" lon="6.16484">
        <ele>1569.599976</ele>
        <time>2012-06-23T11:35:10Z</time>
      </trkpt>
      <trkpt lat="45.60128" lon="6.16482">
        <ele>1569.400024</ele>
        <time>2012-06-23T11:35:16Z</time>
      </trkpt>
      <trkpt lat="45.60119" lon="6.16481">
        <ele>1568.5</ele>
        <time>2012-06-23T11:35:24Z</time>
      </trkpt>
      <trkpt lat="45.60118" lon="6.1648">
        <ele>1568.5</ele>
        <time>2012-06-23T11:35:25Z</time>
      </trkpt>
      <trkpt lat="45.60103" lon="6.16483">
        <ele>1562.599976</ele>
        <time>2012-06-23T11:35:36Z</time>
      </trkpt>
      <trkpt lat="45.60111" lon="6.16477">
        <ele>1559.5</ele>
        <time>2012-06-23T11:36:02Z</time>
      </trkpt>
      <trkpt lat="45.6012" lon="6.16473">
        <ele>1557</ele>
        <time>2012-06-23T11:36:10Z</time>
      </trkpt>
      <trkpt lat="45.60127" lon="6.16469">
        <ele>1554.5</ele>
        <time>2012-06-23T11:36:17Z</time>
      </trkpt>
      <trkpt lat="45.60135" lon="6.16464">
        <ele>1551.900024</ele>
        <time>2012-06-23T11:36:24Z</time>
      </trkpt>
      <trkpt lat="45.60143" lon="6.1646">
        <ele>1549.300049</ele>
        <time>2012-06-23T11:36:32Z</time>
      </trkpt>
      <trkpt lat="45.60144" lon="6.1646">
        <ele>1549.099976</ele>
        <time>2012-06-23T11:36:33Z</time>
      </trkpt>
      <trkpt lat="45.60158" lon="6.1645">
        <ele>1550.900024</ele>
        <time>2012-06-23T11:36:54Z</time>
      </trkpt>
      <trkpt lat="45.60165" lon="6.16442">
        <ele>1551.900024</ele>
        <time>2012-06-23T11:37:03Z</time>
      </trkpt>
      <trkpt lat="45.60173" lon="6.16438">
        <ele>1552.400024</ele>
        <time>2012-06-23T11:37:10Z</time>
      </trkpt>
      <trkpt lat="45.6018" lon="6.16433">
        <ele>1552</ele>
        <time>2012-06-23T11:37:17Z</time>
      </trkpt>
      <trkpt lat="45.60188" lon="6.16429">
        <ele>1552.5</ele>
        <time>2012-06-23T11:37:23Z</time>
      </trkpt>
      <trkpt lat="45.60195" lon="6.16423">
        <ele>1555.400024</ele>
        <time>2012-06-23T11:37:29Z</time>
      </trkpt>
      <trkpt lat="45.60202" lon="6.16416">
        <ele>1559.5</ele>
        <time>2012-06-23T11:37:34Z</time>
      </trkpt>
      <trkpt lat="45.60204" lon="6.16415">
        <ele>1560.099976</ele>
        <time>2012-06-23T11:37:35Z</time>
      </trkpt>
      <trkpt lat="45.60218" lon="6.16406">
        <ele>1564.300049</ele>
        <time>2012-06-23T11:37:46Z</time>
      </trkpt>
      <trkpt lat="45.60226" lon="6.16407">
        <ele>1559.5</ele>
        <time>2012-06-23T11:37:52Z</time>
      </trkpt>
      <trkpt lat="45.60235" lon="6.16409">
        <ele>1550.800049</ele>
        <time>2012-06-23T11:37:58Z</time>
      </trkpt>
      <trkpt lat="45.60243" lon="6.16409">
        <ele>1542.5</ele>
        <time>2012-06-23T11:38:05Z</time>
      </trkpt>
      <trkpt lat="45.60252" lon="6.16409">
        <ele>1538.5</ele>
        <time>2012-06-23T11:38:11Z</time>
      </trkpt>
      <trkpt lat="45.6026" lon="6.16406">
        <ele>1535.400024</ele>
        <time>2012-06-23T11:38:18Z</time>
      </trkpt>
      <trkpt lat="45.60268" lon="6.16402">
        <ele>1535.300049</ele>
        <time>2012-06-23T11:38:24Z</time>
      </trkpt>
      <trkpt lat="45.60276" lon="6.16399">
        <ele>1534.900024</ele>
        <time>2012-06-23T11:38:29Z</time>
      </trkpt>
      <trkpt lat="45.60285" lon="6.16396">
        <ele>1535.400024</ele>
        <time>2012-06-23T11:38:35Z</time>
      </trkpt>
      <trkpt lat="45.60287" lon="6.16396">
        <ele>1535.099976</ele>
        <time>2012-06-23T11:38:36Z</time>
      </trkpt>
      <trkpt lat="45.60302" lon="6.16396">
        <ele>1526.5</ele>
        <time>2012-06-23T11:38:47Z</time>
      </trkpt>
      <trkpt lat="45.6031" lon="6.16398">
        <ele>1521.400024</ele>
        <time>2012-06-23T11:38:53Z</time>
      </trkpt>
      <trkpt lat="45.60317" lon="6.16398">
        <ele>1517.900024</ele>
        <time>2012-06-23T11:38:59Z</time>
      </trkpt>
      <trkpt lat="45.60326" lon="6.16393">
        <ele>1510.800049</ele>
        <time>2012-06-23T11:39:16Z</time>
      </trkpt>
      <trkpt lat="45.60334" lon="6.16392">
        <ele>1508.5</ele>
        <time>2012-06-23T11:39:24Z</time>
      </trkpt>
      <trkpt lat="45.60334" lon="6.1638">
        <ele>1501.599976</ele>
        <time>2012-06-23T11:39:46Z</time>
      </trkpt>
      <trkpt lat="45.60333" lon="6.16379">
        <ele>1501.400024</ele>
        <time>2012-06-23T11:39:47Z</time>
      </trkpt>
      <trkpt lat="45.60322" lon="6.16363">
        <ele>1498.5</ele>
        <time>2012-06-23T11:40:04Z</time>
      </trkpt>
      <trkpt lat="45.60314" lon="6.16357">
        <ele>1495.900024</ele>
        <time>2012-06-23T11:40:13Z</time>
      </trkpt>
      <trkpt lat="45.60307" lon="6.1635">
        <ele>1495.400024</ele>
        <time>2012-06-23T11:40:20Z</time>
      </trkpt>
      <trkpt lat="45.60299" lon="6.16345">
        <ele>1492.300049</ele>
        <time>2012-06-23T11:40:29Z</time>
      </trkpt>
      <trkpt lat="45.60291" lon="6.16343">
        <ele>1490.599976</ele>
        <time>2012-06-23T11:40:35Z</time>
      </trkpt>
      <trkpt lat="45.60283" lon="6.16342">
        <ele>1488.400024</ele>
        <time>2012-06-23T11:40:42Z</time>
      </trkpt>
      <trkpt lat="45.60275" lon="6.16339">
        <ele>1487.400024</ele>
        <time>2012-06-23T11:40:49Z</time>
      </trkpt>
      <trkpt lat="45.60274" lon="6.16338">
        <ele>1487.400024</ele>
        <time>2012-06-23T11:40:50Z</time>
      </trkpt>
      <trkpt lat="45.60259" lon="6.16333">
        <ele>1484.400024</ele>
        <time>2012-06-23T11:41:05Z</time>
      </trkpt>
      <trkpt lat="45.60251" lon="6.1633">
        <ele>1481.599976</ele>
        <time>2012-06-23T11:41:13Z</time>
      </trkpt>
      <trkpt lat="45.60243" lon="6.16327">
        <ele>1479.099976</ele>
        <time>2012-06-23T11:41:19Z</time>
      </trkpt>
      <trkpt lat="45.60235" lon="6.16325">
        <ele>1477.800049</ele>
        <time>2012-06-23T11:41:26Z</time>
      </trkpt>
      <trkpt lat="45.60226" lon="6.16324">
        <ele>1476.300049</ele>
        <time>2012-06-23T11:41:31Z</time>
      </trkpt>
      <trkpt lat="45.60217" lon="6.1632">
        <ele>1475.800049</ele>
        <time>2012-06-23T11:41:37Z</time>
      </trkpt>
      <trkpt lat="45.60209" lon="6.16319">
        <ele>1475</ele>
        <time>2012-06-23T11:41:42Z</time>
      </trkpt>
      <trkpt lat="45.60201" lon="6.16319">
        <ele>1473.900024</ele>
        <time>2012-06-23T11:41:47Z</time>
      </trkpt>
      <trkpt lat="45.60193" lon="6.16317">
        <ele>1473.300049</ele>
        <time>2012-06-23T11:41:52Z</time>
      </trkpt>
      <trkpt lat="45.60191" lon="6.16316">
        <ele>1473.300049</ele>
        <time>2012-06-23T11:41:53Z</time>
      </trkpt>
      <trkpt lat="45.60176" lon="6.16309">
        <ele>1468.5</ele>
        <time>2012-06-23T11:42:06Z</time>
      </trkpt>
      <trkpt lat="45.60167" lon="6.16309">
        <ele>1464</ele>
        <time>2012-06-23T11:42:14Z</time>
      </trkpt>
      <trkpt lat="45.60159" lon="6.16309">
        <ele>1461.599976</ele>
        <time>2012-06-23T11:42:21Z</time>
      </trkpt>
      <trkpt lat="45.60151" lon="6.16308">
        <ele>1461.300049</ele>
        <time>2012-06-23T11:42:28Z</time>
      </trkpt>
      <trkpt lat="45.60142" lon="6.16308">
        <ele>1460.099976</ele>
        <time>2012-06-23T11:42:35Z</time>
      </trkpt>
      <trkpt lat="45.60134" lon="6.16307">
        <ele>1460.599976</ele>
        <time>2012-06-23T11:42:41Z</time>
      </trkpt>
      <trkpt lat="45.60126" lon="6.16306">
        <ele>1460.300049</ele>
        <time>2012-06-23T11:42:48Z</time>
      </trkpt>
      <trkpt lat="45.60117" lon="6.16306">
        <ele>1459</ele>
        <time>2012-06-23T11:42:54Z</time>
      </trkpt>
      <trkpt lat="45.60116" lon="6.16306">
        <ele>1458.900024</ele>
        <time>2012-06-23T11:42:55Z</time>
      </trkpt>
      <trkpt lat="45.60104" lon="6.16307">
        <ele>1458.599976</ele>
        <time>2012-06-23T11:43:02Z</time>
      </trkpt>
      <trkpt lat="45.60095" lon="6.16307">
        <ele>1457.5</ele>
        <time>2012-06-23T11:43:09Z</time>
      </trkpt>
      <trkpt lat="45.60086" lon="6.16306">
        <ele>1457.5</ele>
        <time>2012-06-23T11:43:16Z</time>
      </trkpt>
      <trkpt lat="45.60078" lon="6.16308">
        <ele>1456.300049</ele>
        <time>2012-06-23T11:43:22Z</time>
      </trkpt>
      <trkpt lat="45.6007" lon="6.16305">
        <ele>1456.900024</ele>
        <time>2012-06-23T11:43:29Z</time>
      </trkpt>
      <trkpt lat="45.60061" lon="6.16306">
        <ele>1455.900024</ele>
        <time>2012-06-23T11:43:36Z</time>
      </trkpt>
      <trkpt lat="45.60054" lon="6.16309">
        <ele>1452.5</ele>
        <time>2012-06-23T11:43:43Z</time>
      </trkpt>
      <trkpt lat="45.60045" lon="6.16312">
        <ele>1450</ele>
        <time>2012-06-23T11:43:50Z</time>
      </trkpt>
      <trkpt lat="45.60053" lon="6.16309">
        <ele>1444.900024</ele>
        <time>2012-06-23T11:44:07Z</time>
      </trkpt>
      <trkpt lat="45.60054" lon="6.16308">
        <ele>1445.400024</ele>
        <time>2012-06-23T11:44:08Z</time>
      </trkpt>
      <trkpt lat="45.60068" lon="6.16299">
        <ele>1445</ele>
        <time>2012-06-23T11:44:29Z</time>
      </trkpt>
      <trkpt lat="45.60076" lon="6.16295">
        <ele>1445.800049</ele>
        <time>2012-06-23T11:44:35Z</time>
      </trkpt>
      <trkpt lat="45.60084" lon="6.16292">
        <ele>1444.800049</ele>
        <time>2012-06-23T11:44:41Z</time>
      </trkpt>
      <trkpt lat="45.60091" lon="6.16287">
        <ele>1444.400024</ele>
        <time>2012-06-23T11:44:47Z</time>
      </trkpt>
      <trkpt lat="45.60099" lon="6.16283">
        <ele>1444.800049</ele>
        <time>2012-06-23T11:44:53Z</time>
      </trkpt>
      <trkpt lat="45.60106" lon="6.16278">
        <ele>1444.900024</ele>
        <time>2012-06-23T11:45:00Z</time>
      </trkpt>
      <trkpt lat="45.60114" lon="6.16273">
        <ele>1444.400024</ele>
        <time>2012-06-23T11:45:06Z</time>
      </trkpt>
      <trkpt lat="45.60122" lon="6.1627">
        <ele>1442.099976</ele>
        <time>2012-06-23T11:45:13Z</time>
      </trkpt>
      <trkpt lat="45.60123" lon="6.16269">
        <ele>1441.900024</ele>
        <time>2012-06-23T11:45:14Z</time>
      </trkpt>
      <trkpt lat="45.60138" lon="6.16262">
        <ele>1441.599976</ele>
        <time>2012-06-23T11:45:27Z</time>
      </trkpt>
      <trkpt lat="45.60146" lon="6.16261">
        <ele>1439.099976</ele>
        <time>2012-06-23T11:45:36Z</time>
      </trkpt>
      <trkpt lat="45.60154" lon="6.16259">
        <ele>1437.599976</ele>
        <time>2012-06-23T11:45:42Z</time>
      </trkpt>
      <trkpt lat="45.60162" lon="6.16258">
        <ele>1437</ele>
        <time>2012-06-23T11:45:48Z</time>
      </trkpt>
      <trkpt lat="45.60169" lon="6.16261">
        <ele>1436</ele>
        <time>2012-06-23T11:45:53Z</time>
      </trkpt>
      <trkpt lat="45.60175" lon="6.16265">
        <ele>1434.5</ele>
        <time>2012-06-23T11:45:57Z</time>
      </trkpt>
      <trkpt lat="45.60198" lon="6.16253">
        <ele>1434.900024</ele>
        <time>2012-06-23T11:46:13Z</time>
      </trkpt>
      <trkpt lat="45.60204" lon="6.16245">
        <ele>1439.599976</ele>
        <time>2012-06-23T11:46:18Z</time>
      </trkpt>
      <trkpt lat="45.60205" lon="6.16244">
        <ele>1440.5</ele>
        <time>2012-06-23T11:46:19Z</time>
      </trkpt>
      <trkpt lat="45.60219" lon="6.16238">
        <ele>1443.800049</ele>
        <time>2012-06-23T11:46:31Z</time>
      </trkpt>
      <trkpt lat="45.60227" lon="6.16238">
        <ele>1444.599976</ele>
        <time>2012-06-23T11:46:37Z</time>
      </trkpt>
      <trkpt lat="45.60236" lon="6.16236">
        <ele>1446.099976</ele>
        <time>2012-06-23T11:46:46Z</time>
      </trkpt>
      <trkpt lat="45.60245" lon="6.16236">
        <ele>1445.400024</ele>
        <time>2012-06-23T11:46:56Z</time>
      </trkpt>
      <trkpt lat="45.60253" lon="6.16234">
        <ele>1445.300049</ele>
        <time>2012-06-23T11:47:03Z</time>
      </trkpt>
      <trkpt lat="45.60261" lon="6.16232">
        <ele>1445.099976</ele>
        <time>2012-06-23T11:47:09Z</time>
      </trkpt>
      <trkpt lat="45.60269" lon="6.1623">
        <ele>1445.099976</ele>
        <time>2012-06-23T11:47:14Z</time>
      </trkpt>
      <trkpt lat="45.60277" lon="6.16227">
        <ele>1445.900024</ele>
        <time>2012-06-23T11:47:20Z</time>
      </trkpt>
      <trkpt lat="45.60278" lon="6.16227">
        <ele>1445.800049</ele>
        <time>2012-06-23T11:47:21Z</time>
      </trkpt>
      <trkpt lat="45.60292" lon="6.16224">
        <ele>1445.900024</ele>
        <time>2012-06-23T11:47:31Z</time>
      </trkpt>
      <trkpt lat="45.603" lon="6.16222">
        <ele>1448</ele>
        <time>2012-06-23T11:47:37Z</time>
      </trkpt>
      <trkpt lat="45.60303" lon="6.16221">
        <ele>1448.099976</ele>
        <time>2012-06-23T11:47:39Z</time>
      </trkpt>
      <trkpt lat="45.60312" lon="6.16218">
        <ele>1448</ele>
        <time>2012-06-23T11:47:45Z</time>
      </trkpt>
      <trkpt lat="45.60313" lon="6.16218">
        <ele>1447.900024</ele>
        <time>2012-06-23T11:47:46Z</time>
      </trkpt>
      <trkpt lat="45.60331" lon="6.16212">
        <ele>1452</ele>
        <time>2012-06-23T11:47:59Z</time>
      </trkpt>
      <trkpt lat="45.6034" lon="6.16213">
        <ele>1449.900024</ele>
        <time>2012-06-23T11:48:05Z</time>
      </trkpt>
      <trkpt lat="45.60348" lon="6.16208">
        <ele>1451</ele>
        <time>2012-06-23T11:48:13Z</time>
      </trkpt>
      <trkpt lat="45.60356" lon="6.16208">
        <ele>1443.5</ele>
        <time>2012-06-23T11:48:23Z</time>
      </trkpt>
      <trkpt lat="45.60357" lon="6.16209">
        <ele>1441.5</ele>
        <time>2012-06-23T11:48:24Z</time>
      </trkpt>
      <trkpt lat="45.60372" lon="6.16208">
        <ele>1425.800049</ele>
        <time>2012-06-23T11:48:39Z</time>
      </trkpt>
      <trkpt lat="45.60379" lon="6.16202">
        <ele>1423.099976</ele>
        <time>2012-06-23T11:48:45Z</time>
      </trkpt>
      <trkpt lat="45.60386" lon="6.16197">
        <ele>1420.400024</ele>
        <time>2012-06-23T11:48:52Z</time>
      </trkpt>
      <trkpt lat="45.60394" lon="6.16191">
        <ele>1418.800049</ele>
        <time>2012-06-23T11:49:00Z</time>
      </trkpt>
      <trkpt lat="45.60401" lon="6.16184">
        <ele>1414.099976</ele>
        <time>2012-06-23T11:49:07Z</time>
      </trkpt>
      <trkpt lat="45.60407" lon="6.16176">
        <ele>1411.300049</ele>
        <time>2012-06-23T11:49:15Z</time>
      </trkpt>
      <trkpt lat="45.60414" lon="6.16168">
        <ele>1410.800049</ele>
        <time>2012-06-23T11:49:23Z</time>
      </trkpt>
      <trkpt lat="45.60421" lon="6.16161">
        <ele>1409.599976</ele>
        <time>2012-06-23T11:49:30Z</time>
      </trkpt>
      <trkpt lat="45.60422" lon="6.1616">
        <ele>1409.400024</ele>
        <time>2012-06-23T11:49:31Z</time>
      </trkpt>
      <trkpt lat="45.60434" lon="6.16147">
        <ele>1406.900024</ele>
        <time>2012-06-23T11:49:43Z</time>
      </trkpt>
      <trkpt lat="45.60441" lon="6.1614">
        <ele>1408.099976</ele>
        <time>2012-06-23T11:49:49Z</time>
      </trkpt>
      <trkpt lat="45.60448" lon="6.16134">
        <ele>1407</ele>
        <time>2012-06-23T11:49:55Z</time>
      </trkpt>
      <trkpt lat="45.60455" lon="6.16127">
        <ele>1404</ele>
        <time>2012-06-23T11:50:02Z</time>
      </trkpt>
      <trkpt lat="45.60463" lon="6.16121">
        <ele>1399.599976</ele>
        <time>2012-06-23T11:50:10Z</time>
      </trkpt>
      <trkpt lat="45.60471" lon="6.16116">
        <ele>1396.800049</ele>
        <time>2012-06-23T11:50:16Z</time>
      </trkpt>
      <trkpt lat="45.60478" lon="6.16112">
        <ele>1393.800049</ele>
        <time>2012-06-23T11:50:21Z</time>
      </trkpt>
      <trkpt lat="45.60486" lon="6.16108">
        <ele>1390.599976</ele>
        <time>2012-06-23T11:50:26Z</time>
      </trkpt>
      <trkpt lat="45.60494" lon="6.16107">
        <ele>1387.300049</ele>
        <time>2012-06-23T11:50:31Z</time>
      </trkpt>
      <trkpt lat="45.60496" lon="6.16108">
        <ele>1386.599976</ele>
        <time>2012-06-23T11:50:32Z</time>
      </trkpt>
      <trkpt lat="45.60509" lon="6.16101">
        <ele>1379.400024</ele>
        <time>2012-06-23T11:50:47Z</time>
      </trkpt>
      <trkpt lat="45.60506" lon="6.16089">
        <ele>1375.300049</ele>
        <time>2012-06-23T11:50:55Z</time>
      </trkpt>
      <trkpt lat="45.60503" lon="6.16078">
        <ele>1372.5</ele>
        <time>2012-06-23T11:51:02Z</time>
      </trkpt>
      <trkpt lat="45.60499" lon="6.16069">
        <ele>1370</ele>
        <time>2012-06-23T11:51:08Z</time>
      </trkpt>
      <trkpt lat="45.60495" lon="6.1606">
        <ele>1367.5</ele>
        <time>2012-06-23T11:51:14Z</time>
      </trkpt>
      <trkpt lat="45.60493" lon="6.16049">
        <ele>1364.900024</ele>
        <time>2012-06-23T11:51:21Z</time>
      </trkpt>
      <trkpt lat="45.60495" lon="6.16036">
        <ele>1363.599976</ele>
        <time>2012-06-23T11:51:29Z</time>
      </trkpt>
      <trkpt lat="45.60494" lon="6.16025">
        <ele>1367.300049</ele>
        <time>2012-06-23T11:51:37Z</time>
      </trkpt>
      <trkpt lat="45.60494" lon="6.16023">
        <ele>1367.900024</ele>
        <time>2012-06-23T11:51:38Z</time>
      </trkpt>
      <trkpt lat="45.60493" lon="6.16001">
        <ele>1382.300049</ele>
        <time>2012-06-23T11:51:55Z</time>
      </trkpt>
      <trkpt lat="45.60491" lon="6.1599">
        <ele>1389.599976</ele>
        <time>2012-06-23T11:52:03Z</time>
      </trkpt>
      <trkpt lat="45.60487" lon="6.1598">
        <ele>1394.900024</ele>
        <time>2012-06-23T11:52:10Z</time>
      </trkpt>
      <trkpt lat="45.60481" lon="6.1597">
        <ele>1400.5</ele>
        <time>2012-06-23T11:52:18Z</time>
      </trkpt>
      <trkpt lat="45.60476" lon="6.15961">
        <ele>1403.800049</ele>
        <time>2012-06-23T11:52:25Z</time>
      </trkpt>
      <trkpt lat="45.60472" lon="6.1595">
        <ele>1405</ele>
        <time>2012-06-23T11:52:32Z</time>
      </trkpt>
      <trkpt lat="45.60469" lon="6.15939">
        <ele>1404.800049</ele>
        <time>2012-06-23T11:52:39Z</time>
      </trkpt>
      <trkpt lat="45.60468" lon="6.15937">
        <ele>1404.800049</ele>
        <time>2012-06-23T11:52:40Z</time>
      </trkpt>
      <trkpt lat="45.60461" lon="6.15919">
        <ele>1402</ele>
        <time>2012-06-23T11:52:51Z</time>
      </trkpt>
      <trkpt lat="45.60457" lon="6.1591">
        <ele>1399.099976</ele>
        <time>2012-06-23T11:52:57Z</time>
      </trkpt>
      <trkpt lat="45.60453" lon="6.159">
        <ele>1395.800049</ele>
        <time>2012-06-23T11:53:03Z</time>
      </trkpt>
      <trkpt lat="45.60449" lon="6.1589">
        <ele>1393.300049</ele>
        <time>2012-06-23T11:53:09Z</time>
      </trkpt>
      <trkpt lat="45.60446" lon="6.1588">
        <ele>1391.800049</ele>
        <time>2012-06-23T11:53:16Z</time>
      </trkpt>
      <trkpt lat="45.60443" lon="6.15869">
        <ele>1390</ele>
        <time>2012-06-23T11:53:23Z</time>
      </trkpt>
      <trkpt lat="45.6044" lon="6.15858">
        <ele>1386.800049</ele>
        <time>2012-06-23T11:53:31Z</time>
      </trkpt>
      <trkpt lat="45.60437" lon="6.15846">
        <ele>1383.5</ele>
        <time>2012-06-23T11:53:40Z</time>
      </trkpt>
      <trkpt lat="45.60437" lon="6.15845">
        <ele>1383.400024</ele>
        <time>2012-06-23T11:53:41Z</time>
      </trkpt>
      <trkpt lat="45.6043" lon="6.15824">
        <ele>1384</ele>
        <time>2012-06-23T11:53:58Z</time>
      </trkpt>
      <trkpt lat="45.60425" lon="6.15813">
        <ele>1387</ele>
        <time>2012-06-23T11:54:08Z</time>
      </trkpt>
      <trkpt lat="45.6042" lon="6.15804">
        <ele>1390.400024</ele>
        <time>2012-06-23T11:54:15Z</time>
      </trkpt>
      <trkpt lat="45.60415" lon="6.15794">
        <ele>1394.400024</ele>
        <time>2012-06-23T11:54:23Z</time>
      </trkpt>
      <trkpt lat="45.6041" lon="6.15786">
        <ele>1398.599976</ele>
        <time>2012-06-23T11:54:30Z</time>
      </trkpt>
      <trkpt lat="45.60404" lon="6.15776">
        <ele>1401</ele>
        <time>2012-06-23T11:54:37Z</time>
      </trkpt>
      <trkpt lat="45.604" lon="6.15767">
        <ele>1401.300049</ele>
        <time>2012-06-23T11:54:43Z</time>
      </trkpt>
      <trkpt lat="45.604" lon="6.15765">
        <ele>1401.300049</ele>
        <time>2012-06-23T11:54:44Z</time>
      </trkpt>
      <trkpt lat="45.60392" lon="6.15747">
        <ele>1402.5</ele>
        <time>2012-06-23T11:54:55Z</time>
      </trkpt>
      <trkpt lat="45.60388" lon="6.15737">
        <ele>1401</ele>
        <time>2012-06-23T11:55:01Z</time>
      </trkpt>
      <trkpt lat="45.60384" lon="6.15726">
        <ele>1402.300049</ele>
        <time>2012-06-23T11:55:08Z</time>
      </trkpt>
      <trkpt lat="45.6038" lon="6.15716">
        <ele>1402.5</ele>
        <time>2012-06-23T11:55:15Z</time>
      </trkpt>
      <trkpt lat="45.60377" lon="6.15704">
        <ele>1400</ele>
        <time>2012-06-23T11:55:23Z</time>
      </trkpt>
      <trkpt lat="45.60378" lon="6.15692">
        <ele>1400.099976</ele>
        <time>2012-06-23T11:55:30Z</time>
      </trkpt>
      <trkpt lat="45.60383" lon="6.15684">
        <ele>1401.5</ele>
        <time>2012-06-23T11:55:37Z</time>
      </trkpt>
      <trkpt lat="45.60387" lon="6.15673">
        <ele>1407.400024</ele>
        <time>2012-06-23T11:55:45Z</time>
      </trkpt>
      <trkpt lat="45.60387" lon="6.15671">
        <ele>1407.5</ele>
        <time>2012-06-23T11:55:46Z</time>
      </trkpt>
      <trkpt lat="45.60377" lon="6.15655">
        <ele>1404</ele>
        <time>2012-06-23T11:55:56Z</time>
      </trkpt>
      <trkpt lat="45.60371" lon="6.15647">
        <ele>1402.300049</ele>
        <time>2012-06-23T11:56:01Z</time>
      </trkpt>
      <trkpt lat="45.60365" lon="6.1564">
        <ele>1400.400024</ele>
        <time>2012-06-23T11:56:06Z</time>
      </trkpt>
      <trkpt lat="45.60359" lon="6.15632">
        <ele>1399.300049</ele>
        <time>2012-06-23T11:56:11Z</time>
      </trkpt>
      <trkpt lat="45.60353" lon="6.15625">
        <ele>1397.5</ele>
        <time>2012-06-23T11:56:16Z</time>
      </trkpt>
      <trkpt lat="45.60346" lon="6.15617">
        <ele>1394.900024</ele>
        <time>2012-06-23T11:56:22Z</time>
      </trkpt>
      <trkpt lat="45.60341" lon="6.15608">
        <ele>1391.599976</ele>
        <time>2012-06-23T11:56:28Z</time>
      </trkpt>
      <trkpt lat="45.60336" lon="6.15598">
        <ele>1387.800049</ele>
        <time>2012-06-23T11:56:34Z</time>
      </trkpt>
      <trkpt lat="45.60332" lon="6.15588">
        <ele>1384.599976</ele>
        <time>2012-06-23T11:56:40Z</time>
      </trkpt>
      <trkpt lat="45.60329" lon="6.15577">
        <ele>1381.300049</ele>
        <time>2012-06-23T11:56:46Z</time>
      </trkpt>
      <trkpt lat="45.60329" lon="6.15575">
        <ele>1381</ele>
        <time>2012-06-23T11:56:47Z</time>
      </trkpt>
      <trkpt lat="45.6032" lon="6.15557">
        <ele>1376.099976</ele>
        <time>2012-06-23T11:56:58Z</time>
      </trkpt>
      <trkpt lat="45.60316" lon="6.15548">
        <ele>1373.5</ele>
        <time>2012-06-23T11:57:03Z</time>
      </trkpt>
      <trkpt lat="45.6031" lon="6.1554">
        <ele>1371.5</ele>
        <time>2012-06-23T11:57:08Z</time>
      </trkpt>
      <trkpt lat="45.60305" lon="6.15533">
        <ele>1370.800049</ele>
        <time>2012-06-23T11:57:13Z</time>
      </trkpt>
      <trkpt lat="45.60298" lon="6.15525">
        <ele>1369.400024</ele>
        <time>2012-06-23T11:57:19Z</time>
      </trkpt>
      <trkpt lat="45.60291" lon="6.15517">
        <ele>1367.599976</ele>
        <time>2012-06-23T11:57:25Z</time>
      </trkpt>
      <trkpt lat="45.60285" lon="6.15509">
        <ele>1366.5</ele>
        <time>2012-06-23T11:57:31Z</time>
      </trkpt>
      <trkpt lat="45.60279" lon="6.155">
        <ele>1365.800049</ele>
        <time>2012-06-23T11:57:38Z</time>
      </trkpt>
      <trkpt lat="45.60272" lon="6.15492">
        <ele>1364.099976</ele>
        <time>2012-06-23T11:57:45Z</time>
      </trkpt>
      <trkpt lat="45.60265" lon="6.15485">
        <ele>1362.5</ele>
        <time>2012-06-23T11:57:52Z</time>
      </trkpt>
      <trkpt lat="45.60264" lon="6.15484">
        <ele>1362.300049</ele>
        <time>2012-06-23T11:57:53Z</time>
      </trkpt>
      <trkpt lat="45.60251" lon="6.1547">
        <ele>1359.099976</ele>
        <time>2012-06-23T11:58:37Z</time>
      </trkpt>
      <trkpt lat="45.60243" lon="6.15464">
        <ele>1357.5</ele>
        <time>2012-06-23T11:58:44Z</time>
      </trkpt>
      <trkpt lat="45.60236" lon="6.15459">
        <ele>1355.5</ele>
        <time>2012-06-23T11:58:50Z</time>
      </trkpt>
      <trkpt lat="45.60229" lon="6.15454">
        <ele>1353.5</ele>
        <time>2012-06-23T11:58:56Z</time>
      </trkpt>
      <trkpt lat="45.60228" lon="6.15453">
        <ele>1353.400024</ele>
        <time>2012-06-23T11:58:57Z</time>
      </trkpt>
      <trkpt lat="45.60214" lon="6.15442">
        <ele>1351.099976</ele>
        <time>2012-06-23T11:59:08Z</time>
      </trkpt>
      <trkpt lat="45.60207" lon="6.15436">
        <ele>1349.599976</ele>
        <time>2012-06-23T11:59:14Z</time>
      </trkpt>
      <trkpt lat="45.60199" lon="6.15429">
        <ele>1348.5</ele>
        <time>2012-06-23T11:59:20Z</time>
      </trkpt>
      <trkpt lat="45.60192" lon="6.15423">
        <ele>1347.099976</ele>
        <time>2012-06-23T11:59:26Z</time>
      </trkpt>
      <trkpt lat="45.60184" lon="6.15419">
        <ele>1345</ele>
        <time>2012-06-23T11:59:32Z</time>
      </trkpt>
      <trkpt lat="45.60176" lon="6.15417">
        <ele>1341.800049</ele>
        <time>2012-06-23T11:59:39Z</time>
      </trkpt>
      <trkpt lat="45.60169" lon="6.15412">
        <ele>1339.900024</ele>
        <time>2012-06-23T11:59:45Z</time>
      </trkpt>
      <trkpt lat="45.60162" lon="6.15404">
        <ele>1338.5</ele>
        <time>2012-06-23T11:59:52Z</time>
      </trkpt>
      <trkpt lat="45.60163" lon="6.15392">
        <ele>1338.599976</ele>
        <time>2012-06-23T12:00:00Z</time>
      </trkpt>
      <trkpt lat="45.60163" lon="6.15391">
        <ele>1338.800049</ele>
        <time>2012-06-23T12:00:01Z</time>
      </trkpt>
      <trkpt lat="45.60156" lon="6.15372">
        <ele>1336</ele>
        <time>2012-06-23T12:00:13Z</time>
      </trkpt>
      <trkpt lat="45.6015" lon="6.15364">
        <ele>1332.599976</ele>
        <time>2012-06-23T12:00:19Z</time>
      </trkpt>
      <trkpt lat="45.60145" lon="6.15354">
        <ele>1330.099976</ele>
        <time>2012-06-23T12:00:26Z</time>
      </trkpt>
      <trkpt lat="45.6014" lon="6.15345">
        <ele>1329</ele>
        <time>2012-06-23T12:00:32Z</time>
      </trkpt>
      <trkpt lat="45.60133" lon="6.15337">
        <ele>1328.099976</ele>
        <time>2012-06-23T12:00:39Z</time>
      </trkpt>
      <trkpt lat="45.60126" lon="6.1533">
        <ele>1322.800049</ele>
        <time>2012-06-23T12:00:54Z</time>
      </trkpt>
      <trkpt lat="45.60119" lon="6.15324">
        <ele>1320.5</ele>
        <time>2012-06-23T12:01:01Z</time>
      </trkpt>
      <trkpt lat="45.60118" lon="6.15323">
        <ele>1320</ele>
        <time>2012-06-23T12:01:02Z</time>
      </trkpt>
      <trkpt lat="45.60107" lon="6.15309">
        <ele>1316.800049</ele>
        <time>2012-06-23T12:01:12Z</time>
      </trkpt>
      <trkpt lat="45.60101" lon="6.15301">
        <ele>1315</ele>
        <time>2012-06-23T12:01:17Z</time>
      </trkpt>
      <trkpt lat="45.60096" lon="6.15293">
        <ele>1314</ele>
        <time>2012-06-23T12:01:22Z</time>
      </trkpt>
      <trkpt lat="45.60091" lon="6.15283">
        <ele>1312.900024</ele>
        <time>2012-06-23T12:01:28Z</time>
      </trkpt>
      <trkpt lat="45.60087" lon="6.15272">
        <ele>1312.5</ele>
        <time>2012-06-23T12:01:37Z</time>
      </trkpt>
      <trkpt lat="45.6008" lon="6.15263">
        <ele>1310</ele>
        <time>2012-06-23T12:01:48Z</time>
      </trkpt>
      <trkpt lat="45.60074" lon="6.15255">
        <ele>1308.800049</ele>
        <time>2012-06-23T12:01:58Z</time>
      </trkpt>
      <trkpt lat="45.60068" lon="6.15247">
        <ele>1308.400024</ele>
        <time>2012-06-23T12:02:07Z</time>
      </trkpt>
      <trkpt lat="45.60067" lon="6.15246">
        <ele>1308.5</ele>
        <time>2012-06-23T12:02:08Z</time>
      </trkpt>
      <trkpt lat="45.60055" lon="6.15234">
        <ele>1310.599976</ele>
        <time>2012-06-23T12:02:21Z</time>
      </trkpt>
      <trkpt lat="45.60047" lon="6.15228">
        <ele>1310.599976</ele>
        <time>2012-06-23T12:02:28Z</time>
      </trkpt>
      <trkpt lat="45.6004" lon="6.15221">
        <ele>1312.800049</ele>
        <time>2012-06-23T12:02:36Z</time>
      </trkpt>
      <trkpt lat="45.60033" lon="6.15214">
        <ele>1313.5</ele>
        <time>2012-06-23T12:02:44Z</time>
      </trkpt>
      <trkpt lat="45.60025" lon="6.15208">
        <ele>1313.400024</ele>
        <time>2012-06-23T12:02:51Z</time>
      </trkpt>
      <trkpt lat="45.60019" lon="6.15201">
        <ele>1312.900024</ele>
        <time>2012-06-23T12:02:57Z</time>
      </trkpt>
      <trkpt lat="45.60012" lon="6.15196">
        <ele>1312.400024</ele>
        <time>2012-06-23T12:03:04Z</time>
      </trkpt>
      <trkpt lat="45.60005" lon="6.15191">
        <ele>1310.300049</ele>
        <time>2012-06-23T12:03:10Z</time>
      </trkpt>
      <trkpt lat="45.60004" lon="6.1519">
        <ele>1310</ele>
        <time>2012-06-23T12:03:11Z</time>
      </trkpt>
      <trkpt lat="45.5999" lon="6.15182">
        <ele>1307.5</ele>
        <time>2012-06-23T12:03:23Z</time>
      </trkpt>
      <trkpt lat="45.59983" lon="6.15179">
        <ele>1305</ele>
        <time>2012-06-23T12:03:30Z</time>
      </trkpt>
      <trkpt lat="45.59975" lon="6.15175">
        <ele>1303.300049</ele>
        <time>2012-06-23T12:03:36Z</time>
      </trkpt>
      <trkpt lat="45.59966" lon="6.15173">
        <ele>1300.599976</ele>
        <time>2012-06-23T12:03:43Z</time>
      </trkpt>
      <trkpt lat="45.59959" lon="6.15169">
        <ele>1298.400024</ele>
        <time>2012-06-23T12:03:49Z</time>
      </trkpt>
      <trkpt lat="45.5995" lon="6.15167">
        <ele>1295.900024</ele>
        <time>2012-06-23T12:03:55Z</time>
      </trkpt>
      <trkpt lat="45.59943" lon="6.15163">
        <ele>1294.5</ele>
        <time>2012-06-23T12:04:01Z</time>
      </trkpt>
      <trkpt lat="45.59936" lon="6.15157">
        <ele>1293.400024</ele>
        <time>2012-06-23T12:04:09Z</time>
      </trkpt>
      <trkpt lat="45.5993" lon="6.15149">
        <ele>1294.400024</ele>
        <time>2012-06-23T12:04:17Z</time>
      </trkpt>
      <trkpt lat="45.59929" lon="6.15147">
        <ele>1294.400024</ele>
        <time>2012-06-23T12:04:18Z</time>
      </trkpt>
      <trkpt lat="45.5992" lon="6.15129">
        <ele>1296.300049</ele>
        <time>2012-06-23T12:04:32Z</time>
      </trkpt>
      <trkpt lat="45.59916" lon="6.1512">
        <ele>1296.5</ele>
        <time>2012-06-23T12:04:37Z</time>
      </trkpt>
      <trkpt lat="45.5991" lon="6.15112">
        <ele>1296.099976</ele>
        <time>2012-06-23T12:04:42Z</time>
      </trkpt>
      <trkpt lat="45.59905" lon="6.15104">
        <ele>1297</ele>
        <time>2012-06-23T12:04:47Z</time>
      </trkpt>
      <trkpt lat="45.59899" lon="6.15097">
        <ele>1299</ele>
        <time>2012-06-23T12:04:51Z</time>
      </trkpt>
      <trkpt lat="45.59892" lon="6.15089">
        <ele>1298.900024</ele>
        <time>2012-06-23T12:04:56Z</time>
      </trkpt>
      <trkpt lat="45.59887" lon="6.15082">
        <ele>1297.400024</ele>
        <time>2012-06-23T12:05:01Z</time>
      </trkpt>
      <trkpt lat="45.59879" lon="6.15075">
        <ele>1296.300049</ele>
        <time>2012-06-23T12:05:07Z</time>
      </trkpt>
      <trkpt lat="45.59872" lon="6.1507">
        <ele>1295.5</ele>
        <time>2012-06-23T12:05:13Z</time>
      </trkpt>
      <trkpt lat="45.59864" lon="6.15064">
        <ele>1293</ele>
        <time>2012-06-23T12:05:21Z</time>
      </trkpt>
      <trkpt lat="45.59863" lon="6.15064">
        <ele>1292.599976</ele>
        <time>2012-06-23T12:05:22Z</time>
      </trkpt>
      <trkpt lat="45.59851" lon="6.15052">
        <ele>1288.099976</ele>
        <time>2012-06-23T12:05:34Z</time>
      </trkpt>
      <trkpt lat="45.59843" lon="6.15048">
        <ele>1286</ele>
        <time>2012-06-23T12:05:39Z</time>
      </trkpt>
      <trkpt lat="45.59836" lon="6.15045">
        <ele>1285.300049</ele>
        <time>2012-06-23T12:05:43Z</time>
      </trkpt>
      <trkpt lat="45.59829" lon="6.15039">
        <ele>1284.400024</ele>
        <time>2012-06-23T12:05:48Z</time>
      </trkpt>
      <trkpt lat="45.59821" lon="6.15033">
        <ele>1284.5</ele>
        <time>2012-06-23T12:05:54Z</time>
      </trkpt>
      <trkpt lat="45.59813" lon="6.15028">
        <ele>1285.900024</ele>
        <time>2012-06-23T12:06:00Z</time>
      </trkpt>
      <trkpt lat="45.59806" lon="6.15022">
        <ele>1285.400024</ele>
        <time>2012-06-23T12:06:07Z</time>
      </trkpt>
      <trkpt lat="45.59798" lon="6.15018">
        <ele>1285</ele>
        <time>2012-06-23T12:06:15Z</time>
      </trkpt>
      <trkpt lat="45.5979" lon="6.15011">
        <ele>1284.900024</ele>
        <time>2012-06-23T12:06:24Z</time>
      </trkpt>
      <trkpt lat="45.59789" lon="6.1501">
        <ele>1285</ele>
        <time>2012-06-23T12:06:25Z</time>
      </trkpt>
      <trkpt lat="45.59775" lon="6.14999">
        <ele>1287.800049</ele>
        <time>2012-06-23T12:06:35Z</time>
      </trkpt>
      <trkpt lat="45.59768" lon="6.14992">
        <ele>1288.900024</ele>
        <time>2012-06-23T12:06:40Z</time>
      </trkpt>
      <trkpt lat="45.59762" lon="6.14984">
        <ele>1290.400024</ele>
        <time>2012-06-23T12:06:45Z</time>
      </trkpt>
      <trkpt lat="45.59755" lon="6.14976">
        <ele>1292.400024</ele>
        <time>2012-06-23T12:06:50Z</time>
      </trkpt>
      <trkpt lat="45.59749" lon="6.14969">
        <ele>1293</ele>
        <time>2012-06-23T12:06:55Z</time>
      </trkpt>
      <trkpt lat="45.59743" lon="6.14962">
        <ele>1292</ele>
        <time>2012-06-23T12:07:00Z</time>
      </trkpt>
      <trkpt lat="45.59736" lon="6.14956">
        <ele>1290.400024</ele>
        <time>2012-06-23T12:07:05Z</time>
      </trkpt>
      <trkpt lat="45.59728" lon="6.14951">
        <ele>1288.5</ele>
        <time>2012-06-23T12:07:10Z</time>
      </trkpt>
      <trkpt lat="45.59721" lon="6.14948">
        <ele>1286.800049</ele>
        <time>2012-06-23T12:07:15Z</time>
      </trkpt>
      <trkpt lat="45.59713" lon="6.14942">
        <ele>1286</ele>
        <time>2012-06-23T12:07:21Z</time>
      </trkpt>
      <trkpt lat="45.59708" lon="6.14934">
        <ele>1284.599976</ele>
        <time>2012-06-23T12:07:28Z</time>
      </trkpt>
      <trkpt lat="45.59707" lon="6.14932">
        <ele>1284.5</ele>
        <time>2012-06-23T12:07:29Z</time>
      </trkpt>
      <trkpt lat="45.59694" lon="6.1492">
        <ele>1279.099976</ele>
        <time>2012-06-23T12:07:42Z</time>
      </trkpt>
      <trkpt lat="45.59687" lon="6.14915">
        <ele>1278</ele>
        <time>2012-06-23T12:07:50Z</time>
      </trkpt>
      <trkpt lat="45.5968" lon="6.1491">
        <ele>1277</ele>
        <time>2012-06-23T12:07:57Z</time>
      </trkpt>
      <trkpt lat="45.59672" lon="6.14908">
        <ele>1276</ele>
        <time>2012-06-23T12:08:02Z</time>
      </trkpt>
      <trkpt lat="45.59664" lon="6.14907">
        <ele>1274.300049</ele>
        <time>2012-06-23T12:08:08Z</time>
      </trkpt>
      <trkpt lat="45.59656" lon="6.14906">
        <ele>1273</ele>
        <time>2012-06-23T12:08:15Z</time>
      </trkpt>
      <trkpt lat="45.59647" lon="6.14907">
        <ele>1272.800049</ele>
        <time>2012-06-23T12:08:21Z</time>
      </trkpt>
      <trkpt lat="45.59638" lon="6.14909">
        <ele>1271.599976</ele>
        <time>2012-06-23T12:08:27Z</time>
      </trkpt>
      <trkpt lat="45.5963" lon="6.14909">
        <ele>1270.900024</ele>
        <time>2012-06-23T12:08:33Z</time>
      </trkpt>
      <trkpt lat="45.59629" lon="6.14909">
        <ele>1270.800049</ele>
        <time>2012-06-23T12:08:34Z</time>
      </trkpt>
      <trkpt lat="45.59614" lon="6.14909">
        <ele>1268.099976</ele>
        <time>2012-06-23T12:08:46Z</time>
      </trkpt>
      <trkpt lat="45.59606" lon="6.14911">
        <ele>1267.099976</ele>
        <time>2012-06-23T12:08:52Z</time>
      </trkpt>
      <trkpt lat="45.59598" lon="6.1491">
        <ele>1267.300049</ele>
        <time>2012-06-23T12:08:59Z</time>
      </trkpt>
      <trkpt lat="45.5959" lon="6.14905">
        <ele>1265.5</ele>
        <time>2012-06-23T12:09:07Z</time>
      </trkpt>
      <trkpt lat="45.59583" lon="6.14901">
        <ele>1264.800049</ele>
        <time>2012-06-23T12:09:14Z</time>
      </trkpt>
      <trkpt lat="45.59575" lon="6.14897">
        <ele>1263</ele>
        <time>2012-06-23T12:09:20Z</time>
      </trkpt>
      <trkpt lat="45.59567" lon="6.14894">
        <ele>1262</ele>
        <time>2012-06-23T12:09:26Z</time>
      </trkpt>
      <trkpt lat="45.59559" lon="6.14891">
        <ele>1261.800049</ele>
        <time>2012-06-23T12:09:32Z</time>
      </trkpt>
      <trkpt lat="45.59551" lon="6.14886">
        <ele>1260</ele>
        <time>2012-06-23T12:09:40Z</time>
      </trkpt>
      <trkpt lat="45.5955" lon="6.14885">
        <ele>1259.599976</ele>
        <time>2012-06-23T12:09:41Z</time>
      </trkpt>
      <trkpt lat="45.59535" lon="6.14881">
        <ele>1256.800049</ele>
        <time>2012-06-23T12:09:52Z</time>
      </trkpt>
      <trkpt lat="45.59527" lon="6.14881">
        <ele>1255</ele>
        <time>2012-06-23T12:09:58Z</time>
      </trkpt>
      <trkpt lat="45.59519" lon="6.14881">
        <ele>1252.900024</ele>
        <time>2012-06-23T12:10:04Z</time>
      </trkpt>
      <trkpt lat="45.5951" lon="6.14883">
        <ele>1252.800049</ele>
        <time>2012-06-23T12:10:11Z</time>
      </trkpt>
      <trkpt lat="45.59502" lon="6.14884">
        <ele>1250.099976</ele>
        <time>2012-06-23T12:10:18Z</time>
      </trkpt>
      <trkpt lat="45.59494" lon="6.14888">
        <ele>1246.5</ele>
        <time>2012-06-23T12:10:25Z</time>
      </trkpt>
      <trkpt lat="45.59486" lon="6.14891">
        <ele>1242.300049</ele>
        <time>2012-06-23T12:10:33Z</time>
      </trkpt>
      <trkpt lat="45.59479" lon="6.14897">
        <ele>1237.400024</ele>
        <time>2012-06-23T12:10:42Z</time>
      </trkpt>
      <trkpt lat="45.59478" lon="6.14898">
        <ele>1236.900024</ele>
        <time>2012-06-23T12:10:43Z</time>
      </trkpt>
      <trkpt lat="45.59464" lon="6.14908">
        <ele>1227.300049</ele>
        <time>2012-06-23T12:11:03Z</time>
      </trkpt>
      <trkpt lat="45.59455" lon="6.14908">
        <ele>1224.5</ele>
        <time>2012-06-23T12:11:13Z</time>
      </trkpt>
      <trkpt lat="45.59447" lon="6.14905">
        <ele>1221.5</ele>
        <time>2012-06-23T12:11:22Z</time>
      </trkpt>
      <trkpt lat="45.59438" lon="6.14901">
        <ele>1219.400024</ele>
        <time>2012-06-23T12:11:30Z</time>
      </trkpt>
      <trkpt lat="45.5943" lon="6.14899">
        <ele>1217</ele>
        <time>2012-06-23T12:11:38Z</time>
      </trkpt>
      <trkpt lat="45.59422" lon="6.14898">
        <ele>1214</ele>
        <time>2012-06-23T12:11:46Z</time>
      </trkpt>
      <trkpt lat="45.5942" lon="6.14898">
        <ele>1213.5</ele>
        <time>2012-06-23T12:11:47Z</time>
      </trkpt>
      <trkpt lat="45.59404" lon="6.14897">
        <ele>1209</ele>
        <time>2012-06-23T12:12:03Z</time>
      </trkpt>
      <trkpt lat="45.59396" lon="6.14896">
        <ele>1205.800049</ele>
        <time>2012-06-23T12:12:11Z</time>
      </trkpt>
      <trkpt lat="45.59389" lon="6.14892">
        <ele>1203</ele>
        <time>2012-06-23T12:12:18Z</time>
      </trkpt>
      <trkpt lat="45.5938" lon="6.14894">
        <ele>1200.599976</ele>
        <time>2012-06-23T12:12:25Z</time>
      </trkpt>
      <trkpt lat="45.59372" lon="6.14895">
        <ele>1197.5</ele>
        <time>2012-06-23T12:12:33Z</time>
      </trkpt>
      <trkpt lat="45.59364" lon="6.14893">
        <ele>1195</ele>
        <time>2012-06-23T12:12:41Z</time>
      </trkpt>
      <trkpt lat="45.59357" lon="6.14891">
        <ele>1193</ele>
        <time>2012-06-23T12:12:48Z</time>
      </trkpt>
      <trkpt lat="45.59355" lon="6.1489">
        <ele>1192.5</ele>
        <time>2012-06-23T12:12:49Z</time>
      </trkpt>
      <trkpt lat="45.5934" lon="6.14883">
        <ele>1190.599976</ele>
        <time>2012-06-23T12:13:02Z</time>
      </trkpt>
      <trkpt lat="45.59332" lon="6.14881">
        <ele>1190.400024</ele>
        <time>2012-06-23T12:13:08Z</time>
      </trkpt>
      <trkpt lat="45.59323" lon="6.14878">
        <ele>1189.099976</ele>
        <time>2012-06-23T12:13:16Z</time>
      </trkpt>
      <trkpt lat="45.59315" lon="6.14873">
        <ele>1188</ele>
        <time>2012-06-23T12:13:23Z</time>
      </trkpt>
      <trkpt lat="45.59307" lon="6.14871">
        <ele>1187.800049</ele>
        <time>2012-06-23T12:13:29Z</time>
      </trkpt>
      <trkpt lat="45.59299" lon="6.14873">
        <ele>1184.900024</ele>
        <time>2012-06-23T12:13:36Z</time>
      </trkpt>
      <trkpt lat="45.59291" lon="6.14876">
        <ele>1181.800049</ele>
        <time>2012-06-23T12:13:43Z</time>
      </trkpt>
      <trkpt lat="45.59283" lon="6.14876">
        <ele>1178.5</ele>
        <time>2012-06-23T12:13:51Z</time>
      </trkpt>
      <trkpt lat="45.59282" lon="6.14875">
        <ele>1178.099976</ele>
        <time>2012-06-23T12:13:52Z</time>
      </trkpt>
      <trkpt lat="45.59267" lon="6.1487">
        <ele>1175.5</ele>
        <time>2012-06-23T12:14:07Z</time>
      </trkpt>
      <trkpt lat="45.59259" lon="6.14865">
        <ele>1174.599976</ele>
        <time>2012-06-23T12:14:15Z</time>
      </trkpt>
      <trkpt lat="45.59252" lon="6.14858">
        <ele>1173</ele>
        <time>2012-06-23T12:14:24Z</time>
      </trkpt>
      <trkpt lat="45.59246" lon="6.14851">
        <ele>1171.900024</ele>
        <time>2012-06-23T12:14:31Z</time>
      </trkpt>
      <trkpt lat="45.5924" lon="6.14844">
        <ele>1169.599976</ele>
        <time>2012-06-23T12:14:37Z</time>
      </trkpt>
      <trkpt lat="45.59234" lon="6.14835">
        <ele>1166.400024</ele>
        <time>2012-06-23T12:14:44Z</time>
      </trkpt>
      <trkpt lat="45.59227" lon="6.14829">
        <ele>1163.300049</ele>
        <time>2012-06-23T12:14:51Z</time>
      </trkpt>
      <trkpt lat="45.5922" lon="6.14822">
        <ele>1159.300049</ele>
        <time>2012-06-23T12:14:59Z</time>
      </trkpt>
      <trkpt lat="45.59219" lon="6.14821">
        <ele>1158.599976</ele>
        <time>2012-06-23T12:15:00Z</time>
      </trkpt>
      <trkpt lat="45.59205" lon="6.14813">
        <ele>1154.400024</ele>
        <time>2012-06-23T12:15:12Z</time>
      </trkpt>
      <trkpt lat="45.59197" lon="6.14817">
        <ele>1151.800049</ele>
        <time>2012-06-23T12:15:20Z</time>
      </trkpt>
      <trkpt lat="45.59189" lon="6.14817">
        <ele>1149.599976</ele>
        <time>2012-06-23T12:15:27Z</time>
      </trkpt>
      <trkpt lat="45.59181" lon="6.14817">
        <ele>1146.800049</ele>
        <time>2012-06-23T12:15:35Z</time>
      </trkpt>
      <trkpt lat="45.59172" lon="6.14813">
        <ele>1142.400024</ele>
        <time>2012-06-23T12:15:48Z</time>
      </trkpt>
      <trkpt lat="45.59165" lon="6.14805">
        <ele>1142.300049</ele>
        <time>2012-06-23T12:15:56Z</time>
      </trkpt>
      <trkpt lat="45.59157" lon="6.14802">
        <ele>1139.5</ele>
        <time>2012-06-23T12:16:05Z</time>
      </trkpt>
      <trkpt lat="45.59156" lon="6.14802">
        <ele>1139</ele>
        <time>2012-06-23T12:16:06Z</time>
      </trkpt>
      <trkpt lat="45.59142" lon="6.14796">
        <ele>1134.5</ele>
        <time>2012-06-23T12:16:20Z</time>
      </trkpt>
      <trkpt lat="45.59133" lon="6.14794">
        <ele>1131.400024</ele>
        <time>2012-06-23T12:16:28Z</time>
      </trkpt>
      <trkpt lat="45.59125" lon="6.14794">
        <ele>1128.900024</ele>
        <time>2012-06-23T12:16:36Z</time>
      </trkpt>
      <trkpt lat="45.59117" lon="6.14792">
        <ele>1127.300049</ele>
        <time>2012-06-23T12:16:44Z</time>
      </trkpt>
      <trkpt lat="45.59109" lon="6.1479">
        <ele>1122.300049</ele>
        <time>2012-06-23T12:16:54Z</time>
      </trkpt>
      <trkpt lat="45.59101" lon="6.14787">
        <ele>1119.5</ele>
        <time>2012-06-23T12:17:01Z</time>
      </trkpt>
      <trkpt lat="45.59093" lon="6.14788">
        <ele>1115.900024</ele>
        <time>2012-06-23T12:17:07Z</time>
      </trkpt>
      <trkpt lat="45.59092" lon="6.14788">
        <ele>1115.300049</ele>
        <time>2012-06-23T12:17:08Z</time>
      </trkpt>
      <trkpt lat="45.59076" lon="6.14789">
        <ele>1107.5</ele>
        <time>2012-06-23T12:17:22Z</time>
      </trkpt>
      <trkpt lat="45.59068" lon="6.14786">
        <ele>1105.900024</ele>
        <time>2012-06-23T12:17:29Z</time>
      </trkpt>
      <trkpt lat="45.5906" lon="6.14784">
        <ele>1103.599976</ele>
        <time>2012-06-23T12:17:37Z</time>
      </trkpt>
      <trkpt lat="45.59051" lon="6.14785">
        <ele>1102</ele>
        <time>2012-06-23T12:17:44Z</time>
      </trkpt>
      <trkpt lat="45.59043" lon="6.14782">
        <ele>1100.400024</ele>
        <time>2012-06-23T12:17:52Z</time>
      </trkpt>
      <trkpt lat="45.59035" lon="6.14783">
        <ele>1097.800049</ele>
        <time>2012-06-23T12:18:00Z</time>
      </trkpt>
      <trkpt lat="45.59026" lon="6.14783">
        <ele>1092.599976</ele>
        <time>2012-06-23T12:18:08Z</time>
      </trkpt>
      <trkpt lat="45.59025" lon="6.14783">
        <ele>1091.800049</ele>
        <time>2012-06-23T12:18:09Z</time>
      </trkpt>
      <trkpt lat="45.5901" lon="6.14782">
        <ele>1082.300049</ele>
        <time>2012-06-23T12:18:24Z</time>
      </trkpt>
      <trkpt lat="45.59002" lon="6.14777">
        <ele>1079.599976</ele>
        <time>2012-06-23T12:18:31Z</time>
      </trkpt>
      <trkpt lat="45.58996" lon="6.14769">
        <ele>1077.900024</ele>
        <time>2012-06-23T12:18:38Z</time>
      </trkpt>
      <trkpt lat="45.58993" lon="6.14758">
        <ele>1079.099976</ele>
        <time>2012-06-23T12:18:47Z</time>
      </trkpt>
      <trkpt lat="45.58988" lon="6.14748">
        <ele>1077.400024</ele>
        <time>2012-06-23T12:18:55Z</time>
      </trkpt>
      <trkpt lat="45.58982" lon="6.14739">
        <ele>1074.099976</ele>
        <time>2012-06-23T12:19:02Z</time>
      </trkpt>
      <trkpt lat="45.58978" lon="6.14729">
        <ele>1072</ele>
        <time>2012-06-23T12:19:09Z</time>
      </trkpt>
      <trkpt lat="45.58977" lon="6.14728">
        <ele>1071.400024</ele>
        <time>2012-06-23T12:19:10Z</time>
      </trkpt>
      <trkpt lat="45.58971" lon="6.14707">
        <ele>1064.800049</ele>
        <time>2012-06-23T12:19:26Z</time>
      </trkpt>
      <trkpt lat="45.58966" lon="6.14697">
        <ele>1065</ele>
        <time>2012-06-23T12:19:36Z</time>
      </trkpt>
      <trkpt lat="45.58962" lon="6.14686">
        <ele>1065.599976</ele>
        <time>2012-06-23T12:19:43Z</time>
      </trkpt>
      <trkpt lat="45.58958" lon="6.14676">
        <ele>1065</ele>
        <time>2012-06-23T12:19:50Z</time>
      </trkpt>
      <trkpt lat="45.58954" lon="6.14666">
        <ele>1066.599976</ele>
        <time>2012-06-23T12:19:57Z</time>
      </trkpt>
      <trkpt lat="45.58949" lon="6.14656">
        <ele>1065.900024</ele>
        <time>2012-06-23T12:20:04Z</time>
      </trkpt>
      <trkpt lat="45.58945" lon="6.14645">
        <ele>1063.400024</ele>
        <time>2012-06-23T12:20:12Z</time>
      </trkpt>
      <trkpt lat="45.58945" lon="6.14644">
        <ele>1063.099976</ele>
        <time>2012-06-23T12:20:13Z</time>
      </trkpt>
      <trkpt lat="45.58934" lon="6.14627">
        <ele>1062.800049</ele>
        <time>2012-06-23T12:20:26Z</time>
      </trkpt>
      <trkpt lat="45.58928" lon="6.14619">
        <ele>1060.400024</ele>
        <time>2012-06-23T12:20:33Z</time>
      </trkpt>
      <trkpt lat="45.5892" lon="6.14615">
        <ele>1060</ele>
        <time>2012-06-23T12:20:40Z</time>
      </trkpt>
      <trkpt lat="45.58913" lon="6.14609">
        <ele>1060.900024</ele>
        <time>2012-06-23T12:20:46Z</time>
      </trkpt>
      <trkpt lat="45.58907" lon="6.146">
        <ele>1067.900024</ele>
        <time>2012-06-23T12:20:57Z</time>
      </trkpt>
      <trkpt lat="45.58905" lon="6.14589">
        <ele>1071.599976</ele>
        <time>2012-06-23T12:21:09Z</time>
      </trkpt>
      <trkpt lat="45.58904" lon="6.14577">
        <ele>1070.5</ele>
        <time>2012-06-23T12:21:22Z</time>
      </trkpt>
      <trkpt lat="45.58904" lon="6.14576">
        <ele>1070.5</ele>
        <time>2012-06-23T12:21:23Z</time>
      </trkpt>
      <trkpt lat="45.58896" lon="6.14556">
        <ele>1071.300049</ele>
        <time>2012-06-23T12:21:35Z</time>
      </trkpt>
      <trkpt lat="45.58892" lon="6.14545">
        <ele>1070.5</ele>
        <time>2012-06-23T12:21:40Z</time>
      </trkpt>
      <trkpt lat="45.58887" lon="6.14534">
        <ele>1070.900024</ele>
        <time>2012-06-23T12:21:46Z</time>
      </trkpt>
      <trkpt lat="45.58885" lon="6.14523">
        <ele>1072.300049</ele>
        <time>2012-06-23T12:21:52Z</time>
      </trkpt>
      <trkpt lat="45.58883" lon="6.14511">
        <ele>1073.5</ele>
        <time>2012-06-23T12:21:58Z</time>
      </trkpt>
      <trkpt lat="45.5888" lon="6.145">
        <ele>1073.5</ele>
        <time>2012-06-23T12:22:04Z</time>
      </trkpt>
      <trkpt lat="45.58879" lon="6.14488">
        <ele>1073.5</ele>
        <time>2012-06-23T12:22:11Z</time>
      </trkpt>
      <trkpt lat="45.58876" lon="6.14477">
        <ele>1072.599976</ele>
        <time>2012-06-23T12:22:19Z</time>
      </trkpt>
      <trkpt lat="45.58873" lon="6.14466">
        <ele>1070.599976</ele>
        <time>2012-06-23T12:22:28Z</time>
      </trkpt>
      <trkpt lat="45.58873" lon="6.14464">
        <ele>1070.5</ele>
        <time>2012-06-23T12:22:29Z</time>
      </trkpt>
      <trkpt lat="45.58867" lon="6.14445">
        <ele>1070.900024</ele>
        <time>2012-06-23T12:22:43Z</time>
      </trkpt>
      <trkpt lat="45.58863" lon="6.14434">
        <ele>1071.5</ele>
        <time>2012-06-23T12:22:50Z</time>
      </trkpt>
      <trkpt lat="45.58858" lon="6.14423">
        <ele>1072.800049</ele>
        <time>2012-06-23T12:22:56Z</time>
      </trkpt>
      <trkpt lat="45.58855" lon="6.14411">
        <ele>1071.300049</ele>
        <time>2012-06-23T12:23:03Z</time>
      </trkpt>
      <trkpt lat="45.58851" lon="6.144">
        <ele>1069.400024</ele>
        <time>2012-06-23T12:23:10Z</time>
      </trkpt>
      <trkpt lat="45.58845" lon="6.14391">
        <ele>1067.5</ele>
        <time>2012-06-23T12:23:16Z</time>
      </trkpt>
      <trkpt lat="45.58839" lon="6.14385">
        <ele>1065.400024</ele>
        <time>2012-06-23T12:23:21Z</time>
      </trkpt>
      <trkpt lat="45.58831" lon="6.14378">
        <ele>1064.400024</ele>
        <time>2012-06-23T12:23:26Z</time>
      </trkpt>
      <trkpt lat="45.58824" lon="6.14374">
        <ele>1064.599976</ele>
        <time>2012-06-23T12:23:30Z</time>
      </trkpt>
      <trkpt lat="45.58823" lon="6.14373">
        <ele>1064.800049</ele>
        <time>2012-06-23T12:23:31Z</time>
      </trkpt>
      <trkpt lat="45.5881" lon="6.14363">
        <ele>1065.800049</ele>
        <time>2012-06-23T12:23:39Z</time>
      </trkpt>
      <trkpt lat="45.58803" lon="6.14356">
        <ele>1066.599976</ele>
        <time>2012-06-23T12:23:45Z</time>
      </trkpt>
      <trkpt lat="45.58796" lon="6.14349">
        <ele>1067.099976</ele>
        <time>2012-06-23T12:23:52Z</time>
      </trkpt>
      <trkpt lat="45.58789" lon="6.1434">
        <ele>1064</ele>
        <time>2012-06-23T12:24:02Z</time>
      </trkpt>
      <trkpt lat="45.58783" lon="6.14333">
        <ele>1062.599976</ele>
        <time>2012-06-23T12:24:10Z</time>
      </trkpt>
      <trkpt lat="45.58778" lon="6.14325">
        <ele>1062.800049</ele>
        <time>2012-06-23T12:24:16Z</time>
      </trkpt>
      <trkpt lat="45.58772" lon="6.14316">
        <ele>1062.5</ele>
        <time>2012-06-23T12:24:21Z</time>
      </trkpt>
      <trkpt lat="45.58768" lon="6.14307">
        <ele>1062.300049</ele>
        <time>2012-06-23T12:24:25Z</time>
      </trkpt>
      <trkpt lat="45.58762" lon="6.14298">
        <ele>1062.5</ele>
        <time>2012-06-23T12:24:29Z</time>
      </trkpt>
      <trkpt lat="45.58758" lon="6.14289">
        <ele>1061.300049</ele>
        <time>2012-06-23T12:24:33Z</time>
      </trkpt>
      <trkpt lat="45.58757" lon="6.14286">
        <ele>1060.900024</ele>
        <time>2012-06-23T12:24:34Z</time>
      </trkpt>
      <trkpt lat="45.58746" lon="6.14272">
        <ele>1058.599976</ele>
        <time>2012-06-23T12:24:42Z</time>
      </trkpt>
      <trkpt lat="45.5874" lon="6.14265">
        <ele>1056.900024</ele>
        <time>2012-06-23T12:24:47Z</time>
      </trkpt>
      <trkpt lat="45.58733" lon="6.14258">
        <ele>1055</ele>
        <time>2012-06-23T12:24:52Z</time>
      </trkpt>
      <trkpt lat="45.58726" lon="6.14253">
        <ele>1053.5</ele>
        <time>2012-06-23T12:24:57Z</time>
      </trkpt>
      <trkpt lat="45.58718" lon="6.14248">
        <ele>1052</ele>
        <time>2012-06-23T12:25:03Z</time>
      </trkpt>
      <trkpt lat="45.5871" lon="6.14245">
        <ele>1051.099976</ele>
        <time>2012-06-23T12:25:10Z</time>
      </trkpt>
      <trkpt lat="45.58702" lon="6.1424">
        <ele>1051.300049</ele>
        <time>2012-06-23T12:25:18Z</time>
      </trkpt>
      <trkpt lat="45.58693" lon="6.14236">
        <ele>1052.900024</ele>
        <time>2012-06-23T12:25:26Z</time>
      </trkpt>
      <trkpt lat="45.58686" lon="6.14229">
        <ele>1054.800049</ele>
        <time>2012-06-23T12:25:35Z</time>
      </trkpt>
      <trkpt lat="45.58686" lon="6.14229">
        <ele>1054.599976</ele>
        <time>2012-06-23T12:25:36Z</time>
      </trkpt>
      <trkpt lat="45.58677" lon="6.14209">
        <ele>1052.400024</ele>
        <time>2012-06-23T12:25:54Z</time>
      </trkpt>
      <trkpt lat="45.58675" lon="6.14197">
        <ele>1050.599976</ele>
        <time>2012-06-23T12:26:02Z</time>
      </trkpt>
      <trkpt lat="45.58672" lon="6.14187">
        <ele>1050.300049</ele>
        <time>2012-06-23T12:26:08Z</time>
      </trkpt>
      <trkpt lat="45.58667" lon="6.14178">
        <ele>1049.099976</ele>
        <time>2012-06-23T12:26:14Z</time>
      </trkpt>
      <trkpt lat="45.58662" lon="6.14168">
        <ele>1049.5</ele>
        <time>2012-06-23T12:26:20Z</time>
      </trkpt>
      <trkpt lat="45.58657" lon="6.1416">
        <ele>1050.5</ele>
        <time>2012-06-23T12:26:25Z</time>
      </trkpt>
      <trkpt lat="45.58652" lon="6.14151">
        <ele>1051</ele>
        <time>2012-06-23T12:26:30Z</time>
      </trkpt>
      <trkpt lat="45.58648" lon="6.14141">
        <ele>1051.800049</ele>
        <time>2012-06-23T12:26:35Z</time>
      </trkpt>
      <trkpt lat="45.58644" lon="6.14131">
        <ele>1050.900024</ele>
        <time>2012-06-23T12:26:40Z</time>
      </trkpt>
      <trkpt lat="45.58643" lon="6.14129">
        <ele>1050.599976</ele>
        <time>2012-06-23T12:26:41Z</time>
      </trkpt>
      <trkpt lat="45.58632" lon="6.14115">
        <ele>1050</ele>
        <time>2012-06-23T12:26:50Z</time>
      </trkpt>
      <trkpt lat="45.58626" lon="6.14108">
        <ele>1048.900024</ele>
        <time>2012-06-23T12:26:55Z</time>
      </trkpt>
      <trkpt lat="45.5862" lon="6.141">
        <ele>1046.800049</ele>
        <time>2012-06-23T12:27:01Z</time>
      </trkpt>
      <trkpt lat="45.58613" lon="6.14092">
        <ele>1043.900024</ele>
        <time>2012-06-23T12:27:07Z</time>
      </trkpt>
      <trkpt lat="45.58606" lon="6.14085">
        <ele>1040.900024</ele>
        <time>2012-06-23T12:27:13Z</time>
      </trkpt>
      <trkpt lat="45.586" lon="6.14078">
        <ele>1038.900024</ele>
        <time>2012-06-23T12:27:18Z</time>
      </trkpt>
      <trkpt lat="45.58593" lon="6.14071">
        <ele>1037.5</ele>
        <time>2012-06-23T12:27:24Z</time>
      </trkpt>
      <trkpt lat="45.58588" lon="6.14061">
        <ele>1037.599976</ele>
        <time>2012-06-23T12:27:33Z</time>
      </trkpt>
      <trkpt lat="45.58584" lon="6.1405">
        <ele>1038</ele>
        <time>2012-06-23T12:27:44Z</time>
      </trkpt>
      <trkpt lat="45.58584" lon="6.1405">
        <ele>1038.300049</ele>
        <time>2012-06-23T12:27:45Z</time>
      </trkpt>
      <trkpt lat="45.58571" lon="6.14035">
        <ele>1041.099976</ele>
        <time>2012-06-23T12:27:58Z</time>
      </trkpt>
      <trkpt lat="45.58566" lon="6.14027">
        <ele>1041.900024</ele>
        <time>2012-06-23T12:28:05Z</time>
      </trkpt>
      <trkpt lat="45.58558" lon="6.14021">
        <ele>1042</ele>
        <time>2012-06-23T12:28:12Z</time>
      </trkpt>
      <trkpt lat="45.58553" lon="6.14013">
        <ele>1040.800049</ele>
        <time>2012-06-23T12:28:18Z</time>
      </trkpt>
      <trkpt lat="45.58547" lon="6.14004">
        <ele>1041.599976</ele>
        <time>2012-06-23T12:28:24Z</time>
      </trkpt>
      <trkpt lat="45.58541" lon="6.13996">
        <ele>1042.5</ele>
        <time>2012-06-23T12:28:30Z</time>
      </trkpt>
      <trkpt lat="45.58535" lon="6.13987">
        <ele>1042.300049</ele>
        <time>2012-06-23T12:28:36Z</time>
      </trkpt>
      <trkpt lat="45.58528" lon="6.1398">
        <ele>1039.400024</ele>
        <time>2012-06-23T12:28:43Z</time>
      </trkpt>
      <trkpt lat="45.58522" lon="6.13972">
        <ele>1037.900024</ele>
        <time>2012-06-23T12:28:49Z</time>
      </trkpt>
      <trkpt lat="45.58521" lon="6.13971">
        <ele>1037.5</ele>
        <time>2012-06-23T12:28:50Z</time>
      </trkpt>
      <trkpt lat="45.58509" lon="6.13957">
        <ele>1037.5</ele>
        <time>2012-06-23T12:29:01Z</time>
      </trkpt>
      <trkpt lat="45.58503" lon="6.13949">
        <ele>1037.5</ele>
        <time>2012-06-23T12:29:07Z</time>
      </trkpt>
      <trkpt lat="45.58496" lon="6.13943">
        <ele>1036.300049</ele>
        <time>2012-06-23T12:29:12Z</time>
      </trkpt>
      <trkpt lat="45.5849" lon="6.13935">
        <ele>1035.599976</ele>
        <time>2012-06-23T12:29:17Z</time>
      </trkpt>
      <trkpt lat="45.58484" lon="6.13925">
        <ele>1036.900024</ele>
        <time>2012-06-23T12:29:23Z</time>
      </trkpt>
      <trkpt lat="45.58478" lon="6.13918">
        <ele>1037</ele>
        <time>2012-06-23T12:29:28Z</time>
      </trkpt>
      <trkpt lat="45.58472" lon="6.13909">
        <ele>1037.5</ele>
        <time>2012-06-23T12:29:34Z</time>
      </trkpt>
      <trkpt lat="45.58465" lon="6.13901">
        <ele>1037.5</ele>
        <time>2012-06-23T12:29:41Z</time>
      </trkpt>
      <trkpt lat="45.58457" lon="6.13895">
        <ele>1035</ele>
        <time>2012-06-23T12:29:47Z</time>
      </trkpt>
      <trkpt lat="45.58451" lon="6.13888">
        <ele>1031.900024</ele>
        <time>2012-06-23T12:29:54Z</time>
      </trkpt>
      <trkpt lat="45.5845" lon="6.13887">
        <ele>1031.300049</ele>
        <time>2012-06-23T12:29:55Z</time>
      </trkpt>
      <trkpt lat="45.58438" lon="6.13872">
        <ele>1030</ele>
        <time>2012-06-23T12:30:07Z</time>
      </trkpt>
      <trkpt lat="45.58434" lon="6.13862">
        <ele>1031.599976</ele>
        <time>2012-06-23T12:30:12Z</time>
      </trkpt>
      <trkpt lat="45.58431" lon="6.13852">
        <ele>1033.400024</ele>
        <time>2012-06-23T12:30:17Z</time>
      </trkpt>
      <trkpt lat="45.58426" lon="6.13842">
        <ele>1033.900024</ele>
        <time>2012-06-23T12:30:23Z</time>
      </trkpt>
      <trkpt lat="45.58421" lon="6.13834">
        <ele>1033.5</ele>
        <time>2012-06-23T12:30:28Z</time>
      </trkpt>
      <trkpt lat="45.58416" lon="6.13824">
        <ele>1031.900024</ele>
        <time>2012-06-23T12:30:34Z</time>
      </trkpt>
      <trkpt lat="45.58411" lon="6.13815">
        <ele>1029.599976</ele>
        <time>2012-06-23T12:30:40Z</time>
      </trkpt>
      <trkpt lat="45.58406" lon="6.13806">
        <ele>1027</ele>
        <time>2012-06-23T12:30:46Z</time>
      </trkpt>
      <trkpt lat="45.58401" lon="6.13795">
        <ele>1026.599976</ele>
        <time>2012-06-23T12:30:53Z</time>
      </trkpt>
      <trkpt lat="45.58397" lon="6.13784">
        <ele>1025.900024</ele>
        <time>2012-06-23T12:30:59Z</time>
      </trkpt>
      <trkpt lat="45.58396" lon="6.13783">
        <ele>1025.599976</ele>
        <time>2012-06-23T12:31:00Z</time>
      </trkpt>
      <trkpt lat="45.58385" lon="6.13766">
        <ele>1019.700012</ele>
        <time>2012-06-23T12:31:13Z</time>
      </trkpt>
      <trkpt lat="45.58379" lon="6.13759">
        <ele>1018.200012</ele>
        <time>2012-06-23T12:31:19Z</time>
      </trkpt>
      <trkpt lat="45.58374" lon="6.1375">
        <ele>1018.200012</ele>
        <time>2012-06-23T12:31:25Z</time>
      </trkpt>
      <trkpt lat="45.58368" lon="6.13742">
        <ele>1017.5</ele>
        <time>2012-06-23T12:31:30Z</time>
      </trkpt>
      <trkpt lat="45.58361" lon="6.13737">
        <ele>1014.400024</ele>
        <time>2012-06-23T12:31:36Z</time>
      </trkpt>
      <trkpt lat="45.58354" lon="6.13731">
        <ele>1011.900024</ele>
        <time>2012-06-23T12:31:41Z</time>
      </trkpt>
      <trkpt lat="45.58347" lon="6.13725">
        <ele>1009.700012</ele>
        <time>2012-06-23T12:31:46Z</time>
      </trkpt>
      <trkpt lat="45.5834" lon="6.13719">
        <ele>1007.5</ele>
        <time>2012-06-23T12:31:52Z</time>
      </trkpt>
      <trkpt lat="45.58333" lon="6.13712">
        <ele>1003.700012</ele>
        <time>2012-06-23T12:31:58Z</time>
      </trkpt>
      <trkpt lat="45.58327" lon="6.13704">
        <ele>1000.700012</ele>
        <time>2012-06-23T12:32:04Z</time>
      </trkpt>
      <trkpt lat="45.58326" lon="6.13703">
        <ele>1000.200012</ele>
        <time>2012-06-23T12:32:05Z</time>
      </trkpt>
      <trkpt lat="45.58313" lon="6.1369">
        <ele>992.200012</ele>
        <time>2012-06-23T12:32:18Z</time>
      </trkpt>
      <trkpt lat="45.58307" lon="6.13681">
        <ele>990.400024</ele>
        <time>2012-06-23T12:32:25Z</time>
      </trkpt>
      <trkpt lat="45.58301" lon="6.13672">
        <ele>991.700012</ele>
        <time>2012-06-23T12:32:32Z</time>
      </trkpt>
      <trkpt lat="45.58297" lon="6.13662">
        <ele>994.200012</ele>
        <time>2012-06-23T12:32:39Z</time>
      </trkpt>
      <trkpt lat="45.58292" lon="6.13653">
        <ele>993.900024</ele>
        <time>2012-06-23T12:32:46Z</time>
      </trkpt>
      <trkpt lat="45.58286" lon="6.13645">
        <ele>993</ele>
        <time>2012-06-23T12:32:53Z</time>
      </trkpt>
      <trkpt lat="45.5828" lon="6.13637">
        <ele>991.700012</ele>
        <time>2012-06-23T12:33:00Z</time>
      </trkpt>
      <trkpt lat="45.58275" lon="6.1363">
        <ele>991</ele>
        <time>2012-06-23T12:33:06Z</time>
      </trkpt>
      <trkpt lat="45.58273" lon="6.13628">
        <ele>990.900024</ele>
        <time>2012-06-23T12:33:07Z</time>
      </trkpt>
      <trkpt lat="45.58261" lon="6.13614">
        <ele>991.900024</ele>
        <time>2012-06-23T12:33:19Z</time>
      </trkpt>
      <trkpt lat="45.58256" lon="6.13607">
        <ele>992.700012</ele>
        <time>2012-06-23T12:33:23Z</time>
      </trkpt>
      <trkpt lat="45.58251" lon="6.13599">
        <ele>991.5</ele>
        <time>2012-06-23T12:33:27Z</time>
      </trkpt>
      <trkpt lat="45.58247" lon="6.13588">
        <ele>990.700012</ele>
        <time>2012-06-23T12:33:37Z</time>
      </trkpt>
      <trkpt lat="45.58252" lon="6.13578">
        <ele>996</ele>
        <time>2012-06-23T12:35:09Z</time>
      </trkpt>
      <trkpt lat="45.58253" lon="6.13579">
        <ele>995.900024</ele>
        <time>2012-06-23T12:35:10Z</time>
      </trkpt>
      <trkpt lat="45.58267" lon="6.1359">
        <ele>992</ele>
        <time>2012-06-23T12:35:28Z</time>
      </trkpt>
      <trkpt lat="45.58275" lon="6.13595">
        <ele>990.400024</ele>
        <time>2012-06-23T12:35:36Z</time>
      </trkpt>
      <trkpt lat="45.58282" lon="6.136">
        <ele>989.700012</ele>
        <time>2012-06-23T12:35:43Z</time>
      </trkpt>
      <trkpt lat="45.5829" lon="6.13606">
        <ele>989.700012</ele>
        <time>2012-06-23T12:35:51Z</time>
      </trkpt>
      <trkpt lat="45.58297" lon="6.13613">
        <ele>990.700012</ele>
        <time>2012-06-23T12:35:59Z</time>
      </trkpt>
      <trkpt lat="45.58304" lon="6.1362">
        <ele>997.200012</ele>
        <time>2012-06-23T12:36:08Z</time>
      </trkpt>
      <trkpt lat="45.58312" lon="6.13625">
        <ele>998.400024</ele>
        <time>2012-06-23T12:36:17Z</time>
      </trkpt>
      <trkpt lat="45.58313" lon="6.13626">
        <ele>998.200012</ele>
        <time>2012-06-23T12:36:18Z</time>
      </trkpt>
      <trkpt lat="45.58329" lon="6.13631">
        <ele>994.200012</ele>
        <time>2012-06-23T12:36:30Z</time>
      </trkpt>
      <trkpt lat="45.58337" lon="6.13632">
        <ele>991.400024</ele>
        <time>2012-06-23T12:36:36Z</time>
      </trkpt>
      <trkpt lat="45.58346" lon="6.13631">
        <ele>979.700012</ele>
        <time>2012-06-23T12:36:54Z</time>
      </trkpt>
      <trkpt lat="45.58355" lon="6.13633">
        <ele>958.700012</ele>
        <time>2012-06-23T12:38:31Z</time>
      </trkpt>
      <trkpt lat="45.58355" lon="6.13633">
        <ele>958.5</ele>
        <time>2012-06-23T12:38:32Z</time>
      </trkpt>
      <trkpt lat="45.58364" lon="6.13633">
        <ele>955</ele>
        <time>2012-06-23T12:40:12Z</time>
      </trkpt>
      <trkpt lat="45.58365" lon="6.13632">
        <ele>957.400024</ele>
        <time>2012-06-23T12:40:21Z</time>
      </trkpt>
    </trkseg>
  </trk>
</gpx>